Provisional Data: Swatara Creek near Annville, PA


Please select a monitoring station.
Please select start date.
Please select start date.

Toggle Unit: C/F Toggle Unit: C/F
Sample Time Temperature (C) Temperature (F) Specific Conductivity (mS/cm) pH   Turbidity (NTU+) DO (mg/L)
5/4/2021 12:00:00 AM 16.13 61.034 0.158 7.29 217.9 7.49
5/4/2021 12:15:00 AM 16.23 61.214 0.179 7.3 189.3 7.53
5/4/2021 12:30:00 AM 16.22 61.196 0.18 7.31 174.4 7.48
5/4/2021 12:45:00 AM 16.21 61.178 0.18 7.31 142.9 7.47
5/4/2021 1:00:00 AM 16.13 61.034 0.171 7.32 135.1 7.46
5/4/2021 1:15:00 AM 16.06 60.908 0.167 7.33 192.5 7.43
5/4/2021 1:30:00 AM 15.95 60.71 0.163 7.34 228.8 7.4
5/4/2021 1:45:00 AM 15.87 60.566 0.159 7.35 258.4 7.38
5/4/2021 2:00:00 AM 15.84 60.512 0.159 7.36 267 7.39
5/4/2021 2:15:00 AM 15.77 60.386 0.172 7.36 203.6 7.39
5/4/2021 2:30:00 AM 15.78 60.404 0.175 7.36 201.5 7.34
5/4/2021 2:45:00 AM 15.71 60.278 0.176 7.36 236.9 7.3
5/4/2021 3:00:00 AM 15.65 60.17 0.176 7.37 269.5 7.26
5/4/2021 3:15:00 AM 15.59 60.062 0.175 7.36 255.1 7.23
5/4/2021 3:30:00 AM 15.59 60.062 0.174 7.36 245.6 7.23
5/4/2021 3:45:00 AM 15.54 59.972 0.173 7.36 268.8 7.23
5/4/2021 4:00:00 AM 15.56 60.008 0.173 7.35 270.7 7.25
5/4/2021 4:15:00 AM 15.56 60.008 0.174 7.33 236.8 7.27
5/4/2021 4:30:00 AM 15.59 60.062 0.175 7.33 251.7 7.28
5/4/2021 4:45:00 AM 15.61 60.098 0.177 7.33 166.9 7.28
5/4/2021 5:00:00 AM 15.63 60.134 0.179 7.33 199.1 7.3
5/4/2021 5:15:00 AM 15.64 60.152 0.18 7.34 157.3 7.31
5/4/2021 5:30:00 AM 15.66 60.188 0.182 7.33 190 7.32
5/4/2021 5:45:00 AM 15.66 60.188 0.183 7.32 166.6 7.33
5/4/2021 6:00:00 AM 15.68 60.224 0.176 7.33 179 7.33
5/4/2021 6:15:00 AM 15.67 60.206 0.182 7.33 183.7 7.34
5/4/2021 6:30:00 AM 15.63 60.134 0.185 7.32 154.8 7.34
5/4/2021 6:45:00 AM 15.63 60.134 0.177 7.33 141.6 7.34
5/4/2021 7:00:00 AM 15.61 60.098 0.172 7.32 146.3 7.33
5/4/2021 7:15:00 AM 15.58 60.044 0.185 7.33 145 7.32
5/4/2021 7:30:00 AM 15.55 59.99 0.181 7.33 143.1 7.34
5/4/2021 7:45:00 AM 15.52 59.936 0.188 7.32 155.9 7.32
5/4/2021 8:00:00 AM 15.53 59.954 0.178 7.32 156 7.35
5/4/2021 8:15:00 AM 15.52 59.936 0.188 7.32 136.8 7.35
5/4/2021 8:30:00 AM 15.52 59.936 0.187 7.31 140.2 7.34
5/4/2021 8:45:00 AM 15.52 59.936 0.187 7.32 127.8 7.34
5/4/2021 9:00:00 AM 15.52 59.936 0.187 7.32 123.4 7.34
5/4/2021 9:15:00 AM 15.52 59.936 0.183 7.32 132.7 7.32
5/4/2021 9:30:00 AM 15.54 59.972 0.177 7.31 133.4 7.28
5/4/2021 9:45:00 AM 15.54 59.972 0.172 7.31 165.6 7.29
5/4/2021 10:00:00 AM 15.56 60.008 0.185 7.3 145.2 7.27
5/4/2021 10:15:00 AM 15.58 60.044 0.186 7.31 106 7.25
5/4/2021 10:30:00 AM 15.62 60.116 0.186 7.3 174.8 7.24
5/4/2021 10:45:00 AM 15.67 60.206 0.187 7.31 135.2 7.23
5/4/2021 11:00:00 AM 15.72 60.296 0.189 7.3 179.8 7.21
5/4/2021 11:15:00 AM 15.81 60.458 0.186 7.3 190.5 7.2
5/4/2021 11:30:00 AM 15.92 60.656 0.192 7.3 170.2 7.21
5/4/2021 11:45:00 AM 16.03 60.854 0.194 7.3 109 7.22
5/4/2021 12:00:00 PM 16.18 61.124 0.197 7.31 104 7.22
5/4/2021 12:15:00 PM 16.3 61.34 0.199 7.31 250.2 7.21
5/4/2021 12:30:00 PM 16.42 61.556 0.202 7.31 210.6 7.23
5/4/2021 12:45:00 PM 16.56 61.808 0.205 7.32 100.7 7.25
5/4/2021 1:00:00 PM 16.68 62.024 0.207 7.33 155.6 7.24
5/4/2021 1:15:00 PM 16.81 62.258 0.209 7.33 175.7 7.28
5/4/2021 1:30:00 PM 16.91 62.438 0.212 7.34 175.8 7.27
5/4/2021 1:45:00 PM 17.01 62.618 0.213 7.35 178.3 7.29
5/4/2021 2:00:00 PM 17.09 62.762 0.214 7.35 169.7 7.32
5/4/2021 2:15:00 PM 17.16 62.888 0.214 7.37 174.4 7.35
5/4/2021 2:30:00 PM 17.15 62.87 0.212 7.36 148.6 7.36
5/4/2021 2:45:00 PM 17.22 62.996 0.211 7.37 195.9 7.36
5/4/2021 3:00:00 PM 17.36 63.248 0.209 7.37 188.5 7.39
5/4/2021 3:15:00 PM 17.47 63.446 0.207 7.37 164.3 7.42
5/4/2021 3:30:00 PM 17.49 63.482 0.205 7.38 180.6 7.42
5/4/2021 3:45:00 PM 17.56 63.608 0.203 7.38 170.1 7.46
5/4/2021 4:00:00 PM 17.68 63.824 0.193 7.38 189 7.48
5/4/2021 4:15:00 PM 17.81 64.058 0.199 7.38 168.1 7.51
5/4/2021 4:30:00 PM 17.79 64.022 0.197 7.39 222.4 7.49
5/4/2021 4:45:00 PM 17.87 64.166 0.196 7.38 209.5 7.53
5/4/2021 5:00:00 PM 17.89 64.202 0.195 7.38 120.6 7.6
5/4/2021 5:15:00 PM 17.94 64.292 0.194 7.39 116 7.59
5/4/2021 5:30:00 PM 17.95 64.31 0.193 7.39 154.8 7.6
5/4/2021 5:45:00 PM 17.96 64.328 0.192 7.38 114.3 7.61
5/4/2021 6:00:00 PM 17.99 64.382 0.191 7.39 112.9 7.62
5/4/2021 6:15:00 PM 17.99 64.382 0.191 7.39 95.21 7.63
5/4/2021 6:30:00 PM 18.03 64.454 0.19 7.39 96.83 7.64
5/4/2021 6:45:00 PM 18.03 64.454 0.19 7.38 67.55 7.63
5/4/2021 7:00:00 PM 18.06 64.508 0.188 7.39 108.2 7.63
5/4/2021 7:15:00 PM 18.1 64.58 0.187 7.38 69.33 7.61
5/4/2021 7:30:00 PM 18.1 64.58 0.187 7.38 71.68 7.61
5/4/2021 7:45:00 PM 18.12 64.616 0.187 7.38 74.23 7.6
5/4/2021 8:00:00 PM 18.14 64.652 0.186 7.37 67.72 7.59
5/4/2021 8:15:00 PM 18.17 64.706 0.185 7.37 77.13 7.57
5/4/2021 8:30:00 PM 18.17 64.706 0.185 7.37 82.1 7.54
5/4/2021 8:45:00 PM 18.16 64.688 0.185 7.37 89.15 7.53
5/4/2021 9:00:00 PM 18.17 64.706 0.184 7.37 93.77 7.5
5/4/2021 9:15:00 PM 18.18 64.724 0.183 7.37 99.31 7.49
5/4/2021 9:30:00 PM 18.18 64.724 0.184 7.37 110.5 7.47
5/4/2021 9:45:00 PM 18.17 64.706 0.18 7.35 208.4 7.44
5/4/2021 10:00:00 PM 18.19 64.742 0.182 7.36 84.28 7.41
5/4/2021 10:15:00 PM 18.2 64.76 0.172 7.36 86.24 7.39
5/4/2021 10:30:00 PM 18.18 64.724 0.181 7.35 114.3 7.39
5/4/2021 10:45:00 PM 18.19 64.742 0.181 7.35 227.6 7.37
5/4/2021 11:00:00 PM 18.18 64.724 0.181 7.35 99.53 7.35
5/4/2021 11:15:00 PM 18.19 64.742 0.181 7.35 106.5 7.32
5/4/2021 11:30:00 PM 18.19 64.742 0.181 7.34 86.09 7.31
5/4/2021 11:45:00 PM 18.19 64.742 0.181 7.34 190 7.28
5/5/2021 12:00:00 AM 18.18 64.724 0.181 7.33 155.5 7.26
5/5/2021 12:15:00 AM 18.18 64.724 0.181 7.33 108.6 7.23
5/5/2021 12:30:00 AM 18.17 64.706 0.181 7.33 115.1 7.22
5/5/2021 12:45:00 AM 18.16 64.688 0.181 7.33 586.8 7.2
5/5/2021 1:00:00 AM 18.16 64.688 0.181 7.33 74.73 7.19
5/5/2021 1:15:00 AM 18.15 64.67 0.181 7.32 177.8 7.16
5/5/2021 1:30:00 AM 18.14 64.652 0.18 7.32 79.48 7.14
5/5/2021 1:45:00 AM 18.13 64.634 0.18 7.31 82.93 7.11
5/5/2021 2:00:00 AM 18.11 64.598 0.18 7.3 87.35 7.08
5/5/2021 2:15:00 AM 18.08 64.544 0.178 7.3 135.7 7.06
5/5/2021 2:30:00 AM 18.07 64.526 0.179 7.31 157.9 7.01
5/5/2021 2:45:00 AM 18.05 64.49 0.179 7.3 83.5 7.01
5/5/2021 3:00:00 AM 18.03 64.454 0.179 7.29 85.15 6.97
5/5/2021 3:15:00 AM 18 64.4 0.179 7.29 88.22 6.95
5/5/2021 3:30:00 AM 17.99 64.382 0.179 7.28 91.72 6.91
5/5/2021 3:45:00 AM 17.95 64.31 0.178 7.28 92.67 6.91
5/5/2021 4:00:00 AM 17.92 64.256 0.178 7.28 72.2 6.86
5/5/2021 4:15:00 AM 17.89 64.202 0.178 7.27 87.68 6.85
5/5/2021 4:30:00 AM 17.86 64.148 0.177 7.27 83.69 6.82
5/5/2021 4:45:00 AM 17.84 64.112 0.177 7.27 109.5 6.81
5/5/2021 5:00:00 AM 17.8 64.04 0.173 7.26 86.96 6.8
5/5/2021 5:15:00 AM 17.77 63.986 0.162 7.26 115.7 6.79
5/5/2021 5:30:00 AM 17.75 63.95 0.176 7.26 138.1 6.76
5/5/2021 5:45:00 AM 17.72 63.896 0.167 7.25 120.8 6.74
5/5/2021 6:00:00 AM 17.69 63.842 0.172 7.25 123.6 6.72
5/5/2021 6:15:00 AM 17.67 63.806 0.174 7.25 106.9 6.72
5/5/2021 6:30:00 AM 17.65 63.77 0.166 7.25 97.33 6.71
5/5/2021 6:45:00 AM 17.62 63.716 0.161 7.25 151.6 6.7
5/5/2021 7:00:00 AM 17.6 63.68 0.163 7.24 111.4 6.69
5/5/2021 7:15:00 AM 17.58 63.644 0.173 7.24 181.1 6.68
5/5/2021 7:30:00 AM 17.57 63.626 0.172 7.24 113.6 6.68
5/5/2021 7:45:00 AM 17.56 63.608 0.163 7.23 109.3 6.69
5/5/2021 8:00:00 AM 17.54 63.572 0.167 7.24 107.7 6.69
5/5/2021 8:15:00 AM 17.52 63.536 0.166 7.24 135.7 6.68
5/5/2021 8:30:00 AM 17.51 63.518 0.166 7.23 134.2 6.65
5/5/2021 8:45:00 AM 17.5 63.5 0.166 7.23 114 6.69
5/5/2021 9:00:00 AM 17.48 63.464 0.164 7.23 146.6 6.69
5/5/2021 9:15:00 AM 17.47 63.446 0.168 7.23 118.5 6.73
5/5/2021 9:30:00 AM 17.46 63.428 0.158 7.23 118.4 6.73
5/5/2021 9:45:00 AM 17.44 63.392 0.16 7.24 141.9 6.74
5/5/2021 10:00:00 AM 17.41 63.338 0.161 7.23 257.3 6.77
5/5/2021 10:15:00 AM 17.35 63.23 0.16 7.24 197.5 6.87
5/5/2021 10:30:00 AM 17.14 62.852 0.175 7.25 178.8 6.95
5/5/2021 10:45:00 AM 16.65 61.97 0.165 7.32 339.4 7.26
5/5/2021 11:00:00 AM 16.62 61.916 0.131 7.24 444.7 7.13
5/5/2021 11:15:00 AM 16.73 62.114 0.132 7.18 439.3 7
5/5/2021 11:30:00 AM 16.82 62.276 0.131 7.18 361.9 6.95
5/5/2021 11:45:00 AM 16.91 62.438 0.125 7.17 451.2 6.91
5/5/2021 12:00:00 PM 17 62.6 0.126 7.17 405.6 6.91
5/5/2021 12:15:00 PM 17.08 62.744 0.126 7.18 452.1 6.92
5/5/2021 12:30:00 PM 17.22 62.996 0.13 7.16 436.7 6.87
5/5/2021 12:45:00 PM 17.38 63.284 0.134 7.17 421.1 6.86
5/5/2021 1:00:00 PM 17.47 63.446 0.133 7.18 391.6 6.83
5/5/2021 1:15:00 PM 17.58 63.644 0.139 7.2 332.6 6.88
5/5/2021 1:30:00 PM 17.62 63.716 0.152 7.23 347.9 6.95
5/5/2021 1:45:00 PM 17.61 63.698 0.156 7.26 405 6.97
5/5/2021 2:00:00 PM 17.62 63.716 0.157 7.29 385.8 7.03
5/5/2021 2:15:00 PM 17.6 63.68 0.16 7.31 355.2 7
5/5/2021 2:30:00 PM 17.59 63.662 0.162 7.32 442.8 6.96
5/5/2021 2:45:00 PM 17.59 63.662 0.158 7.33 399.7 6.95
5/5/2021 3:00:00 PM 17.63 63.734 0.161 7.34 384.6 6.95
5/5/2021 3:15:00 PM 17.62 63.716 0.157 7.33 473.1 6.94
5/5/2021 3:30:00 PM 17.61 63.698 0.154 7.33 380.6 6.98
5/5/2021 3:45:00 PM 17.63 63.734 0.152 7.33 460.9 7.01
5/5/2021 4:00:00 PM 17.64 63.752 0.15 7.33 463.2 7.01
5/5/2021 4:15:00 PM 17.66 63.788 0.15 7.32 407.7 7
5/5/2021 4:30:00 PM 17.67 63.806 0.151 7.32 444.6 6.99
5/5/2021 4:45:00 PM 17.71 63.878 0.153 7.32 355 7.12
5/5/2021 5:00:00 PM 17.71 63.878 0.156 7.31 312.5 7.15
5/5/2021 5:15:00 PM 17.73 63.914 0.158 7.32 384.5 7.2
5/5/2021 5:30:00 PM 17.77 63.986 0.161 7.33 308.4 7.24
5/5/2021 5:45:00 PM 17.8 64.04 0.162 7.33 323.5 7.29
5/5/2021 6:00:00 PM 17.81 64.058 0.164 7.34 302.4 7.33
5/5/2021 6:15:00 PM 17.81 64.058 0.165 7.36 332.7 7.33
5/5/2021 6:30:00 PM 17.79 64.022 0.166 7.36 338.1 7.34
5/5/2021 6:45:00 PM 17.77 63.986 0.165 7.36 341.1 7.32
5/5/2021 7:00:00 PM 17.72 63.896 0.165 7.37 426.5 7.29
5/5/2021 7:15:00 PM 17.67 63.806 0.163 7.37 345.1 7.25
5/5/2021 7:30:00 PM 17.61 63.698 0.162 7.36 485.6 7.2
5/5/2021 7:45:00 PM 17.54 63.572 0.16 7.35 416.3 7.16
5/5/2021 8:00:00 PM 17.47 63.446 0.159 7.34 402.2 7.04
5/5/2021 8:15:00 PM 17.41 63.338 0.158 7.33 455.7 7.01
5/5/2021 8:30:00 PM 17.35 63.23 0.157 7.33 454.5 6.97
5/5/2021 8:45:00 PM 17.29 63.122 0.156 7.32 446.8 6.94
5/5/2021 9:00:00 PM 17.25 63.05 0.155 7.31 409.7 6.97
5/5/2021 9:15:00 PM 17.22 62.996 0.155 7.31 225 7.04
5/5/2021 9:30:00 PM 17.19 62.942 0.155 7.31 210.8 7.04
5/5/2021 9:45:00 PM 17.17 62.906 0.156 7.31 252.1 7.03
5/5/2021 10:00:00 PM 17.15 62.87 0.157 7.31 230 7.06
5/5/2021 10:15:00 PM 17.13 62.834 0.159 7.31 285.4 7.02
5/5/2021 10:30:00 PM 17.1 62.78 0.159 7.32 257.5 7.02
5/5/2021 10:45:00 PM 17.05 62.69 0.158 7.32 304.9 7.01
5/5/2021 11:00:00 PM 17 62.6 0.156 7.32 396.2 7.03
5/5/2021 11:15:00 PM 16.93 62.474 0.152 7.32 204.7 7.07
5/5/2021 11:30:00 PM 16.86 62.348 0.15 7.31 213.7 7.1
5/5/2021 11:45:00 PM 16.8 62.24 0.147 7.3 337.6 7.15
5/6/2021 12:00:00 AM 16.73 62.114 0.146 7.29 181.8 7.17
5/6/2021 12:15:00 AM 16.66 61.988 0.145 7.3 185.6 7.2
5/6/2021 12:30:00 AM 16.6 61.88 0.145 7.3 382.8 7.17
5/6/2021 12:45:00 AM 16.53 61.754 0.145 7.3 323.9 7.21
5/6/2021 1:00:00 AM 16.46 61.628 0.143 7.31 239.2 7.22
5/6/2021 1:15:00 AM 16.39 61.502 0.145 7.3 259.9 7.25
5/6/2021 1:30:00 AM 16.3 61.34 0.145 7.3 207.3 7.28
5/6/2021 1:45:00 AM 16.22 61.196 0.143 7.3 167.5 7.29
5/6/2021 2:00:00 AM 16.13 61.034 0.142 7.28 156.1 7.33
5/6/2021 2:15:00 AM 16.04 60.872 0.139 7.28 149.3 7.37
5/6/2021 2:30:00 AM 15.97 60.746 0.138 7.28 142.6 7.37
5/6/2021 2:45:00 AM 15.88 60.584 0.135 7.26 143 7.39
5/6/2021 3:00:00 AM 15.8 60.44 0.132 7.27 143.2 7.4
5/6/2021 3:15:00 AM 15.72 60.296 0.129 7.26 186.3 7.41
5/6/2021 3:30:00 AM 15.65 60.17 0.127 7.25 136 7.41
5/6/2021 3:45:00 AM 15.59 60.062 0.125 7.24 145.8 7.42
5/6/2021 4:00:00 AM 15.52 59.936 0.124 7.23 140.8 7.4
5/6/2021 4:15:00 AM 15.46 59.828 0.121 7.23 144.9 7.43
5/6/2021 4:30:00 AM 15.4 59.72 0.119 7.22 138.8 7.47
5/6/2021 4:45:00 AM 15.33 59.594 0.119 7.21 129.6 7.48
5/6/2021 5:00:00 AM 15.27 59.486 0.118 7.2 142.7 7.54
5/6/2021 5:15:00 AM 15.21 59.378 0.118 7.2 169.8 7.55
5/6/2021 5:30:00 AM 15.15 59.27 0.119 7.2 134.8 7.56
5/6/2021 5:45:00 AM 15.1 59.18 0.118 7.2 139.9 7.59
5/6/2021 6:00:00 AM 15.05 59.09 0.119 7.19 165.4 7.61
5/6/2021 6:15:00 AM 14.99 58.982 0.12 7.2 171.7 7.65
5/6/2021 6:30:00 AM 14.95 58.91 0.12 7.21 208.9 7.66
5/6/2021 6:45:00 AM 14.9 58.82 0.12 7.21 169.8 7.68
5/6/2021 7:00:00 AM 14.85 58.73 0.121 7.21 163.7 7.68
5/6/2021 7:15:00 AM 14.8 58.64 0.122 7.21 138 7.72
5/6/2021 7:30:00 AM 14.75 58.55 0.122 7.21 127.7 7.75
5/6/2021 7:45:00 AM 14.7 58.46 0.123 7.22 147.7 7.75
5/6/2021 8:00:00 AM 14.67 58.406 0.122 7.22 165.5 7.8
5/6/2021 8:15:00 AM 14.61 58.298 0.124 7.22 167.2 7.81
5/6/2021 8:30:00 AM 14.57 58.226 0.124 7.22 122.4 7.84
5/6/2021 8:45:00 AM 14.53 58.154 0.124 7.22 121 7.86
5/6/2021 9:00:00 AM 14.51 58.118 0.124 7.22 134.7 7.9
5/6/2021 9:15:00 AM 14.49 58.082 0.124 7.23 114.5 7.93
5/6/2021 9:30:00 AM 14.47 58.046 0.125 7.23 127.7 7.94
5/6/2021 9:45:00 AM 14.47 58.046 0.126 7.22 145.5 7.98
5/6/2021 10:00:00 AM 14.45 58.01 0.127 7.22 119.4 7.99
5/6/2021 10:15:00 AM 14.49 58.082 0.126 7.23 148.2 7.97
5/6/2021 10:30:00 AM 14.49 58.082 0.126 7.23 150.4 8.02
5/6/2021 10:45:00 AM 14.52 58.136 0.126 7.23 123.1 8.03
5/6/2021 11:00:00 AM 14.57 58.226 0.126 7.23 177.6 8.06
5/6/2021 11:15:00 AM 14.65 58.37 0.126 7.23 118.6 8.08
5/6/2021 11:30:00 AM 14.72 58.496 0.126 7.23 115.7 8.1
5/6/2021 11:45:00 AM 14.79 58.622 0.126 7.23 112.7 8.1
5/6/2021 12:00:00 PM 14.87 58.766 0.126 7.23 125.6 8.14
5/6/2021 12:15:00 PM 14.94 58.892 0.127 7.22 94.64 8.16
5/6/2021 12:30:00 PM 15 59 0.127 7.23 100.4 8.17
5/6/2021 12:45:00 PM 15.1 59.18 0.127 7.24 92.87 8.2
5/6/2021 1:00:00 PM 15.16 59.288 0.128 7.24 95.03 8.23
5/6/2021 1:15:00 PM 15.25 59.45 0.128 7.24 98.39 8.23
5/6/2021 1:30:00 PM 15.31 59.558 0.127 7.26 104.3 8.24
5/6/2021 1:45:00 PM 15.32 59.576 0.128 7.26 1296 8.29
5/6/2021 2:00:00 PM 15.41 59.738 0.128 7.26 106.9 8.29
5/6/2021 2:15:00 PM 15.45 59.81 0.128 7.25 92.33 8.33
5/6/2021 2:30:00 PM 15.53 59.954 0.128 7.26 83.63 8.37
5/6/2021 2:45:00 PM 15.62 60.116 0.129 7.27 150.2 8.29
5/6/2021 3:00:00 PM 15.67 60.206 0.129 7.26 164.3 8.31
5/6/2021 3:15:00 PM 15.66 60.188 0.129 7.27 210.9 8.28
5/6/2021 3:30:00 PM 15.66 60.188 0.129 7.26 174.2 8.36
5/6/2021 3:45:00 PM 15.66 60.188 0.129 7.27 233 8.36
5/6/2021 4:00:00 PM 15.67 60.206 0.13 7.27 215.9 8.39
5/6/2021 4:15:00 PM 15.68 60.224 0.13 7.26 214 8.32
5/6/2021 4:30:00 PM 15.71 60.278 0.13 7.27 227 8.38
5/6/2021 4:45:00 PM 15.72 60.296 0.13 7.26 190 8.38
5/6/2021 5:00:00 PM 15.72 60.296 0.13 7.27 232.4 8.37
5/6/2021 5:15:00 PM 15.72 60.296 0.13 7.27 260.4 8.4
5/6/2021 5:30:00 PM 15.74 60.332 0.13 7.27 276.6 8.4
5/6/2021 5:45:00 PM 15.76 60.368 0.13 7.28 214.6 8.39
5/6/2021 6:00:00 PM 15.75 60.35 0.13 7.27 228 8.36
5/6/2021 6:15:00 PM 15.76 60.368 0.13 7.27 215.4 8.38
5/6/2021 6:30:00 PM 15.77 60.386 0.131 7.27 235.7 8.38
5/6/2021 6:45:00 PM 15.76 60.368 0.131 7.28 210.9 8.38
5/6/2021 7:00:00 PM 15.75 60.35 0.131 7.28 208.4 8.36
5/6/2021 7:15:00 PM 15.74 60.332 0.131 7.28 215.7 8.37
5/6/2021 7:30:00 PM 15.72 60.296 0.131 7.28 230.5 8.35
5/6/2021 7:45:00 PM 15.71 60.278 0.131 7.28 207.8 8.39
5/6/2021 8:00:00 PM 15.7 60.26 0.132 7.27 211.9 8.39
5/6/2021 8:15:00 PM 15.66 60.188 0.131 7.27 230.4 8.38
5/6/2021 8:30:00 PM 15.62 60.116 0.131 7.27 217.8 8.4
5/6/2021 8:45:00 PM 15.59 60.062 0.131 7.26 187.3 8.41
5/6/2021 9:00:00 PM 15.56 60.008 0.132 7.26 95.58 8.37
5/6/2021 9:15:00 PM 15.54 59.972 0.132 7.25 194.5 8.34
5/6/2021 9:30:00 PM 15.5 59.9 0.132 7.26 106.5 8.38
5/6/2021 9:45:00 PM 15.48 59.864 0.132 7.26 109 8.34
5/6/2021 10:00:00 PM 15.45 59.81 0.132 7.26 76.53 8.4
5/6/2021 10:15:00 PM 15.42 59.756 0.132 7.24 79.02 8.44
5/6/2021 10:30:00 PM 15.4 59.72 0.132 7.24 66.09 8.43
5/6/2021 10:45:00 PM 15.38 59.684 0.133 7.24 76.91 8.44
5/6/2021 11:00:00 PM 15.34 59.612 0.132 7.24 76.69 8.44
5/6/2021 11:15:00 PM 15.32 59.576 0.133 7.23 71.45 8.44
5/6/2021 11:30:00 PM 15.27 59.486 0.132 7.24 68.74 8.44
5/6/2021 11:45:00 PM 15.23 59.414 0.132 7.24 64.03 8.42
5/7/2021 12:00:00 AM 15.2 59.36 0.133 7.23 65.79 8.43
5/7/2021 12:15:00 AM 15.16 59.288 0.133 7.23 65.43 8.43
5/7/2021 12:30:00 AM 15.11 59.198 0.134 7.23 68.99 8.41
5/7/2021 12:45:00 AM 15.07 59.126 0.134 7.22 66.42 8.41
5/7/2021 1:00:00 AM 15.02 59.036 0.133 7.22 64.09 8.42
5/7/2021 1:15:00 AM 14.98 58.964 0.136 7.21 62.92 8.39
5/7/2021 1:30:00 AM 14.92 58.856 0.135 7.21 62.46 8.4
5/7/2021 1:45:00 AM 14.87 58.766 0.135 7.22 60.43 8.4
5/7/2021 2:00:00 AM 14.82 58.676 0.136 7.22 59.83 8.41
5/7/2021 2:15:00 AM 14.76 58.568 0.135 7.22 63.98 8.4
5/7/2021 2:30:00 AM 14.71 58.478 0.135 7.21 63.2 8.41
5/7/2021 2:45:00 AM 14.65 58.37 0.136 7.22 62.5 8.4
5/7/2021 3:00:00 AM 14.59 58.262 0.136 7.21 61.24 8.4
5/7/2021 3:15:00 AM 14.54 58.172 0.136 7.21 55.21 8.39
5/7/2021 3:30:00 AM 14.47 58.046 0.137 7.21 60.01 8.36
5/7/2021 3:45:00 AM 14.43 57.974 0.135 7.21 59.26 8.41
5/7/2021 4:00:00 AM 14.37 57.866 0.136 7.21 65.85 8.35
5/7/2021 4:15:00 AM 14.31 57.758 0.136 7.2 71.28 8.36
5/7/2021 4:30:00 AM 14.26 57.668 0.136 7.2 64.63 8.36
5/7/2021 4:45:00 AM 14.21 57.578 0.137 7.19 71.01 8.36
5/7/2021 5:00:00 AM 14.16 57.488 0.136 7.19 74.22 8.38
5/7/2021 5:15:00 AM 14.12 57.416 0.136 7.2 78.25 8.38
5/7/2021 5:30:00 AM 14.06 57.308 0.137 7.19 79.75 8.38
5/7/2021 5:45:00 AM 13.99 57.182 0.137 7.19 76.95 8.38
5/7/2021 6:00:00 AM 13.97 57.146 0.136 7.18 86.15 8.38
5/7/2021 6:15:00 AM 13.89 57.002 0.138 7.18 93.18 8.35
5/7/2021 6:30:00 AM 13.86 56.948 0.137 7.18 91.43 8.35
5/7/2021 6:45:00 AM 13.78 56.804 0.138 7.18 101.9 8.35
5/7/2021 7:00:00 AM 13.77 56.786 0.137 7.18 98.68 8.35
5/7/2021 7:15:00 AM 13.71 56.678 0.138 7.17 106.8 8.36
5/7/2021 7:30:00 AM 13.69 56.642 0.138 7.17 107.6 8.37
5/7/2021 7:45:00 AM 13.66 56.588 0.138 7.17 116.4 8.37
5/7/2021 8:00:00 AM 13.63 56.534 0.138 7.17 123.9 8.38
5/7/2021 8:15:00 AM 13.63 56.534 0.138 7.17 117.5 8.38
5/7/2021 8:30:00 AM 13.58 56.444 0.139 7.17 136.2 8.4
5/7/2021 8:45:00 AM 13.58 56.444 0.139 7.18 146.6 8.38
5/7/2021 9:00:00 AM 13.56 56.408 0.139 7.18 184.5 8.38
5/7/2021 9:15:00 AM 13.57 56.426 0.139 7.17 174.5 8.39
5/7/2021 9:30:00 AM 13.57 56.426 0.139 7.18 147.1 8.42
5/7/2021 9:45:00 AM 13.6 56.48 0.14 7.17 162.5 8.46
5/7/2021 10:00:00 AM 13.63 56.534 0.14 7.17 245.7 8.48
5/7/2021 10:15:00 AM 13.67 56.606 0.14 7.18 182.5 8.51
5/7/2021 10:30:00 AM 13.7 56.66 0.14 7.19 201 8.53
5/7/2021 10:45:00 AM 13.78 56.804 0.14 7.19 246.7 8.53
5/7/2021 11:00:00 AM 13.87 56.966 0.14 7.19 196.6 8.55
5/7/2021 11:15:00 AM 13.93 57.074 0.14 7.2 206.8 8.59
5/7/2021 11:30:00 AM 13.98 57.164 0.141 7.2 187.5 8.66
5/7/2021 11:45:00 AM 14.04 57.272 0.141 7.2 156.7 8.71
5/7/2021 12:00:00 PM 14.11 57.398 0.14 7.2 160.6 8.73
5/7/2021 12:15:00 PM 14.11 57.398 0.141 7.22 249.2 8.78
5/7/2021 12:30:00 PM 14.13 57.434 0.141 7.22 248.2 8.79
5/7/2021 12:45:00 PM 14.19 57.542 0.141 7.23 210.1 8.81
5/7/2021 1:00:00 PM 14.22 57.596 0.141 7.23 191.1 8.82
5/7/2021 1:15:00 PM 14.25 57.65 0.141 7.24 175.9 8.86
5/7/2021 1:30:00 PM 14.29 57.722 0.141 7.24 151.4 8.85
5/7/2021 1:45:00 PM 14.3 57.74 0.142 7.24 152.4 8.87
5/7/2021 2:00:00 PM 14.33 57.794 0.142 7.24 162.9 8.88
5/7/2021 2:15:00 PM 14.33 57.794 0.142 7.25 142.3 8.89
5/7/2021 2:30:00 PM 14.33 57.794 0.142 7.25 140.5 8.9
5/7/2021 2:45:00 PM 14.34 57.812 0.143 7.26 157.1 8.91
5/7/2021 3:00:00 PM 14.38 57.884 0.142 7.26 161.9 8.91
5/7/2021 3:15:00 PM 14.41 57.938 0.142 7.27 155.2 8.94
5/7/2021 3:30:00 PM 14.43 57.974 0.142 7.27 176.7 8.93
5/7/2021 3:45:00 PM 14.46 58.028 0.142 7.27 190.8 8.93
5/7/2021 4:00:00 PM 14.47 58.046 0.142 7.27 203.9 8.94
5/7/2021 4:15:00 PM 14.49 58.082 0.142 7.28 165.9 8.96
5/7/2021 4:30:00 PM 14.49 58.082 0.142 7.28 155.7 8.96
5/7/2021 4:45:00 PM 14.49 58.082 0.143 7.28 183.1 8.97
5/7/2021 5:00:00 PM 14.5 58.1 0.143 7.28 166.1 8.96
5/7/2021 5:15:00 PM 14.5 58.1 0.142 7.29 173.3 8.94
5/7/2021 5:30:00 PM 14.49 58.082 0.142 7.29 193.8 8.96
5/7/2021 5:45:00 PM 14.47 58.046 0.143 7.29 174.1 8.94
5/7/2021 6:00:00 PM 14.46 58.028 0.143 7.29 206 8.94
5/7/2021 6:15:00 PM 14.45 58.01 0.143 7.29 195.9 8.94
5/7/2021 6:30:00 PM 14.43 57.974 0.143 7.29 164.7 8.87
5/7/2021 6:45:00 PM 14.42 57.956 0.143 7.28 203.1 8.87
5/7/2021 7:00:00 PM 14.41 57.938 0.142 7.28 252 8.82
5/7/2021 7:15:00 PM 14.38 57.884 0.143 7.29 184.3 8.9
5/7/2021 7:30:00 PM 14.37 57.866 0.143 7.28 194.9 8.84
5/7/2021 7:45:00 PM 14.35 57.83 0.142 7.28 215 8.88
5/7/2021 8:00:00 PM 14.32 57.776 0.143 7.28 216.8 8.87
5/7/2021 8:15:00 PM 14.29 57.722 0.144 7.29 211.8 8.85
5/7/2021 8:30:00 PM 14.25 57.65 0.144 7.28 195.6 8.85
5/7/2021 8:45:00 PM 14.22 57.596 0.144 7.27 169.6 8.82
5/7/2021 9:00:00 PM 14.18 57.524 0.144 7.27 202.8 8.82
5/7/2021 9:15:00 PM 14.14 57.452 0.145 7.27 203.7 8.81
5/7/2021 9:30:00 PM 14.11 57.398 0.144 7.26 196.8 8.84
5/7/2021 9:45:00 PM 14.07 57.326 0.144 7.25 208.8 8.81
5/7/2021 10:00:00 PM 14.04 57.272 0.144 7.27 193.2 8.81
5/7/2021 10:15:00 PM 13.99 57.182 0.145 7.27 221.2 8.8
5/7/2021 10:30:00 PM 13.95 57.11 0.145 7.27 220 8.78
5/7/2021 10:45:00 PM 13.91 57.038 0.145 7.26 220 8.77
5/7/2021 11:00:00 PM 13.88 56.984 0.145 7.26 281.6 8.74
5/7/2021 11:15:00 PM 13.85 56.93 0.145 7.26 198 8.72
5/7/2021 11:30:00 PM 13.8 56.84 0.146 7.26 230.5 8.73
5/7/2021 11:45:00 PM 13.76 56.768 0.146 7.25 225 8.73
5/8/2021 12:00:00 AM 13.73 56.714 0.146 7.25 260.6 8.72
5/8/2021 12:15:00 AM 13.71 56.678 0.146 7.25 240.4 8.73
5/8/2021 12:30:00 AM 13.68 56.624 0.146 7.25 211.6 8.7
5/8/2021 12:45:00 AM 13.65 56.57 0.146 7.25 206.6 8.7
5/8/2021 1:00:00 AM 13.63 56.534 0.146 7.25 202.2 8.71
5/8/2021 1:15:00 AM 13.58 56.444 0.147 7.26 201.5 8.7
5/8/2021 1:30:00 AM 13.55 56.39 0.147 7.25 208.5 8.71
5/8/2021 1:45:00 AM 13.52 56.336 0.147 7.26 230.2 8.71
5/8/2021 2:00:00 AM 13.48 56.264 0.147 7.25 221 8.72
5/8/2021 2:15:00 AM 13.42 56.156 0.148 7.24 298.5 8.7
5/8/2021 2:30:00 AM 13.39 56.102 0.148 7.25 243.1 8.68
5/8/2021 2:45:00 AM 13.36 56.048 0.148 7.24 211.4 8.67
5/8/2021 3:00:00 AM 13.32 55.976 0.148 7.25 255.7 8.67
5/8/2021 3:15:00 AM 13.29 55.922 0.148 7.25 249.7 8.68
5/8/2021 3:30:00 AM 13.22 55.796 0.149 7.24 216.4 8.67
5/8/2021 3:45:00 AM 13.19 55.742 0.149 7.24 222 8.65
5/8/2021 4:00:00 AM 13.14 55.652 0.15 7.24 223.3 8.64
5/8/2021 4:15:00 AM 13.09 55.562 0.15 7.24 230.5 8.69
5/8/2021 4:30:00 AM 13.04 55.472 0.15 7.24 199.7 8.65
5/8/2021 4:45:00 AM 12.99 55.382 0.15 7.24 218.4 8.66
5/8/2021 5:00:00 AM 12.94 55.292 0.15 7.24 216.7 8.62
5/8/2021 5:15:00 AM 12.88 55.184 0.15 7.24 208.6 8.62
5/8/2021 5:30:00 AM 12.84 55.112 0.15 7.23 229.9 8.64
5/8/2021 5:45:00 AM 12.79 55.022 0.15 7.22 206.8 8.64
5/8/2021 6:00:00 AM 12.75 54.95 0.15 7.23 215.1 8.63
5/8/2021 6:15:00 AM 12.7 54.86 0.15 7.22 225.6 8.64
5/8/2021 6:30:00 AM 12.64 54.752 0.151 7.22 241.1 8.65
5/8/2021 6:45:00 AM 12.61 54.698 0.15 7.23 199.2 8.64
5/8/2021 7:00:00 AM 12.58 54.644 0.15 7.21 228.8 8.66
5/8/2021 7:15:00 AM 12.51 54.518 0.151 7.21 221.3 8.66
5/8/2021 7:30:00 AM 12.49 54.482 0.151 7.22 232.5 8.68
5/8/2021 7:45:00 AM 12.47 54.446 0.151 7.22 213.7 8.69
5/8/2021 8:00:00 AM 12.45 54.41 0.151 7.22 213.7 8.7
5/8/2021 8:15:00 AM 12.46 54.428 0.151 7.22 212.4 8.71
5/8/2021 8:30:00 AM 12.43 54.374 0.151 7.21 215.9 8.73
5/8/2021 8:45:00 AM 12.42 54.356 0.151 7.23 216.9 8.75
5/8/2021 9:00:00 AM 12.39 54.302 0.151 7.22 225.5 8.77
5/8/2021 9:15:00 AM 12.38 54.284 0.151 7.22 215.5 8.78
5/8/2021 9:30:00 AM 12.36 54.248 0.152 7.23 223.3 8.81
5/8/2021 9:45:00 AM 12.37 54.266 0.151 7.23 206.4 8.83
5/8/2021 10:00:00 AM 12.36 54.248 0.152 7.23 215.3 8.85
5/8/2021 10:15:00 AM 12.38 54.284 0.152 7.23 219.1 8.87
5/8/2021 10:30:00 AM 12.38 54.284 0.152 7.24 217.1 8.92
5/8/2021 10:45:00 AM 12.42 54.356 0.152 7.24 220.5 8.95
5/8/2021 11:00:00 AM 12.45 54.41 0.153 7.25 237.1 8.98
5/8/2021 11:15:00 AM 12.49 54.482 0.152 7.25 220.2 9.02
5/8/2021 11:30:00 AM 12.52 54.536 0.153 7.26 1073 9.04
5/8/2021 11:45:00 AM 12.59 54.662 0.153 7.28 228 9.08
5/8/2021 12:00:00 PM 12.65 54.77 0.153 7.27 234.5 9.11
5/8/2021 12:15:00 PM 12.68 54.824 0.153 7.27 212.3 9.13
5/8/2021 12:30:00 PM 12.71 54.878 0.153 7.28 3682 9.15
5/8/2021 12:45:00 PM 12.74 54.932 0.154 7.29 233.4 9.16
5/8/2021 1:00:00 PM 12.77 54.986 0.154 7.29 237 9.2
5/8/2021 1:15:00 PM 12.81 55.058 0.154 7.28 235.4 9.23
5/8/2021 1:30:00 PM 12.88 55.184 0.154 7.28 2649 9.26
5/8/2021 1:45:00 PM 12.89 55.202 0.154 7.3 243.3 9.28
5/8/2021 2:00:00 PM 12.89 55.202 0.154 7.31 236.9 9.29
5/8/2021 2:15:00 PM 12.9 55.22 0.154 7.32 235.2 9.3
5/8/2021 2:30:00 PM 13.06 55.508 0.154 7.32 246.6 9.32
5/8/2021 2:45:00 PM 13.06 55.508 0.154 7.32 239.2 9.35
5/8/2021 3:00:00 PM 12.98 55.364 0.155 7.34 1025 9.35
5/8/2021 3:15:00 PM 12.98 55.364 0.154 7.32 254.5 9.38
5/8/2021 3:30:00 PM 13.01 55.418 0.154 7.33 305.1 9.38
5/8/2021 3:45:00 PM 13.08 55.544 0.153 7.32 238.5 9.4
5/8/2021 4:00:00 PM 13.13 55.634 0.154 7.32 256.4 9.41
5/8/2021 4:15:00 PM 13.18 55.724 0.153 7.34 265.8 9.43
5/8/2021 4:30:00 PM 13.25 55.85 0.154 7.34 253.5 9.45
5/8/2021 4:45:00 PM 13.3 55.94 0.154 7.34 270.6 9.46
5/8/2021 5:00:00 PM 13.27 55.886 0.154 7.34 252.7 9.43
5/8/2021 5:15:00 PM 13.21 55.778 0.155 7.36 249.8 9.43
5/8/2021 5:30:00 PM 13.19 55.742 0.154 7.36 259 9.45
5/8/2021 5:45:00 PM 13.23 55.814 0.154 7.34 273.4 9.47
5/8/2021 6:00:00 PM 13.26 55.868 0.154 7.37 239.9 9.45
5/8/2021 6:15:00 PM 13.26 55.868 0.155 7.35 259.2 9.44
5/8/2021 6:30:00 PM 13.25 55.85 0.154 7.37 264.3 9.42
5/8/2021 6:45:00 PM 13.24 55.832 0.154 7.37 257.7 9.39
5/8/2021 7:00:00 PM 13.24 55.832 0.156 7.37 265.4 9.39
5/8/2021 7:15:00 PM 13.21 55.778 0.156 7.37 259.1 9.39
5/8/2021 7:30:00 PM 13.17 55.706 0.155 7.37 270.1 9.37
5/8/2021 7:45:00 PM 13.14 55.652 0.155 7.36 274.1 9.34
5/8/2021 8:00:00 PM 13.12 55.616 0.154 7.36 271.5 9.38
5/8/2021 8:15:00 PM 13.1 55.58 0.154 7.36 265.5 9.37
5/8/2021 8:30:00 PM 13.09 55.562 0.154 7.36 262.4 9.36
5/8/2021 8:45:00 PM 13.06 55.508 0.147 7.36 243.9 9.33
5/8/2021 9:00:00 PM 13.05 55.49 0.158 7.36 263.6 9.3
5/8/2021 9:15:00 PM 13.01 55.418 0.151 7.35 268.1 9.31
5/8/2021 9:30:00 PM 12.98 55.364 0.15 7.35 268 9.28
5/8/2021 9:45:00 PM 12.94 55.292 0.15 7.35 281.4 9.26
5/8/2021 10:00:00 PM 12.92 55.256 0.151 7.35 455.1 9.24
5/8/2021 10:15:00 PM 12.89 55.202 0.154 7.34 287.8 9.24
5/8/2021 10:30:00 PM 12.87 55.166 0.154 7.34 275.8 9.24
5/8/2021 10:45:00 PM 12.83 55.094 0.154 7.33 289.7 9.24
5/8/2021 11:00:00 PM 12.79 55.022 0.153 7.33 304 9.19
5/8/2021 11:15:00 PM 12.74 54.932 0.154 7.33 297.3 9.19
5/8/2021 11:30:00 PM 12.7 54.86 0.155 7.33 303.3 9.17
5/8/2021 11:45:00 PM 12.66 54.788 0.153 7.32 302.4 9.16
5/9/2021 12:00:00 AM 12.6 54.68 0.15 7.32 317.4 9.18
5/9/2021 12:15:00 AM 12.55 54.59 0.155 7.32 316 9.15
5/9/2021 12:30:00 AM 12.52 54.536 0.144 7.31 291.3 9.18
5/9/2021 12:45:00 AM 12.46 54.428 0.155 7.31 323.1 9.18
5/9/2021 1:00:00 AM 12.42 54.356 0.155 7.31 321 9.14
5/9/2021 1:15:00 AM 12.38 54.284 0.155 7.3 319.6 9.16
5/9/2021 1:30:00 AM 12.34 54.212 0.155 7.3 329.8 9.14
5/9/2021 1:45:00 AM 12.29 54.122 0.154 7.29 314.2 9.11
5/9/2021 2:00:00 AM 12.25 54.05 0.152 7.29 319.2 9.12
5/9/2021 2:15:00 AM 12.23 54.014 0.151 7.29 331.7 9.12
5/9/2021 2:30:00 AM 12.18 53.924 0.153 7.29 329.9 9.12
5/9/2021 2:45:00 AM 12.15 53.87 0.156 7.29 333.3 9.11
5/9/2021 3:00:00 AM 12.11 53.798 0.155 7.28 309.9 9.1
5/9/2021 3:15:00 AM 12.08 53.744 0.155 7.28 331.9 9.12
5/9/2021 3:30:00 AM 12.05 53.69 0.148 7.28 334.3 9.09
5/9/2021 3:45:00 AM 12 53.6 0.156 7.28 326.5 9.09
5/9/2021 4:00:00 AM 11.98 53.564 0.145 7.27 326.7 9.07
5/9/2021 4:15:00 AM 11.95 53.51 0.156 7.27 329 9.06
5/9/2021 4:30:00 AM 11.93 53.474 0.156 7.27 344.8 9.05
5/9/2021 4:45:00 AM 11.86 53.348 0.16 7.26 356.8 9.08
5/9/2021 5:00:00 AM 11.86 53.348 0.156 7.27 359.6 9.09
5/9/2021 5:15:00 AM 11.83 53.294 0.155 7.26 415 9.08
5/9/2021 5:30:00 AM 11.77 53.186 0.157 7.26 345.3 9.06
5/9/2021 5:45:00 AM 11.76 53.168 0.148 7.26 540 9.07
5/9/2021 6:00:00 AM 11.72 53.096 0.156 7.26 346 9.08
5/9/2021 6:15:00 AM 11.68 53.024 0.157 7.26 375.9 9.07
5/9/2021 6:30:00 AM 11.64 52.952 0.157 7.26 345 9.06
5/9/2021 6:45:00 AM 11.57 52.826 0.158 7.25 360 9.08
5/9/2021 7:00:00 AM 11.6 52.88 0.158 7.26 340.4 9.07
5/9/2021 7:15:00 AM 11.54 52.772 0.157 7.26 337.8 9.08
5/9/2021 7:30:00 AM 11.52 52.736 0.157 7.25 389.1 9.09
5/9/2021 7:45:00 AM 11.52 52.736 0.159 7.25 347 9.11
5/9/2021 8:00:00 AM 11.51 52.718 0.152 7.26 377 9.11
5/9/2021 8:15:00 AM 11.49 52.682 0.151 7.25 340.3 9.14
5/9/2021 8:30:00 AM 11.48 52.664 0.151 7.24 1009 9.15
5/9/2021 8:45:00 AM 11.46 52.628 0.153 7.25 381 9.17
5/9/2021 9:00:00 AM 11.45 52.61 0.151 7.26 369.2 9.19
5/9/2021 9:15:00 AM 11.45 52.61 0.149 7.26 370.2 9.2
5/9/2021 9:30:00 AM 11.46 52.628 0.156 7.26 442.7 9.22
5/9/2021 9:45:00 AM 11.46 52.628 0.148 7.26 334.1 9.24
5/9/2021 10:00:00 AM 11.41 52.538 0.159 7.25 379 9.27
5/9/2021 10:15:00 AM 11.41 52.538 0.159 7.26 370.7 9.24
5/9/2021 10:30:00 AM 11.43 52.574 0.158 7.26 374.9 9.25
5/9/2021 10:45:00 AM 11.43 52.574 0.162 7.26 345.7 9.32
5/9/2021 11:00:00 AM 11.45 52.61 0.149 7.25 363 9.32
5/9/2021 11:15:00 AM 11.46 52.628 0.145 7.25 374.8 9.34
5/9/2021 11:30:00 AM 11.49 52.682 0.144 7.28 351.9 9.37
5/9/2021 11:45:00 AM 11.51 52.718 0.145 7.27 324.2 9.41
5/9/2021 12:00:00 PM 11.53 52.754 0.145 7.28 333.9 9.43
5/9/2021 12:15:00 PM 11.51 52.718 0.145 7.28 354.9 9.45
5/9/2021 12:30:00 PM 11.52 52.736 0.154 7.27 361.8 9.45
5/9/2021 12:45:00 PM 11.5 52.7 0.161 7.29 350.1 9.47
5/9/2021 1:00:00 PM 11.5 52.7 0.159 7.29 1155 9.5
5/9/2021 1:15:00 PM 11.47 52.646 0.154 7.29 368.9 9.52
5/9/2021 1:30:00 PM 11.46 52.628 0.154 7.29 379 9.53
5/9/2021 1:45:00 PM 11.45 52.61 0.154 7.29 707.9 9.54
5/9/2021 2:00:00 PM 11.44 52.592 0.153 7.29 376.4 9.56
5/9/2021 2:15:00 PM 11.42 52.556 0.153 7.29 353.5 9.56
5/9/2021 2:30:00 PM 11.42 52.556 0.153 7.3 353 9.59
5/9/2021 2:45:00 PM 11.4 52.52 0.153 7.29 404.6 9.59
5/9/2021 3:00:00 PM 11.41 52.538 0.153 7.29 377.4 9.61
5/9/2021 3:15:00 PM 11.39 52.502 0.153 7.3 396.6 9.61
5/9/2021 3:30:00 PM 11.38 52.484 0.154 7.31 411.1 9.64
5/9/2021 3:45:00 PM 11.4 52.52 0.153 7.3 392.1 9.66
5/9/2021 4:00:00 PM 11.41 52.538 0.159 7.31 386.2 9.67
5/9/2021 4:15:00 PM 11.41 52.538 0.16 7.31 375.6 9.68
5/9/2021 4:30:00 PM 11.39 52.502 0.16 7.31 421.6 9.71
5/9/2021 4:45:00 PM 11.42 52.556 0.15 7.32 360.5 9.72
5/9/2021 5:00:00 PM 11.41 52.538 0.156 7.33 387.3 9.72
5/9/2021 5:15:00 PM 11.39 52.502 0.154 7.32 402.1 9.73
5/9/2021 5:30:00 PM 11.38 52.484 0.157 7.33 405.7 9.75
5/9/2021 5:45:00 PM 11.39 52.502 0.163 7.34 365.8 9.75
5/9/2021 6:00:00 PM 11.37 52.466 0.156 7.33 391.3 9.77
5/9/2021 6:15:00 PM 11.37 52.466 0.154 7.32 420 9.77
5/9/2021 6:30:00 PM 11.35 52.43 0.153 7.33 407.9 9.75
5/9/2021 6:45:00 PM 11.35 52.43 0.157 7.34 385.8 9.76
5/9/2021 7:00:00 PM 11.34 52.412 0.154 7.34 410.2 9.77
5/9/2021 7:15:00 PM 11.33 52.394 0.158 7.32 406.7 9.77
5/9/2021 7:30:00 PM 11.32 52.376 0.152 7.34 375.9 9.77
5/9/2021 7:45:00 PM 11.29 52.322 0.159 7.33 383.8 9.75
5/9/2021 8:00:00 PM 11.27 52.286 0.158 7.33 376.4 9.76
5/9/2021 8:15:00 PM 11.25 52.25 0.157 7.31 361.9 9.74
5/9/2021 8:30:00 PM 11.23 52.214 0.163 7.32 396.5 9.74
5/9/2021 8:45:00 PM 11.21 52.178 0.155 7.33 425 9.73
5/9/2021 9:00:00 PM 11.19 52.142 0.158 7.32 425.6 9.72
5/9/2021 9:15:00 PM 11.17 52.106 0.161 7.32 400.9 9.69
5/9/2021 9:30:00 PM 11.15 52.07 0.156 7.31 441.2 9.71
5/9/2021 9:45:00 PM 11.14 52.052 0.156 7.3 422.2 9.7
5/9/2021 10:00:00 PM 11.11 51.998 0.161 7.31 405.5 9.68
5/9/2021 10:15:00 PM 11.1 51.98 0.159 7.32 413.5 9.67
5/9/2021 10:30:00 PM 11.09 51.962 0.155 7.31 427.8 9.67
5/9/2021 10:45:00 PM 11.06 51.908 0.162 7.31 360.6 9.65
5/9/2021 11:00:00 PM 11.05 51.89 0.161 7.31 430 9.67
5/9/2021 11:15:00 PM 11.04 51.872 0.16 7.3 455.8 9.63
5/9/2021 11:30:00 PM 11.03 51.854 0.16 7.3 845.7 9.63
5/9/2021 11:45:00 PM 11.02 51.836 0.159 7.31 427 9.63
5/10/2021 12:00:00 AM 10.99 51.782 0.16 7.29 419.6 9.6
5/10/2021 12:15:00 AM 10.98 51.764 0.16 7.29 391.7 9.63
5/10/2021 12:30:00 AM 10.96 51.728 0.161 7.29 428.1 9.58
5/10/2021 12:45:00 AM 10.94 51.692 0.162 7.3 405 9.58
5/10/2021 1:00:00 AM 10.93 51.674 0.161 7.29 418.7 9.59
5/10/2021 1:15:00 AM 10.91 51.638 0.159 7.29 449.7 9.58
5/10/2021 1:30:00 AM 10.9 51.62 0.162 7.3 419.2 9.58
5/10/2021 1:45:00 AM 10.88 51.584 0.165 7.29 459.2 9.57
5/10/2021 2:00:00 AM 10.87 51.566 0.151 7.29 391.6 9.56
5/10/2021 2:15:00 AM 10.85 51.53 0.161 7.29 428.5 9.53
5/10/2021 2:30:00 AM 10.84 51.512 0.154 7.28 417.8 9.54
5/10/2021 2:45:00 AM 10.82 51.476 0.162 7.29 438.6 9.54
5/10/2021 3:00:00 AM 10.79 51.422 0.161 7.28 448.4 9.48
5/10/2021 3:15:00 AM 10.78 51.404 0.154 7.28 438.6 9.51
5/10/2021 3:30:00 AM 10.76 51.368 0.16 7.28 462.2 9.51
5/10/2021 3:45:00 AM 10.74 51.332 0.161 7.28 449.8 9.48
5/10/2021 4:00:00 AM 10.73 51.314 0.161 7.28 417.4 9.49
5/10/2021 4:15:00 AM 10.71 51.278 0.161 7.28 471.8 9.48
5/10/2021 4:30:00 AM 10.69 51.242 0.16 7.27 428.7 9.46
5/10/2021 4:45:00 AM 10.66 51.188 0.159 7.27 462.7 9.45
5/10/2021 5:00:00 AM 10.65 51.17 0.151 7.27 477.7 9.47
5/10/2021 5:15:00 AM 10.63 51.134 0.16 7.27 485.9 9.46
5/10/2021 5:30:00 AM 10.61 51.098 0.16 7.27 436.2 9.45
5/10/2021 5:45:00 AM 10.6 51.08 0.162 7.27 491.9 9.45
5/10/2021 6:00:00 AM 10.56 51.008 0.153 7.27 490.7 9.43
5/10/2021 6:15:00 AM 10.54 50.972 0.165 7.25 450.4 9.44
5/10/2021 6:30:00 AM 10.52 50.936 0.162 7.26 461.8 9.43
5/10/2021 6:45:00 AM 10.5 50.9 0.16 7.25 490.4 9.43
5/10/2021 7:00:00 AM 10.49 50.882 0.162 7.26 458.4 9.44
5/10/2021 7:15:00 AM 10.47 50.846 0.161 7.26 454.4 9.43
5/10/2021 7:30:00 AM 10.46 50.828 0.162 7.26 494.4 9.44
5/10/2021 7:45:00 AM 10.45 50.81 0.156 7.25 451.4 9.45
5/10/2021 8:00:00 AM 10.45 50.81 0.153 7.25 431.2 9.47
5/10/2021 8:15:00 AM 10.48 50.864 0.159 7.26 433.1 9.5
5/10/2021 8:30:00 AM 10.47 50.846 0.163 7.26 497.5 9.5
5/10/2021 8:45:00 AM 10.5 50.9 0.16 7.26 440.5 9.52
5/10/2021 9:00:00 AM 10.5 50.9 0.16 7.27 459.8 9.53
5/10/2021 9:15:00 AM 10.51 50.918 0.166 7.26 422.5 9.57
5/10/2021 9:30:00 AM 10.51 50.918 0.158 7.27 430.1 9.57
5/10/2021 9:45:00 AM 10.54 50.972 0.162 7.27 484.2 9.61
5/10/2021 10:00:00 AM 10.56 51.008 0.161 7.27 449.1 9.63
5/10/2021 10:15:00 AM 10.6 51.08 0.164 7.27 492.6 9.65
5/10/2021 10:30:00 AM 10.61 51.098 0.165 7.28 474.7 9.68
5/10/2021 10:45:00 AM 10.63 51.134 0.161 7.28 433 9.71
5/10/2021 11:00:00 AM 10.69 51.242 0.161 7.29 451.1 9.72
5/10/2021 11:15:00 AM 10.74 51.332 0.168 7.29 428 9.75
5/10/2021 11:30:00 AM 10.85 51.53 0.164 7.29 534.6 9.79
5/10/2021 11:45:00 AM 10.93 51.674 0.162 7.29 461.3 9.81
5/10/2021 12:00:00 PM 11.03 51.854 0.16 7.3 427.5 9.83
5/10/2021 12:15:00 PM 11.13 52.034 0.166 7.31 405.4 9.87
5/10/2021 12:30:00 PM 11.3 52.34 0.165 7.32 412.7 9.89
5/10/2021 12:45:00 PM 11.49 52.682 0.153 7.33 425.7 9.92
5/10/2021 1:00:00 PM 11.69 53.042 0.161 7.34 402.6 9.94
5/10/2021 1:15:00 PM 11.91 53.438 0.162 7.35 460 9.95
5/10/2021 1:30:00 PM 12.09 53.762 0.166 7.36 399.2 9.98
5/10/2021 1:45:00 PM 12.24 54.032 0.165 7.38 442.4 9.99
5/10/2021 2:00:00 PM 12.43 54.374 0.166 7.38 434.4 10
5/10/2021 2:15:00 PM 12.53 54.554 0.166 7.38 391.7 10.03
5/10/2021 2:30:00 PM 12.62 54.716 0.166 7.41 453.5 10.04
5/10/2021 2:45:00 PM 12.8 55.04 0.164 7.4 413.9 10.06
5/10/2021 3:00:00 PM 12.91 55.238 0.15 7.41 428.8 10.07
5/10/2021 3:15:00 PM 13.09 55.562 0.166 7.42 483.1 10.05
5/10/2021 3:30:00 PM 13.12 55.616 0.164 7.43 462.3 10.07
5/10/2021 3:45:00 PM 13.07 55.526 0.165 7.44 456.3 10.08
5/10/2021 4:00:00 PM 13.17 55.706 0.165 7.44 436.5 10.09
5/10/2021 4:15:00 PM 13.27 55.886 0.166 7.44 463.7 10.1
5/10/2021 4:30:00 PM 13.32 55.976 0.165 7.44 465.3 10.11
5/10/2021 4:45:00 PM 13.35 56.03 0.165 7.45 463.7 10.11
5/10/2021 5:00:00 PM 13.3 55.94 0.164 7.47 464.2 10.09
5/10/2021 5:15:00 PM 13.33 55.994 0.165 7.46 389.9 10.09
5/10/2021 5:30:00 PM 13.26 55.868 0.165 7.46 400.4 10.09
5/10/2021 5:45:00 PM 13.26 55.868 0.165 7.47 410.5 10.07
5/10/2021 6:00:00 PM 13.24 55.832 0.165 7.46 456.5 10.06
5/10/2021 6:15:00 PM 13.22 55.796 0.165 7.47 427.6 10.05
5/10/2021 6:30:00 PM 13.17 55.706 0.164 7.46 448.4 10.03
5/10/2021 6:45:00 PM 13.21 55.778 0.165 7.46 426.1 10
5/10/2021 7:00:00 PM 13.16 55.688 0.164 7.46 469.2 9.99
5/10/2021 7:15:00 PM 13.14 55.652 0.164 7.46 419.7 9.96
5/10/2021 7:30:00 PM 13.1 55.58 0.163 7.46 397.2 9.92
5/10/2021 7:45:00 PM 13.14 55.652 0.165 7.45 471 9.88
5/10/2021 8:00:00 PM 13.17 55.706 0.165 7.45 455.2 9.84
5/10/2021 8:15:00 PM 13.13 55.634 0.168 7.43 448.1 9.84
5/10/2021 8:30:00 PM 13.16 55.688 0.165 7.45 428.4 9.81
5/10/2021 8:45:00 PM 13.18 55.724 0.165 7.45 476.9 9.78
5/10/2021 9:00:00 PM 13.21 55.778 0.168 7.44 460.8 9.74
5/10/2021 9:15:00 PM 13.2 55.76 0.164 7.44 444.7 9.7
5/10/2021 9:30:00 PM 13.22 55.796 0.165 7.44 499.3 9.66
5/10/2021 9:45:00 PM 13.19 55.742 0.162 7.43 477.9 9.67
5/10/2021 10:00:00 PM 13.18 55.724 0.165 7.42 473.9 9.62
5/10/2021 10:15:00 PM 13.15 55.67 0.166 7.41 457.4 9.6
5/10/2021 10:30:00 PM 13.16 55.688 0.166 7.41 455.6 9.54
5/10/2021 10:45:00 PM 13.14 55.652 0.165 7.42 500.8 9.54
5/10/2021 11:00:00 PM 13.1 55.58 0.164 7.4 519.7 9.54
5/10/2021 11:15:00 PM 13.11 55.598 0.165 7.4 488.5 9.47
5/10/2021 11:30:00 PM 13.06 55.508 0.164 7.39 480.1 9.49
5/10/2021 11:45:00 PM 13.05 55.49 0.164 7.39 489.7 9.47
5/11/2021 12:00:00 AM 13.03 55.454 0.165 7.38 484.7 9.43
5/11/2021 12:15:00 AM 12.99 55.382 0.153 7.34 507.2 9.38
5/11/2021 12:30:00 AM 12.97 55.346 0.163 7.35 457.7 9.38
5/11/2021 12:45:00 AM 12.94 55.292 0.164 7.36 635.9 9.36
5/11/2021 1:00:00 AM 12.91 55.238 0.164 7.34 462.7 9.35
5/11/2021 1:15:00 AM 12.89 55.202 0.164 7.35 511.1 9.3
5/11/2021 1:30:00 AM 12.86 55.148 0.164 7.35 492.5 9.29
5/11/2021 1:45:00 AM 12.86 55.148 0.166 7.34 479.7 9.26
5/11/2021 2:00:00 AM 12.86 55.148 0.166 7.34 479.7 9.26
5/11/2021 2:15:00 AM 12.8 55.04 0 7 0 0
5/11/2021 2:30:00 AM 12.77 54.986 0 7 0 0
5/11/2021 2:45:00 AM 12.75 54.95 0 11.33 0 9.22
5/11/2021 3:00:00 AM 12.75 54.95 0 11.33 0 9.22
5/11/2021 3:15:00 AM 12.71 54.878 0 11.4 0 9.17
5/11/2021 3:30:00 AM 12.71 54.878 0 11.4 0 9.17
5/11/2021 3:45:00 AM 12.71 54.878 0 11.4 0 9.17
5/11/2021 4:00:00 AM 12.71 54.878 0 11.4 0 9.17
5/11/2021 4:15:00 AM 12.71 54.878 0 11.4 0 9.17
5/11/2021 4:30:00 AM 12.71 54.878 0 11.4 0 9.17
5/11/2021 4:45:00 AM 12.71 54.878 0 11.4 0 9.17
5/11/2021 5:00:00 AM 12.71 54.878 0 11.4 0 9.17
5/11/2021 5:15:00 AM 12.71 54.878 0 11.4 0 9.17
5/11/2021 5:30:00 AM 12.71 54.878 0 11.4 0 9.17
5/11/2021 5:45:00 AM 12.45 54.41 0 7 0 0
5/11/2021 6:00:00 AM 12.45 54.41 0 7 0 0
5/11/2021 6:15:00 AM 12.45 54.41 0 7 0 0
5/11/2021 6:30:00 AM 12.45 54.41 0 7 0 0
5/11/2021 6:45:00 AM 12.45 54.41 0 7 0 0
5/11/2021 7:00:00 AM 12.45 54.41 0 7 0 0
5/11/2021 7:15:00 AM 12.45 54.41 0 7 0 0
5/11/2021 7:30:00 AM 12.45 54.41 0 7 0 0
5/11/2021 7:45:00 AM 12.45 54.41 0 7 0 0
5/11/2021 8:00:00 AM 12.45 54.41 0 7 0 0
5/11/2021 8:15:00 AM 12.45 54.41 0 7 0 0
5/11/2021 8:30:00 AM 12.45 54.41 0 7 0 0
5/11/2021 8:45:00 AM 12.45 54.41 0 7 0 0
5/11/2021 9:00:00 AM 12.45 54.41 0 7 0 0
5/11/2021 9:15:00 AM 12.45 54.41 0 7 0 0
5/11/2021 9:30:00 AM 12.45 54.41 0 7 0 0
5/11/2021 9:45:00 AM 12.45 54.41 0 7 0 0
5/11/2021 10:00:00 AM 12.45 54.41 0 7 0 0
5/11/2021 10:15:00 AM 12.45 54.41 0 7 0 0
5/11/2021 10:30:00 AM 12.45 54.41 0 7 0 0
5/11/2021 10:45:00 AM 12.45 54.41 0 7 0 0
5/11/2021 11:00:00 AM 12.45 54.41 0 7 0 0
5/11/2021 11:15:00 AM 12.45 54.41 0 7 0 0
5/11/2021 11:30:00 AM 12.45 54.41 0 7 0 0
5/11/2021 11:45:00 AM 12.45 54.41 0 7 0 0
5/11/2021 12:00:00 PM 12.45 54.41 0 7 0 0
5/11/2021 12:15:00 PM 12.45 54.41 0 7 0 0
5/11/2021 12:30:00 PM 12.45 54.41 0 7 0 0
5/11/2021 12:45:00 PM 12.45 54.41 0 7 0 0
5/11/2021 1:00:00 PM 12.45 54.41 0 7 0 0
5/11/2021 1:15:00 PM 12.45 54.41 0 7 0 0
5/11/2021 1:30:00 PM 12.45 54.41 0 7 0 0
5/11/2021 1:45:00 PM 12.45 54.41 0 7 0 0
5/11/2021 2:00:00 PM 12.45 54.41 0 7 0 0
5/11/2021 2:15:00 PM 12.45 54.41 0 7 0 0
5/11/2021 2:30:00 PM 12.45 54.41 0 7 0 0
5/11/2021 2:45:00 PM 12.45 54.41 0 7 0 0
5/11/2021 3:00:00 PM 12.45 54.41 0 7 0 0
5/11/2021 3:15:00 PM 12.45 54.41 0 7 0 0
5/11/2021 3:30:00 PM 12.45 54.41 0 7 0 0
5/11/2021 3:45:00 PM 12.45 54.41 0 7 0 0
5/11/2021 4:00:00 PM 12.45 54.41 0 7 0 0
5/11/2021 4:15:00 PM 12.45 54.41 0 7 0 0
5/11/2021 4:30:00 PM 12.45 54.41 0 7 0 0
5/11/2021 4:45:00 PM 12.45 54.41 0 7 0 0
5/11/2021 5:00:00 PM 12.45 54.41 0 7 0 0
5/11/2021 5:15:00 PM 12.45 54.41 0 7 0 0
5/11/2021 5:30:00 PM 12.45 54.41 0 7 0 0
5/11/2021 5:45:00 PM 12.45 54.41 0 7 0 0
5/11/2021 6:00:00 PM 12.45 54.41 0 7 0 0
5/11/2021 6:15:00 PM 12.45 54.41 0 7 0 0
5/11/2021 6:30:00 PM 12.45 54.41 0 7 0 0
5/11/2021 6:45:00 PM 12.45 54.41 0 7 0 0
5/11/2021 7:00:00 PM 12.45 54.41 0 7 0 0
5/11/2021 7:15:00 PM 12.45 54.41 0 7 0 0
5/11/2021 7:30:00 PM 12.45 54.41 0 7 0 0
5/11/2021 7:45:00 PM 12.45 54.41 0 7 0 0
5/11/2021 8:00:00 PM 12.45 54.41 0 7 0 0
5/11/2021 8:15:00 PM 12.45 54.41 0 7 0 0
5/11/2021 8:30:00 PM 12.45 54.41 0 7 0 0
5/11/2021 8:45:00 PM 12.45 54.41 0 7 0 0
5/11/2021 9:00:00 PM 12.45 54.41 0 7 0 0
5/11/2021 9:15:00 PM 12.45 54.41 0 7 0 0
5/11/2021 9:30:00 PM 12.45 54.41 0 7 0 0
5/11/2021 9:45:00 PM 12.45 54.41 0 7 0 0
5/11/2021 10:00:00 PM 12.45 54.41 0 7 0 0
5/11/2021 10:15:00 PM 12.45 54.41 0 7 0 0
5/11/2021 10:30:00 PM 12.45 54.41 0 7 0 0
5/11/2021 10:45:00 PM 12.45 54.41 0 7 0 0
5/11/2021 11:00:00 PM 12.45 54.41 0 7 0 0
5/11/2021 11:15:00 PM 12.45 54.41 0 7 0 0
5/11/2021 11:30:00 PM 12.45 54.41 0 7 0 0
5/11/2021 11:45:00 PM 12.45 54.41 0 7 0 0
5/12/2021 12:00:00 AM 12.45 54.41 0 7 0 0
5/12/2021 12:15:00 AM 12.45 54.41 0 7 0 0
5/12/2021 12:30:00 AM 12.45 54.41 0 7 0 0
5/12/2021 12:45:00 AM 12.45 54.41 0 7 0 0
5/12/2021 1:00:00 AM 12.45 54.41 0 7 0 0
5/12/2021 1:15:00 AM 12.45 54.41 0 7 0 0
5/12/2021 1:30:00 AM 12.45 54.41 0 7 0 0
5/12/2021 1:45:00 AM 12.45 54.41 0 7 0 0
5/12/2021 2:00:00 AM 12.45 54.41 0 7 0 0
5/12/2021 2:15:00 AM 12.45 54.41 0 7 0 0
5/12/2021 2:30:00 AM 12.45 54.41 0 7 0 0
5/12/2021 2:45:00 AM 12.45 54.41 0 7 0 0
5/12/2021 3:00:00 AM 12.45 54.41 0 7 0 0
5/12/2021 3:15:00 AM 12.45 54.41 0 7 0 0
5/12/2021 3:30:00 AM 12.45 54.41 0 7 0 0
5/12/2021 3:45:00 AM 12.45 54.41 0 7 0 0
5/12/2021 4:00:00 AM 12.45 54.41 0 7 0 0
5/12/2021 4:15:00 AM 12.45 54.41 0 7 0 0
5/12/2021 4:30:00 AM 12.45 54.41 0 7 0 0
5/12/2021 4:45:00 AM 12.45 54.41 0 7 0 0
5/12/2021 5:00:00 AM -100000 -179968 -100000 -100000 -100000 -100000
5/12/2021 5:15:00 AM -100000 -179968 -100000 -100000 -100000 -100000
5/12/2021 5:30:00 AM -100000 -179968 -100000 -100000 -100000 -100000
5/12/2021 5:45:00 AM -100000 -179968 -100000 -100000 -100000 -100000
5/12/2021 6:00:00 AM -100000 -179968 -100000 -100000 -100000 -100000
5/12/2021 6:15:00 AM -100000 -179968 -100000 -100000 -100000 -100000
5/12/2021 6:30:00 AM -100000 -179968 -100000 -100000 -100000 -100000
5/12/2021 6:45:00 AM -100000 -179968 -100000 -100000 -100000 -100000
5/12/2021 7:00:00 AM -100000 -179968 -100000 -100000 -100000 -100000
5/12/2021 7:15:00 AM -100000 -179968 -100000 -100000 -100000 -100000
5/12/2021 7:30:00 AM -100000 -179968 -100000 -100000 -100000 -100000
5/12/2021 7:45:00 AM -100000 -179968 -100000 -100000 -100000 -100000
5/12/2021 8:00:00 AM -100000 -179968 -100000 -100000 -100000 -100000
5/12/2021 8:15:00 AM -100000 -179968 -100000 -100000 -100000 -100000
5/12/2021 8:30:00 AM -100000 -179968 -100000 -100000 -100000 -100000
5/12/2021 8:45:00 AM -100000 -179968 -100000 -100000 -100000 -100000
5/12/2021 9:00:00 AM -100000 -179968 -100000 -100000 -100000 -100000
5/12/2021 9:15:00 AM -100000 -179968 -100000 -100000 -100000 -100000
5/12/2021 9:30:00 AM -100000 -179968 -100000 -100000 -100000 -100000
5/12/2021 9:45:00 AM -100000 -179968 -100000 -100000 -100000 -100000
5/12/2021 10:00:00 AM -100000 -179968 -100000 -100000 -100000 -100000
5/12/2021 10:15:00 AM -100000 -179968 -100000 -100000 -100000 -100000
5/12/2021 10:30:00 AM -100000 -179968 -100000 -100000 -100000 -100000
5/12/2021 10:45:00 AM -100000 -179968 -100000 -100000 -100000 -100000
5/12/2021 11:00:00 AM -100000 -179968 -100000 -100000 -100000 -100000
5/12/2021 11:15:00 AM -100000 -179968 -100000 -100000 -100000 -100000
5/12/2021 11:30:00 AM -100000 -179968 -100000 -100000 -100000 -100000
5/12/2021 11:45:00 AM -100000 -179968 -100000 -100000 -100000 -100000
5/12/2021 12:00:00 PM -100000 -179968 -100000 -100000 -100000 -100000
5/12/2021 12:15:00 PM -100000 -179968 -100000 -100000 -100000 -100000
5/12/2021 12:30:00 PM -100000 -179968 -100000 -100000 -100000 -100000
5/12/2021 12:45:00 PM -100000 -179968 -100000 -100000 -100000 -100000
5/12/2021 1:00:00 PM -100000 -179968 -100000 -100000 -100000 -100000
5/12/2021 1:15:00 PM -100000 -179968 -100000 -100000 -100000 -100000
5/12/2021 1:30:00 PM -100000 -179968 -100000 -100000 -100000 -100000
5/12/2021 1:45:00 PM -100000 -179968 -100000 -100000 -100000 -100000
5/12/2021 2:00:00 PM -100000 -179968 -100000 -100000 -100000 -100000
5/12/2021 2:15:00 PM -100000 -179968 -100000 -100000 -100000 -100000
5/12/2021 2:30:00 PM -100000 -179968 -100000 -100000 -100000 -100000
5/12/2021 2:45:00 PM -100000 -179968 -100000 -100000 -100000 -100000
5/12/2021 3:00:00 PM -100000 -179968 -100000 -100000 -100000 -100000
5/12/2021 3:15:00 PM -100000 -179968 -100000 -100000 -100000 -100000
5/12/2021 3:30:00 PM -100000 -179968 -100000 -100000 -100000 -100000
5/12/2021 3:45:00 PM -100000 -179968 -100000 -100000 -100000 -100000
5/12/2021 4:00:00 PM -100000 -179968 -100000 -100000 -100000 -100000
5/12/2021 4:15:00 PM -100000 -179968 -100000 -100000 -100000 -100000
5/12/2021 4:30:00 PM -100000 -179968 -100000 -100000 -100000 -100000
5/12/2021 4:45:00 PM -100000 -179968 -100000 -100000 -100000 -100000
5/12/2021 5:00:00 PM -100000 -179968 -100000 -100000 -100000 -100000
5/12/2021 5:15:00 PM -100000 -179968 -100000 -100000 -100000 -100000
5/12/2021 5:30:00 PM -100000 -179968 -100000 -100000 -100000 -100000
5/12/2021 5:45:00 PM -100000 -179968 -100000 -100000 -100000 -100000
5/12/2021 6:00:00 PM -100000 -179968 -100000 -100000 -100000 -100000
5/12/2021 6:15:00 PM -100000 -179968 -100000 -100000 -100000 -100000
5/12/2021 6:30:00 PM -100000 -179968 -100000 -100000 -100000 -100000
5/12/2021 6:45:00 PM -100000 -179968 -100000 -100000 -100000 -100000
5/12/2021 7:00:00 PM -100000 -179968 -100000 -100000 -100000 -100000
5/12/2021 7:15:00 PM -100000 -179968 -100000 -100000 -100000 -100000
5/12/2021 7:30:00 PM -100000 -179968 -100000 -100000 -100000 -100000
5/12/2021 7:45:00 PM -100000 -179968 -100000 -100000 -100000 -100000
5/12/2021 8:00:00 PM -100000 -179968 -100000 -100000 -100000 -100000
5/12/2021 8:15:00 PM -100000 -179968 -100000 -100000 -100000 -100000
5/12/2021 8:30:00 PM -100000 -179968 -100000 -100000 -100000 -100000
5/12/2021 8:45:00 PM -100000 -179968 -100000 -100000 -100000 -100000
5/12/2021 9:00:00 PM -100000 -179968 -100000 -100000 -100000 -100000
5/12/2021 9:15:00 PM -100000 -179968 -100000 -100000 -100000 -100000
5/12/2021 9:30:00 PM -100000 -179968 -100000 -100000 -100000 -100000
5/12/2021 9:45:00 PM -100000 -179968 -100000 -100000 -100000 -100000
5/12/2021 10:00:00 PM -100000 -179968 -100000 -100000 -100000 -100000
5/12/2021 10:15:00 PM -100000 -179968 -100000 -100000 -100000 -100000
5/12/2021 10:30:00 PM -100000 -179968 -100000 -100000 -100000 -100000
5/12/2021 10:45:00 PM -100000 -179968 -100000 -100000 -100000 -100000
5/12/2021 11:00:00 PM -100000 -179968 -100000 -100000 -100000 -100000
5/12/2021 11:15:00 PM -100000 -179968 -100000 -100000 -100000 -100000
5/12/2021 11:30:00 PM -100000 -179968 -100000 -100000 -100000 -100000
5/12/2021 11:45:00 PM -100000 -179968 -100000 -100000 -100000 -100000
5/13/2021 12:00:00 AM -100000 -179968 -100000 -100000 -100000 -100000
5/13/2021 12:15:00 AM -100000 -179968 -100000 -100000 -100000 -100000
5/13/2021 12:30:00 AM -100000 -179968 -100000 -100000 -100000 -100000
5/13/2021 12:45:00 AM -100000 -179968 -100000 -100000 -100000 -100000
5/13/2021 1:00:00 AM -100000 -179968 -100000 -100000 -100000 -100000
5/13/2021 1:15:00 AM -100000 -179968 -100000 -100000 -100000 -100000
5/13/2021 1:30:00 AM -100000 -179968 -100000 -100000 -100000 -100000
5/13/2021 1:45:00 AM -100000 -179968 -100000 -100000 -100000 -100000
5/13/2021 2:00:00 AM -100000 -179968 -100000 -100000 -100000 -100000
5/13/2021 2:15:00 AM -100000 -179968 -100000 -100000 -100000 -100000
5/13/2021 2:30:00 AM -100000 -179968 -100000 -100000 -100000 -100000
5/13/2021 2:45:00 AM -100000 -179968 -100000 -100000 -100000 -100000
5/13/2021 3:00:00 AM -100000 -179968 -100000 -100000 -100000 -100000
5/13/2021 3:15:00 AM -100000 -179968 -100000 -100000 -100000 -100000
5/13/2021 3:30:00 AM -100000 -179968 -100000 -100000 -100000 -100000
5/13/2021 3:45:00 AM -100000 -179968 -100000 -100000 -100000 -100000
5/13/2021 4:00:00 AM -100000 -179968 -100000 -100000 -100000 -100000
5/13/2021 4:15:00 AM -100000 -179968 -100000 -100000 -100000 -100000
5/13/2021 4:30:00 AM -100000 -179968 -100000 -100000 -100000 -100000
5/13/2021 4:45:00 AM -100000 -179968 -100000 -100000 -100000 -100000
5/13/2021 5:00:00 AM -100000 -179968 -100000 -100000 -100000 -100000
5/13/2021 5:15:00 AM -100000 -179968 -100000 -100000 -100000 -100000
5/13/2021 5:30:00 AM -100000 -179968 -100000 -100000 -100000 -100000
5/13/2021 5:45:00 AM -100000 -179968 -100000 -100000 -100000 -100000
5/13/2021 6:00:00 AM -100000 -179968 -100000 -100000 -100000 -100000
5/13/2021 6:15:00 AM -100000 -179968 -100000 -100000 -100000 -100000
5/13/2021 6:30:00 AM -100000 -179968 -100000 -100000 -100000 -100000
5/13/2021 6:45:00 AM -100000 -179968 -100000 -100000 -100000 -100000
5/13/2021 7:00:00 AM -100000 -179968 -100000 -100000 -100000 -100000
5/13/2021 7:15:00 AM -100000 -179968 -100000 -100000 -100000 -100000
5/13/2021 7:30:00 AM -100000 -179968 -100000 -100000 -100000 -100000
5/13/2021 7:45:00 AM -100000 -179968 -100000 -100000 -100000 -100000
5/13/2021 8:00:00 AM -100000 -179968 -100000 -100000 -100000 -100000
5/13/2021 8:15:00 AM -100000 -179968 -100000 -100000 -100000 -100000
5/13/2021 8:30:00 AM -100000 -179968 -100000 -100000 -100000 -100000
5/13/2021 8:45:00 AM -100000 -179968 -100000 -100000 -100000 -100000
5/13/2021 9:00:00 AM -100000 -179968 -100000 -100000 -100000 -100000
5/13/2021 9:15:00 AM -100000 -179968 -100000 -100000 -100000 -100000
5/13/2021 9:30:00 AM -100000 -179968 -100000 -100000 -100000 -100000
5/13/2021 9:45:00 AM -100000 -179968 -100000 -100000 -100000 -100000
5/13/2021 10:00:00 AM -100000 -179968 -100000 -100000 -100000 -100000
5/13/2021 10:15:00 AM -100000 -179968 -100000 -100000 -100000 -100000
5/13/2021 10:30:00 AM -100000 -179968 -100000 -100000 -100000 -100000
5/13/2021 10:45:00 AM -100000 -179968 -100000 -100000 -100000 -100000
5/13/2021 11:00:00 AM -100000 -179968 -100000 -100000 -100000 -100000
5/13/2021 11:15:00 AM -100000 -179968 -100000 -100000 -100000 -100000
5/13/2021 11:30:00 AM -100000 -179968 -100000 -100000 -100000 -100000
5/13/2021 11:45:00 AM -100000 -179968 -100000 -100000 -100000 -100000
5/13/2021 12:00:00 PM -100000 -179968 -100000 -100000 -100000 -100000
5/13/2021 12:15:00 PM -100000 -179968 -100000 -100000 -100000 -100000
5/13/2021 12:30:00 PM -100000 -179968 -100000 -100000 -100000 -100000
5/13/2021 12:45:00 PM -100000 -179968 -100000 -100000 -100000 -100000
5/13/2021 1:00:00 PM -100000 -179968 -100000 -100000 -100000 -100000
5/13/2021 1:15:00 PM -100000 -179968 -100000 -100000 -100000 -100000
5/13/2021 1:30:00 PM -100000 -179968 -100000 -100000 -100000 -100000
5/13/2021 1:45:00 PM -100000 -179968 -100000 -100000 -100000 -100000
5/13/2021 2:00:00 PM -100000 -179968 -100000 -100000 -100000 -100000
5/13/2021 2:15:00 PM -100000 -179968 -100000 -100000 -100000 -100000
5/13/2021 2:30:00 PM -100000 -179968 -100000 -100000 -100000 -100000
5/13/2021 2:45:00 PM -100000 -179968 -100000 -100000 -100000 -100000
5/13/2021 3:00:00 PM -100000 -179968 -100000 -100000 -100000 -100000
5/13/2021 3:15:00 PM -100000 -179968 -100000 -100000 -100000 -100000
5/13/2021 3:30:00 PM -100000 -179968 -100000 -100000 -100000 -100000
5/13/2021 3:45:00 PM -100000 -179968 -100000 -100000 -100000 -100000
5/13/2021 4:00:00 PM -100000 -179968 -100000 -100000 -100000 -100000
5/13/2021 4:15:00 PM -100000 -179968 -100000 -100000 -100000 -100000
5/13/2021 4:30:00 PM -100000 -179968 -100000 -100000 -100000 -100000
5/13/2021 4:45:00 PM -100000 -179968 -100000 -100000 -100000 -100000
5/13/2021 5:00:00 PM -100000 -179968 -100000 -100000 -100000 -100000
5/13/2021 5:15:00 PM -100000 -179968 -100000 -100000 -100000 -100000
5/13/2021 5:30:00 PM -100000 -179968 -100000 -100000 -100000 -100000
5/13/2021 5:45:00 PM -100000 -179968 -100000 -100000 -100000 -100000
5/13/2021 6:00:00 PM -100000 -179968 -100000 -100000 -100000 -100000
5/13/2021 6:15:00 PM -100000 -179968 -100000 -100000 -100000 -100000
5/13/2021 6:30:00 PM -100000 -179968 -100000 -100000 -100000 -100000
5/13/2021 6:45:00 PM -100000 -179968 -100000 -100000 -100000 -100000
5/13/2021 7:00:00 PM -100000 -179968 -100000 -100000 -100000 -100000
5/13/2021 7:15:00 PM -100000 -179968 -100000 -100000 -100000 -100000
5/13/2021 7:30:00 PM -100000 -179968 -100000 -100000 -100000 -100000
5/13/2021 7:45:00 PM -100000 -179968 -100000 -100000 -100000 -100000
5/13/2021 8:00:00 PM -100000 -179968 -100000 -100000 -100000 -100000
5/13/2021 8:15:00 PM -100000 -179968 -100000 -100000 -100000 -100000
5/13/2021 8:30:00 PM -100000 -179968 -100000 -100000 -100000 -100000
5/13/2021 8:45:00 PM -100000 -179968 -100000 -100000 -100000 -100000
5/13/2021 9:00:00 PM -100000 -179968 -100000 -100000 -100000 -100000
5/13/2021 9:15:00 PM -100000 -179968 -100000 -100000 -100000 -100000
5/13/2021 9:30:00 PM -100000 -179968 -100000 -100000 -100000 -100000
5/13/2021 9:45:00 PM -100000 -179968 -100000 -100000 -100000 -100000
5/13/2021 10:00:00 PM -100000 -179968 -100000 -100000 -100000 -100000
5/13/2021 10:15:00 PM -100000 -179968 -100000 -100000 -100000 -100000
5/13/2021 10:30:00 PM -100000 -179968 -100000 -100000 -100000 -100000
5/13/2021 10:45:00 PM -100000 -179968 -100000 -100000 -100000 -100000
5/13/2021 11:00:00 PM -100000 -179968 -100000 -100000 -100000 -100000
5/13/2021 11:15:00 PM -100000 -179968 -100000 -100000 -100000 -100000
5/13/2021 11:30:00 PM -100000 -179968 -100000 -100000 -100000 -100000
5/13/2021 11:45:00 PM -100000 -179968 -100000 -100000 -100000 -100000
5/14/2021 12:00:00 AM -100000 -179968 -100000 -100000 -100000 -100000
5/14/2021 12:15:00 AM -100000 -179968 -100000 -100000 -100000 -100000
5/14/2021 12:30:00 AM -100000 -179968 -100000 -100000 -100000 -100000
5/14/2021 12:45:00 AM -100000 -179968 -100000 -100000 -100000 -100000
5/14/2021 1:00:00 AM -100000 -179968 -100000 -100000 -100000 -100000
5/14/2021 1:15:00 AM -100000 -179968 -100000 -100000 -100000 -100000
5/14/2021 1:30:00 AM -100000 -179968 -100000 -100000 -100000 -100000
5/14/2021 1:45:00 AM -100000 -179968 -100000 -100000 -100000 -100000
5/14/2021 2:00:00 AM -100000 -179968 -100000 -100000 -100000 -100000
5/14/2021 2:15:00 AM -100000 -179968 -100000 -100000 -100000 -100000
5/14/2021 2:30:00 AM -100000 -179968 -100000 -100000 -100000 -100000
5/14/2021 2:45:00 AM -100000 -179968 -100000 -100000 -100000 -100000
5/14/2021 3:00:00 AM -100000 -179968 -100000 -100000 -100000 -100000
5/14/2021 3:15:00 AM -100000 -179968 -100000 -100000 -100000 -100000
5/14/2021 3:30:00 AM -100000 -179968 -100000 -100000 -100000 -100000
5/14/2021 3:45:00 AM -100000 -179968 -100000 -100000 -100000 -100000
5/14/2021 4:00:00 AM -100000 -179968 -100000 -100000 -100000 -100000
5/14/2021 4:15:00 AM -100000 -179968 -100000 -100000 -100000 -100000
5/14/2021 4:30:00 AM -100000 -179968 -100000 -100000 -100000 -100000
5/14/2021 4:45:00 AM -100000 -179968 -100000 -100000 -100000 -100000
5/14/2021 5:00:00 AM -100000 -179968 -100000 -100000 -100000 -100000
5/14/2021 5:15:00 AM -100000 -179968 -100000 -100000 -100000 -100000
5/14/2021 5:30:00 AM -100000 -179968 -100000 -100000 -100000 -100000
5/14/2021 5:45:00 AM -100000 -179968 -100000 -100000 -100000 -100000
5/14/2021 6:00:00 AM -100000 -179968 -100000 -100000 -100000 -100000
5/14/2021 6:15:00 AM -100000 -179968 -100000 -100000 -100000 -100000
5/14/2021 6:30:00 AM -100000 -179968 -100000 -100000 -100000 -100000
5/14/2021 6:45:00 AM -100000 -179968 -100000 -100000 -100000 -100000
5/14/2021 7:00:00 AM -100000 -179968 -100000 -100000 -100000 -100000
5/14/2021 7:15:00 AM -100000 -179968 -100000 -100000 -100000 -100000
5/14/2021 7:30:00 AM -100000 -179968 -100000 -100000 -100000 -100000
5/14/2021 7:45:00 AM -100000 -179968 -100000 -100000 -100000 -100000
5/14/2021 8:00:00 AM -100000 -179968 -100000 -100000 -100000 -100000
5/14/2021 8:15:00 AM -100000 -179968 -100000 -100000 -100000 -100000
5/14/2021 8:30:00 AM -100000 -179968 -100000 -100000 -100000 -100000
5/14/2021 8:45:00 AM -100000 -179968 -100000 -100000 -100000 -100000
5/14/2021 9:00:00 AM -100000 -179968 -100000 -100000 -100000 -100000
5/14/2021 9:15:00 AM -100000 -179968 -100000 -100000 -100000 -100000
5/14/2021 9:30:00 AM -100000 -179968 -100000 -100000 -100000 -100000
5/14/2021 9:45:00 AM -100000 -179968 -100000 -100000 -100000 -100000
5/14/2021 10:00:00 AM -100000 -179968 -100000 -100000 -100000 -100000
5/14/2021 10:15:00 AM -100000 -179968 -100000 -100000 -100000 -100000
5/14/2021 10:30:00 AM -100000 -179968 -100000 -100000 -100000 -100000
5/14/2021 10:45:00 AM -100000 -179968 -100000 -100000 -100000 -100000
5/14/2021 11:00:00 AM -100000 -179968 -100000 -100000 -100000 -100000
5/14/2021 11:15:00 AM -100000 -179968 -100000 -100000 -100000 -100000
5/14/2021 11:30:00 AM -100000 -179968 -100000 -100000 -100000 -100000
5/14/2021 11:45:00 AM -100000 -179968 -100000 -100000 -100000 -100000
5/14/2021 12:00:00 PM -100000 -179968 -100000 -100000 -100000 -100000
5/14/2021 12:15:00 PM -100000 -179968 -100000 -100000 -100000 -100000
5/14/2021 12:30:00 PM -100000 -179968 -100000 -100000 -100000 -100000
5/14/2021 12:45:00 PM -100000 -179968 -100000 -100000 -100000 -100000
5/14/2021 1:00:00 PM -100000 -179968 -100000 -100000 -100000 -100000
5/14/2021 1:15:00 PM -100000 -179968 -100000 -100000 -100000 -100000
5/14/2021 1:30:00 PM -100000 -179968 -100000 -100000 -100000 -100000
5/14/2021 1:45:00 PM -100000 -179968 -100000 -100000 -100000 -100000
5/14/2021 2:00:00 PM -100000 -179968 -100000 -100000 -100000 -100000
5/14/2021 2:15:00 PM -100000 -179968 -100000 -100000 -100000 -100000
5/14/2021 2:30:00 PM -100000 -179968 -100000 -100000 -100000 -100000
5/14/2021 2:45:00 PM -100000 -179968 -100000 -100000 -100000 -100000
5/14/2021 3:00:00 PM -100000 -179968 -100000 -100000 -100000 -100000
5/14/2021 3:15:00 PM -100000 -179968 -100000 -100000 -100000 -100000
5/14/2021 3:30:00 PM -100000 -179968 -100000 -100000 -100000 -100000
5/14/2021 3:45:00 PM -100000 -179968 -100000 -100000 -100000 -100000
5/14/2021 4:00:00 PM -100000 -179968 -100000 -100000 -100000 -100000
5/14/2021 4:15:00 PM -100000 -179968 -100000 -100000 -100000 -100000
5/14/2021 4:30:00 PM -100000 -179968 -100000 -100000 -100000 -100000
5/14/2021 4:45:00 PM -100000 -179968 -100000 -100000 -100000 -100000
5/14/2021 5:00:00 PM -100000 -179968 -100000 -100000 -100000 -100000
5/14/2021 5:15:00 PM -100000 -179968 -100000 -100000 -100000 -100000
5/14/2021 5:30:00 PM -100000 -179968 -100000 -100000 -100000 -100000
5/14/2021 5:45:00 PM -100000 -179968 -100000 -100000 -100000 -100000
5/14/2021 6:00:00 PM -100000 -179968 -100000 -100000 -100000 -100000
5/14/2021 6:15:00 PM -100000 -179968 -100000 -100000 -100000 -100000
5/14/2021 6:30:00 PM -100000 -179968 -100000 -100000 -100000 -100000
5/14/2021 6:45:00 PM -100000 -179968 -100000 -100000 -100000 -100000
5/14/2021 7:00:00 PM -100000 -179968 -100000 -100000 -100000 -100000
5/14/2021 7:15:00 PM -100000 -179968 -100000 -100000 -100000 -100000
5/14/2021 7:30:00 PM -100000 -179968 -100000 -100000 -100000 -100000
5/14/2021 7:45:00 PM -100000 -179968 -100000 -100000 -100000 -100000
5/14/2021 8:00:00 PM -100000 -179968 -100000 -100000 -100000 -100000
5/14/2021 8:15:00 PM -100000 -179968 -100000 -100000 -100000 -100000
5/14/2021 8:30:00 PM -100000 -179968 -100000 -100000 -100000 -100000
5/14/2021 8:45:00 PM -100000 -179968 -100000 -100000 -100000 -100000
5/14/2021 9:00:00 PM -100000 -179968 -100000 -100000 -100000 -100000
5/14/2021 9:15:00 PM -100000 -179968 -100000 -100000 -100000 -100000
5/14/2021 9:30:00 PM -100000 -179968 -100000 -100000 -100000 -100000
5/14/2021 9:45:00 PM -100000 -179968 -100000 -100000 -100000 -100000
5/14/2021 10:00:00 PM -100000 -179968 -100000 -100000 -100000 -100000
5/14/2021 10:15:00 PM -100000 -179968 -100000 -100000 -100000 -100000
5/14/2021 10:30:00 PM -100000 -179968 -100000 -100000 -100000 -100000
5/14/2021 10:45:00 PM -100000 -179968 -100000 -100000 -100000 -100000
5/14/2021 11:00:00 PM -100000 -179968 -100000 -100000 -100000 -100000
5/14/2021 11:15:00 PM -100000 -179968 -100000 -100000 -100000 -100000
5/14/2021 11:30:00 PM -100000 -179968 -100000 -100000 -100000 -100000
5/14/2021 11:45:00 PM -100000 -179968 -100000 -100000 -100000 -100000
5/15/2021 12:00:00 AM -100000 -179968 -100000 -100000 -100000 -100000
5/15/2021 12:15:00 AM -100000 -179968 -100000 -100000 -100000 -100000
5/15/2021 12:30:00 AM -100000 -179968 -100000 -100000 -100000 -100000
5/15/2021 12:45:00 AM -100000 -179968 -100000 -100000 -100000 -100000
5/15/2021 1:00:00 AM -100000 -179968 -100000 -100000 -100000 -100000
5/15/2021 1:15:00 AM -100000 -179968 -100000 -100000 -100000 -100000
5/15/2021 1:30:00 AM -100000 -179968 -100000 -100000 -100000 -100000
5/15/2021 1:45:00 AM -100000 -179968 -100000 -100000 -100000 -100000
5/15/2021 2:00:00 AM -100000 -179968 -100000 -100000 -100000 -100000
5/15/2021 2:15:00 AM -100000 -179968 -100000 -100000 -100000 -100000
5/15/2021 2:30:00 AM -100000 -179968 -100000 -100000 -100000 -100000
5/15/2021 2:45:00 AM -100000 -179968 -100000 -100000 -100000 -100000
5/15/2021 3:00:00 AM -100000 -179968 -100000 -100000 -100000 -100000
5/15/2021 3:15:00 AM -100000 -179968 -100000 -100000 -100000 -100000
5/15/2021 3:30:00 AM -100000 -179968 -100000 -100000 -100000 -100000
5/15/2021 3:45:00 AM -100000 -179968 -100000 -100000 -100000 -100000
5/15/2021 4:00:00 AM -100000 -179968 -100000 -100000 -100000 -100000
5/15/2021 4:15:00 AM -100000 -179968 -100000 -100000 -100000 -100000
5/15/2021 4:30:00 AM -100000 -179968 -100000 -100000 -100000 -100000
5/15/2021 4:45:00 AM -100000 -179968 -100000 -100000 -100000 -100000
5/15/2021 5:00:00 AM -100000 -179968 -100000 -100000 -100000 -100000
5/15/2021 5:15:00 AM -100000 -179968 -100000 -100000 -100000 -100000
5/15/2021 5:30:00 AM -100000 -179968 -100000 -100000 -100000 -100000
5/15/2021 5:45:00 AM -100000 -179968 -100000 -100000 -100000 -100000
5/15/2021 6:00:00 AM -100000 -179968 -100000 -100000 -100000 -100000
5/15/2021 6:15:00 AM -100000 -179968 -100000 -100000 -100000 -100000
5/15/2021 6:30:00 AM -100000 -179968 -100000 -100000 -100000 -100000
5/15/2021 6:45:00 AM -100000 -179968 -100000 -100000 -100000 -100000
5/15/2021 7:00:00 AM -100000 -179968 -100000 -100000 -100000 -100000
5/15/2021 7:15:00 AM -100000 -179968 -100000 -100000 -100000 -100000
5/15/2021 7:30:00 AM -100000 -179968 -100000 -100000 -100000 -100000
5/15/2021 7:45:00 AM -100000 -179968 -100000 -100000 -100000 -100000
5/15/2021 8:00:00 AM -100000 -179968 -100000 -100000 -100000 -100000
5/15/2021 8:15:00 AM -100000 -179968 -100000 -100000 -100000 -100000
5/15/2021 8:30:00 AM -100000 -179968 -100000 -100000 -100000 -100000
5/15/2021 8:45:00 AM -100000 -179968 -100000 -100000 -100000 -100000
5/15/2021 9:00:00 AM -100000 -179968 -100000 -100000 -100000 -100000
5/15/2021 9:15:00 AM -100000 -179968 -100000 -100000 -100000 -100000
5/15/2021 9:30:00 AM -100000 -179968 -100000 -100000 -100000 -100000
5/15/2021 9:45:00 AM -100000 -179968 -100000 -100000 -100000 -100000
5/15/2021 10:00:00 AM -100000 -179968 -100000 -100000 -100000 -100000
5/15/2021 10:15:00 AM -100000 -179968 -100000 -100000 -100000 -100000
5/15/2021 10:30:00 AM -100000 -179968 -100000 -100000 -100000 -100000
5/15/2021 10:45:00 AM -100000 -179968 -100000 -100000 -100000 -100000
5/15/2021 11:00:00 AM -100000 -179968 -100000 -100000 -100000 -100000
5/15/2021 11:15:00 AM -100000 -179968 -100000 -100000 -100000 -100000
5/15/2021 11:30:00 AM -100000 -179968 -100000 -100000 -100000 -100000
5/15/2021 11:45:00 AM -100000 -179968 -100000 -100000 -100000 -100000
5/15/2021 12:00:00 PM -100000 -179968 -100000 -100000 -100000 -100000
5/15/2021 12:15:00 PM -100000 -179968 -100000 -100000 -100000 -100000
5/15/2021 12:30:00 PM -100000 -179968 -100000 -100000 -100000 -100000
5/15/2021 12:45:00 PM -100000 -179968 -100000 -100000 -100000 -100000
5/15/2021 1:00:00 PM -100000 -179968 -100000 -100000 -100000 -100000
5/15/2021 1:15:00 PM -100000 -179968 -100000 -100000 -100000 -100000
5/15/2021 1:30:00 PM -100000 -179968 -100000 -100000 -100000 -100000
5/15/2021 1:45:00 PM -100000 -179968 -100000 -100000 -100000 -100000
5/15/2021 2:00:00 PM -100000 -179968 -100000 -100000 -100000 -100000
5/15/2021 2:15:00 PM -100000 -179968 -100000 -100000 -100000 -100000
5/15/2021 2:30:00 PM -100000 -179968 -100000 -100000 -100000 -100000
5/15/2021 2:45:00 PM -100000 -179968 -100000 -100000 -100000 -100000
5/15/2021 3:00:00 PM -100000 -179968 -100000 -100000 -100000 -100000
5/15/2021 3:15:00 PM -100000 -179968 -100000 -100000 -100000 -100000
5/15/2021 3:30:00 PM -100000 -179968 -100000 -100000 -100000 -100000
5/15/2021 3:45:00 PM -100000 -179968 -100000 -100000 -100000 -100000
5/15/2021 4:00:00 PM -100000 -179968 -100000 -100000 -100000 -100000
5/15/2021 4:15:00 PM -100000 -179968 -100000 -100000 -100000 -100000
5/15/2021 4:30:00 PM -100000 -179968 -100000 -100000 -100000 -100000
5/15/2021 4:45:00 PM -100000 -179968 -100000 -100000 -100000 -100000
5/15/2021 5:00:00 PM -100000 -179968 -100000 -100000 -100000 -100000
5/15/2021 5:15:00 PM -100000 -179968 -100000 -100000 -100000 -100000
5/15/2021 5:30:00 PM -100000 -179968 -100000 -100000 -100000 -100000
5/15/2021 5:45:00 PM -100000 -179968 -100000 -100000 -100000 -100000
5/15/2021 6:00:00 PM -100000 -179968 -100000 -100000 -100000 -100000
5/15/2021 6:15:00 PM -100000 -179968 -100000 -100000 -100000 -100000
5/15/2021 6:30:00 PM -100000 -179968 -100000 -100000 -100000 -100000
5/15/2021 6:45:00 PM -100000 -179968 -100000 -100000 -100000 -100000
5/15/2021 7:00:00 PM -100000 -179968 -100000 -100000 -100000 -100000
5/15/2021 7:15:00 PM -100000 -179968 -100000 -100000 -100000 -100000
5/15/2021 7:30:00 PM -100000 -179968 -100000 -100000 -100000 -100000
5/15/2021 7:45:00 PM -100000 -179968 -100000 -100000 -100000 -100000
5/15/2021 8:00:00 PM -100000 -179968 -100000 -100000 -100000 -100000
5/15/2021 8:15:00 PM -100000 -179968 -100000 -100000 -100000 -100000
5/15/2021 8:30:00 PM -100000 -179968 -100000 -100000 -100000 -100000
5/15/2021 8:45:00 PM -100000 -179968 -100000 -100000 -100000 -100000
5/15/2021 9:00:00 PM -100000 -179968 -100000 -100000 -100000 -100000
5/15/2021 9:15:00 PM -100000 -179968 -100000 -100000 -100000 -100000
5/15/2021 9:30:00 PM -100000 -179968 -100000 -100000 -100000 -100000
5/15/2021 9:45:00 PM -100000 -179968 -100000 -100000 -100000 -100000
5/15/2021 10:00:00 PM -100000 -179968 -100000 -100000 -100000 -100000
5/15/2021 10:15:00 PM -100000 -179968 -100000 -100000 -100000 -100000
5/15/2021 10:30:00 PM -100000 -179968 -100000 -100000 -100000 -100000
5/15/2021 10:45:00 PM -100000 -179968 -100000 -100000 -100000 -100000
5/15/2021 11:00:00 PM -100000 -179968 -100000 -100000 -100000 -100000
5/15/2021 11:15:00 PM -100000 -179968 -100000 -100000 -100000 -100000
5/15/2021 11:30:00 PM -100000 -179968 -100000 -100000 -100000 -100000
5/15/2021 11:45:00 PM -100000 -179968 -100000 -100000 -100000 -100000
5/16/2021 12:00:00 AM -100000 -179968 -100000 -100000 -100000 -100000
5/16/2021 12:15:00 AM -100000 -179968 -100000 -100000 -100000 -100000
5/16/2021 12:30:00 AM -100000 -179968 -100000 -100000 -100000 -100000
5/16/2021 12:45:00 AM -100000 -179968 -100000 -100000 -100000 -100000
5/16/2021 1:00:00 AM -100000 -179968 -100000 -100000 -100000 -100000
5/16/2021 1:15:00 AM -100000 -179968 -100000 -100000 -100000 -100000
5/16/2021 1:30:00 AM -100000 -179968 -100000 -100000 -100000 -100000
5/16/2021 1:45:00 AM -100000 -179968 -100000 -100000 -100000 -100000
5/16/2021 2:00:00 AM -100000 -179968 -100000 -100000 -100000 -100000
5/16/2021 2:15:00 AM -100000 -179968 -100000 -100000 -100000 -100000
5/16/2021 2:30:00 AM -100000 -179968 -100000 -100000 -100000 -100000
5/16/2021 2:45:00 AM -100000 -179968 -100000 -100000 -100000 -100000
5/16/2021 3:00:00 AM -100000 -179968 -100000 -100000 -100000 -100000
5/16/2021 3:15:00 AM -100000 -179968 -100000 -100000 -100000 -100000
5/16/2021 3:30:00 AM -100000 -179968 -100000 -100000 -100000 -100000
5/16/2021 3:45:00 AM -100000 -179968 -100000 -100000 -100000 -100000
5/16/2021 4:00:00 AM -100000 -179968 -100000 -100000 -100000 -100000
5/16/2021 4:15:00 AM -100000 -179968 -100000 -100000 -100000 -100000
5/16/2021 4:30:00 AM -100000 -179968 -100000 -100000 -100000 -100000
5/16/2021 4:45:00 AM -100000 -179968 -100000 -100000 -100000 -100000
5/16/2021 5:00:00 AM -100000 -179968 -100000 -100000 -100000 -100000
5/16/2021 5:15:00 AM -100000 -179968 -100000 -100000 -100000 -100000
5/16/2021 5:30:00 AM -100000 -179968 -100000 -100000 -100000 -100000
5/16/2021 5:45:00 AM -100000 -179968 -100000 -100000 -100000 -100000
5/16/2021 6:00:00 AM -100000 -179968 -100000 -100000 -100000 -100000
5/16/2021 6:15:00 AM -100000 -179968 -100000 -100000 -100000 -100000
5/16/2021 6:30:00 AM -100000 -179968 -100000 -100000 -100000 -100000
5/16/2021 6:45:00 AM -100000 -179968 -100000 -100000 -100000 -100000
5/16/2021 7:00:00 AM -100000 -179968 -100000 -100000 -100000 -100000
5/16/2021 7:15:00 AM -100000 -179968 -100000 -100000 -100000 -100000
5/16/2021 7:30:00 AM -100000 -179968 -100000 -100000 -100000 -100000
5/16/2021 7:45:00 AM -100000 -179968 -100000 -100000 -100000 -100000
5/16/2021 8:00:00 AM -100000 -179968 -100000 -100000 -100000 -100000
5/16/2021 8:15:00 AM -100000 -179968 -100000 -100000 -100000 -100000
5/16/2021 8:30:00 AM -100000 -179968 -100000 -100000 -100000 -100000
5/16/2021 8:45:00 AM -100000 -179968 -100000 -100000 -100000 -100000
5/16/2021 9:00:00 AM -100000 -179968 -100000 -100000 -100000 -100000
5/16/2021 9:15:00 AM -100000 -179968 -100000 -100000 -100000 -100000
5/16/2021 9:30:00 AM -100000 -179968 -100000 -100000 -100000 -100000
5/16/2021 9:45:00 AM -100000 -179968 -100000 -100000 -100000 -100000
5/16/2021 10:00:00 AM -100000 -179968 -100000 -100000 -100000 -100000
5/16/2021 10:15:00 AM -100000 -179968 -100000 -100000 -100000 -100000
5/16/2021 10:30:00 AM -100000 -179968 -100000 -100000 -100000 -100000
5/16/2021 10:45:00 AM -100000 -179968 -100000 -100000 -100000 -100000
5/16/2021 11:00:00 AM -100000 -179968 -100000 -100000 -100000 -100000
5/16/2021 11:15:00 AM -100000 -179968 -100000 -100000 -100000 -100000
5/16/2021 11:30:00 AM -100000 -179968 -100000 -100000 -100000 -100000
5/16/2021 11:45:00 AM -100000 -179968 -100000 -100000 -100000 -100000
5/16/2021 12:00:00 PM -100000 -179968 -100000 -100000 -100000 -100000
5/16/2021 12:15:00 PM -100000 -179968 -100000 -100000 -100000 -100000
5/16/2021 12:30:00 PM -100000 -179968 -100000 -100000 -100000 -100000
5/16/2021 12:45:00 PM -100000 -179968 -100000 -100000 -100000 -100000
5/16/2021 1:00:00 PM -100000 -179968 -100000 -100000 -100000 -100000
5/16/2021 1:15:00 PM -100000 -179968 -100000 -100000 -100000 -100000
5/16/2021 1:30:00 PM -100000 -179968 -100000 -100000 -100000 -100000
5/16/2021 1:45:00 PM -100000 -179968 -100000 -100000 -100000 -100000
5/16/2021 2:00:00 PM -100000 -179968 -100000 -100000 -100000 -100000
5/16/2021 2:15:00 PM -100000 -179968 -100000 -100000 -100000 -100000
5/16/2021 2:30:00 PM -100000 -179968 -100000 -100000 -100000 -100000
5/16/2021 2:45:00 PM -100000 -179968 -100000 -100000 -100000 -100000
5/16/2021 3:00:00 PM -100000 -179968 -100000 -100000 -100000 -100000
5/16/2021 3:15:00 PM -100000 -179968 -100000 -100000 -100000 -100000
5/16/2021 3:30:00 PM -100000 -179968 -100000 -100000 -100000 -100000
5/16/2021 3:45:00 PM -100000 -179968 -100000 -100000 -100000 -100000
5/16/2021 4:00:00 PM -100000 -179968 -100000 -100000 -100000 -100000
5/16/2021 4:15:00 PM -100000 -179968 -100000 -100000 -100000 -100000
5/16/2021 4:30:00 PM -100000 -179968 -100000 -100000 -100000 -100000
5/16/2021 4:45:00 PM -100000 -179968 -100000 -100000 -100000 -100000
5/16/2021 5:00:00 PM -100000 -179968 -100000 -100000 -100000 -100000
5/16/2021 5:15:00 PM -100000 -179968 -100000 -100000 -100000 -100000
5/16/2021 5:30:00 PM -100000 -179968 -100000 -100000 -100000 -100000
5/16/2021 5:45:00 PM -100000 -179968 -100000 -100000 -100000 -100000
5/16/2021 6:00:00 PM -100000 -179968 -100000 -100000 -100000 -100000
5/16/2021 6:15:00 PM -100000 -179968 -100000 -100000 -100000 -100000
5/16/2021 6:30:00 PM -100000 -179968 -100000 -100000 -100000 -100000
5/16/2021 6:45:00 PM -100000 -179968 -100000 -100000 -100000 -100000
5/16/2021 7:00:00 PM -100000 -179968 -100000 -100000 -100000 -100000
5/16/2021 7:15:00 PM -100000 -179968 -100000 -100000 -100000 -100000
5/16/2021 7:30:00 PM -100000 -179968 -100000 -100000 -100000 -100000
5/16/2021 7:45:00 PM -100000 -179968 -100000 -100000 -100000 -100000
5/16/2021 8:00:00 PM -100000 -179968 -100000 -100000 -100000 -100000
5/16/2021 8:15:00 PM -100000 -179968 -100000 -100000 -100000 -100000
5/16/2021 8:30:00 PM -100000 -179968 -100000 -100000 -100000 -100000
5/16/2021 8:45:00 PM -100000 -179968 -100000 -100000 -100000 -100000
5/16/2021 9:00:00 PM -100000 -179968 -100000 -100000 -100000 -100000
5/16/2021 9:15:00 PM -100000 -179968 -100000 -100000 -100000 -100000
5/16/2021 9:30:00 PM -100000 -179968 -100000 -100000 -100000 -100000
5/16/2021 9:45:00 PM -100000 -179968 -100000 -100000 -100000 -100000
5/16/2021 10:00:00 PM -100000 -179968 -100000 -100000 -100000 -100000
5/16/2021 10:15:00 PM -100000 -179968 -100000 -100000 -100000 -100000
5/16/2021 10:30:00 PM -100000 -179968 -100000 -100000 -100000 -100000
5/16/2021 10:45:00 PM -100000 -179968 -100000 -100000 -100000 -100000
5/16/2021 11:00:00 PM -100000 -179968 -100000 -100000 -100000 -100000
5/16/2021 11:15:00 PM -100000 -179968 -100000 -100000 -100000 -100000
5/16/2021 11:30:00 PM -100000 -179968 -100000 -100000 -100000 -100000
5/16/2021 11:45:00 PM -100000 -179968 -100000 -100000 -100000 -100000
5/17/2021 12:00:00 AM -100000 -179968 -100000 -100000 -100000 -100000
5/17/2021 12:15:00 AM -100000 -179968 -100000 -100000 -100000 -100000
5/17/2021 12:30:00 AM -100000 -179968 -100000 -100000 -100000 -100000
5/17/2021 12:45:00 AM -100000 -179968 -100000 -100000 -100000 -100000
5/17/2021 1:00:00 AM -100000 -179968 -100000 -100000 -100000 -100000
5/17/2021 1:15:00 AM -100000 -179968 -100000 -100000 -100000 -100000
5/17/2021 1:30:00 AM -100000 -179968 -100000 -100000 -100000 -100000
5/17/2021 1:45:00 AM -100000 -179968 -100000 -100000 -100000 -100000
5/17/2021 2:00:00 AM -100000 -179968 -100000 -100000 -100000 -100000
5/17/2021 2:15:00 AM -100000 -179968 -100000 -100000 -100000 -100000
5/17/2021 2:30:00 AM -100000 -179968 -100000 -100000 -100000 -100000
5/17/2021 2:45:00 AM -100000 -179968 -100000 -100000 -100000 -100000
5/17/2021 3:00:00 AM -100000 -179968 -100000 -100000 -100000 -100000
5/17/2021 3:15:00 AM -100000 -179968 -100000 -100000 -100000 -100000
5/17/2021 3:30:00 AM -100000 -179968 -100000 -100000 -100000 -100000
5/17/2021 3:45:00 AM -100000 -179968 -100000 -100000 -100000 -100000
5/17/2021 4:00:00 AM -100000 -179968 -100000 -100000 -100000 -100000
5/17/2021 4:15:00 AM -100000 -179968 -100000 -100000 -100000 -100000
5/17/2021 4:30:00 AM -100000 -179968 -100000 -100000 -100000 -100000
5/17/2021 4:45:00 AM -100000 -179968 -100000 -100000 -100000 -100000
5/17/2021 5:00:00 AM -100000 -179968 -100000 -100000 -100000 -100000
5/17/2021 5:15:00 AM -100000 -179968 -100000 -100000 -100000 -100000
5/17/2021 5:30:00 AM -100000 -179968 -100000 -100000 -100000 -100000
5/17/2021 5:45:00 AM -100000 -179968 -100000 -100000 -100000 -100000
5/17/2021 6:00:00 AM -100000 -179968 -100000 -100000 -100000 -100000
5/17/2021 6:15:00 AM -100000 -179968 -100000 -100000 -100000 -100000
5/17/2021 6:30:00 AM -100000 -179968 -100000 -100000 -100000 -100000
5/17/2021 6:45:00 AM -100000 -179968 -100000 -100000 -100000 -100000
5/17/2021 7:00:00 AM -100000 -179968 -100000 -100000 -100000 -100000
5/17/2021 7:15:00 AM -100000 -179968 -100000 -100000 -100000 -100000
5/17/2021 7:30:00 AM -100000 -179968 -100000 -100000 -100000 -100000
5/17/2021 7:45:00 AM -100000 -179968 -100000 -100000 -100000 -100000
5/17/2021 8:00:00 AM -100000 -179968 -100000 -100000 -100000 -100000
5/17/2021 8:15:00 AM -100000 -179968 -100000 -100000 -100000 -100000
5/17/2021 8:30:00 AM -100000 -179968 -100000 -100000 -100000 -100000
5/17/2021 8:45:00 AM -100000 -179968 -100000 -100000 -100000 -100000
5/17/2021 9:00:00 AM -100000 -179968 -100000 -100000 -100000 -100000
5/17/2021 9:15:00 AM -100000 -179968 -100000 -100000 -100000 -100000
5/17/2021 9:30:00 AM -100000 -179968 -100000 -100000 -100000 -100000
5/17/2021 9:45:00 AM -100000 -179968 -100000 -100000 -100000 -100000
5/17/2021 10:00:00 AM -100000 -179968 -100000 -100000 -100000 -100000
5/17/2021 10:15:00 AM -100000 -179968 -100000 -100000 -100000 -100000
5/17/2021 10:30:00 AM -100000 -179968 -100000 -100000 -100000 -100000
5/17/2021 10:45:00 AM -100000 -179968 -100000 -100000 -100000 -100000
5/17/2021 11:00:00 AM -100000 -179968 -100000 -100000 -100000 -100000
5/17/2021 11:15:00 AM -100000 -179968 -100000 -100000 -100000 -100000
5/17/2021 11:30:00 AM -100000 -179968 -100000 -100000 -100000 -100000
5/17/2021 11:45:00 AM -100000 -179968 -100000 -100000 -100000 -100000
5/17/2021 12:00:00 PM -100000 -179968 -100000 -100000 -100000 -100000
5/17/2021 12:15:00 PM -100000 -179968 -100000 -100000 -100000 -100000
5/17/2021 12:30:00 PM -100000 -179968 -100000 -100000 -100000 -100000
5/17/2021 12:45:00 PM -100000 -179968 -100000 -100000 -100000 -100000
5/17/2021 1:00:00 PM -100000 -179968 -100000 -100000 -100000 -100000
5/17/2021 1:15:00 PM -100000 -179968 -100000 -100000 -100000 -100000
5/17/2021 1:30:00 PM -100000 -179968 -100000 -100000 -100000 -100000
5/17/2021 1:45:00 PM -100000 -179968 -100000 -100000 -100000 -100000
5/17/2021 2:00:00 PM -100000 -179968 -100000 -100000 -100000 -100000
5/17/2021 2:15:00 PM -100000 -179968 -100000 -100000 -100000 -100000
5/17/2021 2:30:00 PM -100000 -179968 -100000 -100000 -100000 -100000
5/17/2021 2:45:00 PM -100000 -179968 -100000 -100000 -100000 -100000
5/17/2021 3:00:00 PM -100000 -179968 -100000 -100000 -100000 -100000
5/17/2021 3:15:00 PM -100000 -179968 -100000 -100000 -100000 -100000
5/17/2021 3:30:00 PM -100000 -179968 -100000 -100000 -100000 -100000
5/17/2021 3:45:00 PM -100000 -179968 -100000 -100000 -100000 -100000
5/17/2021 4:00:00 PM -100000 -179968 -100000 -100000 -100000 -100000
5/17/2021 4:15:00 PM -100000 -179968 -100000 -100000 -100000 -100000
5/17/2021 4:30:00 PM -100000 -179968 -100000 -100000 -100000 -100000
5/17/2021 4:45:00 PM -100000 -179968 -100000 -100000 -100000 -100000
5/17/2021 5:00:00 PM -100000 -179968 -100000 -100000 -100000 -100000
5/17/2021 5:15:00 PM -100000 -179968 -100000 -100000 -100000 -100000
5/17/2021 5:30:00 PM -100000 -179968 -100000 -100000 -100000 -100000
5/17/2021 5:45:00 PM -100000 -179968 -100000 -100000 -100000 -100000
5/17/2021 6:00:00 PM -100000 -179968 -100000 -100000 -100000 -100000
5/17/2021 6:15:00 PM -100000 -179968 -100000 -100000 -100000 -100000
5/17/2021 6:30:00 PM -100000 -179968 -100000 -100000 -100000 -100000
5/17/2021 6:45:00 PM -100000 -179968 -100000 -100000 -100000 -100000
5/17/2021 7:00:00 PM -100000 -179968 -100000 -100000 -100000 -100000
5/17/2021 7:15:00 PM -100000 -179968 -100000 -100000 -100000 -100000
5/17/2021 7:30:00 PM -100000 -179968 -100000 -100000 -100000 -100000
5/17/2021 7:45:00 PM -100000 -179968 -100000 -100000 -100000 -100000
5/17/2021 8:00:00 PM -100000 -179968 -100000 -100000 -100000 -100000
5/17/2021 8:15:00 PM -100000 -179968 -100000 -100000 -100000 -100000
5/17/2021 8:30:00 PM -100000 -179968 -100000 -100000 -100000 -100000
5/17/2021 8:45:00 PM -100000 -179968 -100000 -100000 -100000 -100000
5/17/2021 9:00:00 PM -100000 -179968 -100000 -100000 -100000 -100000
5/17/2021 9:15:00 PM -100000 -179968 -100000 -100000 -100000 -100000
5/17/2021 9:30:00 PM -100000 -179968 -100000 -100000 -100000 -100000
5/17/2021 9:45:00 PM -100000 -179968 -100000 -100000 -100000 -100000
5/17/2021 10:00:00 PM -100000 -179968 -100000 -100000 -100000 -100000
5/17/2021 10:15:00 PM -100000 -179968 -100000 -100000 -100000 -100000
5/17/2021 10:30:00 PM -100000 -179968 -100000 -100000 -100000 -100000
5/17/2021 10:45:00 PM -100000 -179968 -100000 -100000 -100000 -100000
5/17/2021 11:00:00 PM -100000 -179968 -100000 -100000 -100000 -100000
5/17/2021 11:15:00 PM -100000 -179968 -100000 -100000 -100000 -100000
5/17/2021 11:30:00 PM -100000 -179968 -100000 -100000 -100000 -100000
5/17/2021 11:45:00 PM -100000 -179968 -100000 -100000 -100000 -100000
5/18/2021 12:00:00 AM -100000 -179968 -100000 -100000 -100000 -100000
5/18/2021 12:15:00 AM -100000 -179968 -100000 -100000 -100000 -100000
5/18/2021 12:30:00 AM -100000 -179968 -100000 -100000 -100000 -100000
5/18/2021 12:45:00 AM -100000 -179968 -100000 -100000 -100000 -100000
5/18/2021 1:00:00 AM -100000 -179968 -100000 -100000 -100000 -100000
5/18/2021 1:15:00 AM -100000 -179968 -100000 -100000 -100000 -100000
5/18/2021 1:30:00 AM -100000 -179968 -100000 -100000 -100000 -100000
5/18/2021 1:45:00 AM -100000 -179968 -100000 -100000 -100000 -100000
5/18/2021 2:00:00 AM -100000 -179968 -100000 -100000 -100000 -100000
5/18/2021 2:15:00 AM -100000 -179968 -100000 -100000 -100000 -100000
5/18/2021 2:30:00 AM -100000 -179968 -100000 -100000 -100000 -100000
5/18/2021 2:45:00 AM -100000 -179968 -100000 -100000 -100000 -100000
5/18/2021 3:00:00 AM -100000 -179968 -100000 -100000 -100000 -100000
5/18/2021 3:15:00 AM -100000 -179968 -100000 -100000 -100000 -100000
5/18/2021 3:30:00 AM -100000 -179968 -100000 -100000 -100000 -100000
5/18/2021 3:45:00 AM -100000 -179968 -100000 -100000 -100000 -100000
5/18/2021 4:00:00 AM -100000 -179968 -100000 -100000 -100000 -100000
5/18/2021 4:15:00 AM -100000 -179968 -100000 -100000 -100000 -100000
5/18/2021 4:30:00 AM -100000 -179968 -100000 -100000 -100000 -100000
5/18/2021 4:45:00 AM -100000 -179968 -100000 -100000 -100000 -100000
5/18/2021 5:00:00 AM -100000 -179968 -100000 -100000 -100000 -100000
5/18/2021 5:15:00 AM -100000 -179968 -100000 -100000 -100000 -100000
5/18/2021 5:30:00 AM -100000 -179968 -100000 -100000 -100000 -100000
5/18/2021 5:45:00 AM -100000 -179968 -100000 -100000 -100000 -100000
5/18/2021 6:00:00 AM -100000 -179968 -100000 -100000 -100000 -100000
5/18/2021 6:15:00 AM -100000 -179968 -100000 -100000 -100000 -100000
5/18/2021 6:30:00 AM -100000 -179968 -100000 -100000 -100000 -100000
5/18/2021 6:45:00 AM -100000 -179968 -100000 -100000 -100000 -100000
5/18/2021 7:00:00 AM -100000 -179968 -100000 -100000 -100000 -100000
5/18/2021 7:15:00 AM -100000 -179968 -100000 -100000 -100000 -100000
5/18/2021 7:30:00 AM -100000 -179968 -100000 -100000 -100000 -100000
5/18/2021 7:45:00 AM -100000 -179968 -100000 -100000 -100000 -100000
5/18/2021 8:00:00 AM -100000 -179968 -100000 -100000 -100000 -100000
5/18/2021 8:15:00 AM -100000 -179968 -100000 -100000 -100000 -100000
5/18/2021 8:30:00 AM -100000 -179968 -100000 -100000 -100000 -100000
5/18/2021 8:45:00 AM -100000 -179968 -100000 -100000 -100000 -100000
5/18/2021 9:00:00 AM -100000 -179968 -100000 -100000 -100000 -100000
5/18/2021 9:15:00 AM -100000 -179968 -100000 -100000 -100000 -100000
5/18/2021 9:30:00 AM -100000 -179968 -100000 -100000 -100000 -100000
5/18/2021 9:45:00 AM -100000 -179968 -100000 -100000 -100000 -100000
5/18/2021 10:00:00 AM -100000 -179968 -100000 -100000 -100000 -100000
5/18/2021 10:15:00 AM -100000 -179968 -100000 -100000 -100000 -100000
5/18/2021 10:30:00 AM -100000 -179968 -100000 -100000 -100000 -100000
5/18/2021 10:45:00 AM -100000 -179968 -100000 -100000 -100000 -100000
5/18/2021 11:00:00 AM -100000 -179968 -100000 -100000 -100000 -100000
5/18/2021 11:15:00 AM -100000 -179968 -100000 -100000 -100000 -100000
5/18/2021 11:30:00 AM -100000 -179968 -100000 -100000 -100000 -100000
5/18/2021 11:45:00 AM -100000 -179968 -100000 -100000 -100000 -100000
5/18/2021 12:00:00 PM -100000 -179968 -100000 -100000 -100000 -100000
5/18/2021 12:15:00 PM -100000 -179968 -100000 -100000 -100000 -100000
5/18/2021 12:30:00 PM -100000 -179968 -100000 -100000 -100000 -100000
5/18/2021 12:45:00 PM -100000 -179968 -100000 -100000 -100000 -100000
5/18/2021 1:00:00 PM -100000 -179968 -100000 -100000 -100000 -100000
5/18/2021 1:15:00 PM -100000 -179968 -100000 -100000 -100000 -100000
5/18/2021 1:30:00 PM -100000 -179968 -100000 -100000 -100000 -100000
5/18/2021 1:45:00 PM -100000 -179968 -100000 -100000 -100000 -100000
5/18/2021 2:00:00 PM -100000 -179968 -100000 -100000 -100000 -100000
5/18/2021 2:15:00 PM -100000 -179968 -100000 -100000 -100000 -100000
5/18/2021 2:30:00 PM -100000 -179968 -100000 -100000 -100000 -100000
5/18/2021 2:45:00 PM -100000 -179968 -100000 -100000 -100000 -100000
5/18/2021 3:00:00 PM -100000 -179968 -100000 -100000 -100000 -100000
5/18/2021 3:15:00 PM -100000 -179968 -100000 -100000 -100000 -100000
5/18/2021 3:30:00 PM -100000 -179968 -100000 -100000 -100000 -100000
5/18/2021 3:45:00 PM -100000 -179968 -100000 -100000 -100000 -100000
5/18/2021 4:00:00 PM -100000 -179968 -100000 -100000 -100000 -100000
5/18/2021 4:15:00 PM -100000 -179968 -100000 -100000 -100000 -100000
5/18/2021 4:30:00 PM -100000 -179968 -100000 -100000 -100000 -100000
5/18/2021 4:45:00 PM -100000 -179968 -100000 -100000 -100000 -100000
5/18/2021 5:00:00 PM -100000 -179968 -100000 -100000 -100000 -100000
5/18/2021 5:15:00 PM -100000 -179968 -100000 -100000 -100000 -100000
5/18/2021 5:30:00 PM -100000 -179968 -100000 -100000 -100000 -100000
5/18/2021 5:45:00 PM -100000 -179968 -100000 -100000 -100000 -100000
5/18/2021 6:00:00 PM -100000 -179968 -100000 -100000 -100000 -100000
5/18/2021 6:15:00 PM -100000 -179968 -100000 -100000 -100000 -100000
5/18/2021 6:30:00 PM -100000 -179968 -100000 -100000 -100000 -100000
5/18/2021 6:45:00 PM -100000 -179968 -100000 -100000 -100000 -100000
5/18/2021 7:00:00 PM -100000 -179968 -100000 -100000 -100000 -100000
5/18/2021 7:15:00 PM -100000 -179968 -100000 -100000 -100000 -100000
5/18/2021 7:30:00 PM -100000 -179968 -100000 -100000 -100000 -100000
5/18/2021 7:45:00 PM -100000 -179968 -100000 -100000 -100000 -100000
5/18/2021 8:00:00 PM -100000 -179968 -100000 -100000 -100000 -100000
5/18/2021 8:15:00 PM -100000 -179968 -100000 -100000 -100000 -100000
5/18/2021 8:30:00 PM -100000 -179968 -100000 -100000 -100000 -100000
5/18/2021 8:45:00 PM -100000 -179968 -100000 -100000 -100000 -100000
5/18/2021 9:00:00 PM -100000 -179968 -100000 -100000 -100000 -100000
5/18/2021 9:15:00 PM -100000 -179968 -100000 -100000 -100000 -100000
5/18/2021 9:30:00 PM -100000 -179968 -100000 -100000 -100000 -100000
5/18/2021 9:45:00 PM -100000 -179968 -100000 -100000 -100000 -100000
5/18/2021 10:00:00 PM -100000 -179968 -100000 -100000 -100000 -100000
5/18/2021 10:15:00 PM -100000 -179968 -100000 -100000 -100000 -100000
5/18/2021 10:30:00 PM -100000 -179968 -100000 -100000 -100000 -100000
5/18/2021 10:45:00 PM -100000 -179968 -100000 -100000 -100000 -100000
5/18/2021 11:00:00 PM -100000 -179968 -100000 -100000 -100000 -100000
5/18/2021 11:15:00 PM -100000 -179968 -100000 -100000 -100000 -100000
5/18/2021 11:30:00 PM -100000 -179968 -100000 -100000 -100000 -100000
5/18/2021 11:45:00 PM -100000 -179968 -100000 -100000 -100000 -100000
5/19/2021 12:00:00 AM -100000 -179968 -100000 -100000 -100000 -100000
5/19/2021 12:15:00 AM -100000 -179968 -100000 -100000 -100000 -100000
5/19/2021 12:30:00 AM -100000 -179968 -100000 -100000 -100000 -100000
5/19/2021 12:45:00 AM -100000 -179968 -100000 -100000 -100000 -100000
5/19/2021 1:00:00 AM -100000 -179968 -100000 -100000 -100000 -100000
5/19/2021 1:15:00 AM -100000 -179968 -100000 -100000 -100000 -100000
5/19/2021 1:30:00 AM -100000 -179968 -100000 -100000 -100000 -100000
5/19/2021 1:45:00 AM -100000 -179968 -100000 -100000 -100000 -100000
5/19/2021 2:00:00 AM -100000 -179968 -100000 -100000 -100000 -100000
5/19/2021 2:15:00 AM -100000 -179968 -100000 -100000 -100000 -100000
5/19/2021 2:30:00 AM -100000 -179968 -100000 -100000 -100000 -100000
5/19/2021 2:45:00 AM -100000 -179968 -100000 -100000 -100000 -100000
5/19/2021 3:00:00 AM -100000 -179968 -100000 -100000 -100000 -100000
5/19/2021 3:15:00 AM -100000 -179968 -100000 -100000 -100000 -100000
5/19/2021 3:30:00 AM -100000 -179968 -100000 -100000 -100000 -100000
5/19/2021 3:45:00 AM -100000 -179968 -100000 -100000 -100000 -100000
5/19/2021 4:00:00 AM -100000 -179968 -100000 -100000 -100000 -100000
5/19/2021 4:15:00 AM -100000 -179968 -100000 -100000 -100000 -100000
5/19/2021 4:30:00 AM -100000 -179968 -100000 -100000 -100000 -100000
5/19/2021 4:45:00 AM -100000 -179968 -100000 -100000 -100000 -100000
5/19/2021 5:00:00 AM -100000 -179968 -100000 -100000 -100000 -100000
5/19/2021 5:15:00 AM -100000 -179968 -100000 -100000 -100000 -100000
5/19/2021 5:30:00 AM -100000 -179968 -100000 -100000 -100000 -100000
5/19/2021 5:45:00 AM -100000 -179968 -100000 -100000 -100000 -100000
5/19/2021 6:00:00 AM -100000 -179968 -100000 -100000 -100000 -100000
5/19/2021 6:15:00 AM -100000 -179968 -100000 -100000 -100000 -100000
5/19/2021 6:30:00 AM -100000 -179968 -100000 -100000 -100000 -100000
5/19/2021 6:45:00 AM -100000 -179968 -100000 -100000 -100000 -100000
5/19/2021 7:00:00 AM -100000 -179968 -100000 -100000 -100000 -100000
5/19/2021 7:15:00 AM -100000 -179968 -100000 -100000 -100000 -100000
5/19/2021 7:30:00 AM -100000 -179968 -100000 -100000 -100000 -100000
5/19/2021 7:45:00 AM -100000 -179968 -100000 -100000 -100000 -100000
5/19/2021 8:00:00 AM -100000 -179968 -100000 -100000 -100000 -100000
5/19/2021 8:15:00 AM -100000 -179968 -100000 -100000 -100000 -100000
5/19/2021 8:30:00 AM -100000 -179968 -100000 -100000 -100000 -100000
5/19/2021 8:45:00 AM -100000 -179968 -100000 -100000 -100000 -100000
5/19/2021 9:00:00 AM -100000 -179968 -100000 -100000 -100000 -100000
5/19/2021 9:15:00 AM -100000 -179968 -100000 -100000 -100000 -100000
5/19/2021 9:30:00 AM -100000 -179968 -100000 -100000 -100000 -100000
5/19/2021 9:45:00 AM -100000 -179968 -100000 -100000 -100000 -100000
5/19/2021 10:00:00 AM -100000 -179968 -100000 -100000 -100000 -100000
5/19/2021 10:15:00 AM -100000 -179968 -100000 -100000 -100000 -100000
5/19/2021 10:30:00 AM -100000 -179968 -100000 -100000 -100000 -100000
5/19/2021 10:45:00 AM -100000 -179968 -100000 -100000 -100000 -100000
5/19/2021 11:00:00 AM -100000 -179968 -100000 -100000 -100000 -100000
5/19/2021 11:15:00 AM -100000 -179968 -100000 -100000 -100000 -100000
5/19/2021 11:30:00 AM -100000 -179968 -100000 -100000 -100000 -100000
5/19/2021 11:45:00 AM -100000 -179968 -100000 -100000 -100000 -100000
5/19/2021 12:00:00 PM -100000 -179968 -100000 -100000 -100000 -100000
5/19/2021 12:15:00 PM 18.97 66.146 7.86 9.72 108.2 -100002
5/19/2021 12:30:00 PM 19.25 66.65 7.9 9.85 110.2 -100002
5/19/2021 12:45:00 PM 19.49 67.082 7.96 10 112.4 -100002
5/19/2021 1:00:00 PM 19.76 67.568 8.05 10.14 114.6 -100002
5/19/2021 1:15:00 PM 20.02 68.036 8.1 10.28 116.8 -100002
5/19/2021 1:30:00 PM 20.27 68.486 8.19 10.39 118.6 -100002
5/19/2021 1:45:00 PM 20.51 68.918 8.27 10.53 120.7 -100002
5/19/2021 2:00:00 PM 20.76 69.368 8.33 10.63 122.6 -100002
5/19/2021 2:15:00 PM 20.97 69.746 8.39 10.67 123.5 -100002
5/19/2021 2:30:00 PM 21.19 70.142 8.45 10.74 124.9 -100002
5/19/2021 2:45:00 PM 21.39 70.502 8.47 10.79 125.9 -100002
5/19/2021 3:00:00 PM 21.56 70.808 8.54 10.83 126.8 -100002
5/19/2021 3:15:00 PM 21.7 71.06 8.58 10.95 128.5 -100002
5/19/2021 3:30:00 PM 21.88 71.384 8.58 10.91 128.6 -100002
5/19/2021 3:45:00 PM 21.98 71.564 8.63 10.98 129.7 -100002
5/19/2021 4:00:00 PM 22.08 71.744 8.65 11.04 130.5 -100002
5/19/2021 4:15:00 PM 22.09 71.762 8.7 11.08 131.1 -100002
5/19/2021 4:30:00 PM 22.1 71.78 8.7 11.1 131.4 -100002
5/19/2021 4:45:00 PM 22.08 71.744 8.72 11.14 131.8 -100002
5/19/2021 5:00:00 PM 22.08 71.744 8.74 11.13 131.6 -100002
5/19/2021 5:15:00 PM 22.08 71.744 8.72 11.1 131.3 -100002
5/19/2021 5:30:00 PM 22 71.6 8.74 11.09 131 -100002
5/19/2021 5:45:00 PM 21.89 71.402 8.75 11.04 130.1 -100002
5/19/2021 6:00:00 PM 21.8 71.24 8.74 11.01 129.6 -100002
5/19/2021 6:15:00 PM 21.73 71.114 8.72 10.95 128.7 -100002
5/19/2021 6:30:00 PM 21.67 71.006 8.72 10.96 128.6 -100002
5/19/2021 6:45:00 PM 21.6 70.88 8.72 10.93 128 -100002
5/19/2021 7:00:00 PM 21.52 70.736 8.7 10.87 127.2 -100002
5/19/2021 7:15:00 PM 21.45 70.61 8.67 10.73 125.3 -100002
5/19/2021 7:30:00 PM 21.37 70.466 8.65 10.68 124.6 -100002
5/19/2021 7:45:00 PM 21.3 70.34 8.64 10.6 123.5 -100002
5/19/2021 8:00:00 PM 21.23 70.214 8.61 10.53 122.5 -100002
5/19/2021 8:15:00 PM 21.16 70.088 8.56 10.43 121.1 -100002
5/19/2021 8:30:00 PM 21.1 69.98 8.51 10.32 119.7 -100002
5/19/2021 8:45:00 PM 21.04 69.872 8.49 10.24 118.7 -100002
5/19/2021 9:00:00 PM 20.98 69.764 8.44 10.16 117.6 -100002
5/19/2021 9:15:00 PM 20.94 69.692 8.41 10.08 116.6 -100002
5/19/2021 9:30:00 PM 20.88 69.584 8.37 9.99 115.4 -100002
5/19/2021 9:45:00 PM 20.82 69.476 8.31 9.87 113.9 -100002
5/19/2021 10:00:00 PM 20.78 69.404 8.26 9.77 112.6 -100002
5/19/2021 10:15:00 PM 20.73 69.314 8.23 9.7 111.7 -100002
5/19/2021 10:30:00 PM 20.7 69.26 8.2 9.61 110.6 -100002
5/19/2021 10:45:00 PM 20.65 69.17 8.15 9.54 109.7 -100002
5/19/2021 11:00:00 PM 20.61 69.098 8.06 9.41 108.1 -100002
5/19/2021 11:15:00 PM 20.57 69.026 8.03 9.31 106.9 -100002
5/19/2021 11:30:00 PM 20.55 68.99 7.99 9.25 106.2 -100002
5/19/2021 11:45:00 PM 20.51 68.918 7.94 9.14 104.9 -100002
5/20/2021 12:00:00 AM 20.47 68.846 7.89 9.06 103.9 -100002
5/20/2021 12:15:00 AM 20.44 68.792 7.86 8.97 102.8 -100002
5/20/2021 12:30:00 AM 20.39 68.702 7.82 8.87 101.6 -100002
5/20/2021 12:45:00 AM 20.35 68.63 7.8 8.8 100.6 -100002
5/20/2021 1:00:00 AM 20.32 68.576 7.78 8.74 99.9 -100002
5/20/2021 1:15:00 AM 20.26 68.468 7.74 8.65 98.8 -100002
5/20/2021 1:30:00 AM 20.23 68.414 7.72 8.6 98.2 -100002
5/20/2021 1:45:00 AM 20.18 68.324 7.7 8.54 97.3 -100002
5/20/2021 2:00:00 AM 20.14 68.252 7.68 8.49 96.7 -100002
5/20/2021 2:15:00 AM 20.08 68.144 7.66 8.42 95.8 -100002
5/20/2021 2:30:00 AM 20.04 68.07201 7.64 8.36 95 -100002
5/20/2021 2:45:00 AM 20 68 7.63 8.32 94.5 -100002
5/20/2021 3:00:00 AM 19.92 67.856 7.61 8.24 93.4 -100002
5/20/2021 3:15:00 AM 19.87 67.766 7.61 8.21 92.9 -100002
5/20/2021 3:30:00 AM 19.81 67.658 7.59 8.16 92.4 -100002
5/20/2021 3:45:00 AM 19.75 67.55 7.56 8.1 91.5 -100002
5/20/2021 4:00:00 AM 19.68 67.424 7.56 8.05 90.8 -100002
5/20/2021 4:15:00 AM 19.63 67.334 7.55 8 90.2 -100002
5/20/2021 4:30:00 AM 19.57 67.226 7.53 7.98 89.8 -100002
5/20/2021 4:45:00 AM 19.5 67.1 7.52 7.93 89.2 -100002
5/20/2021 5:00:00 AM 19.43 66.974 7.5 7.89 88.6 -100002
5/20/2021 5:15:00 AM 19.37 66.866 7.48 7.83 87.8 -100002
5/20/2021 5:30:00 AM 19.29 66.722 7.47 7.8 87.3 -100002
5/20/2021 5:45:00 AM 19.24 66.632 7.46 7.76 86.8 -100002
5/20/2021 6:00:00 AM 19.19 66.542 7.46 7.74 86.5 -100002
5/20/2021 6:15:00 AM 19.13 66.434 7.45 7.71 86.1 -100002
5/20/2021 6:30:00 AM 19.08 66.344 7.43 7.68 85.6 -100002
5/20/2021 6:45:00 AM 19.02 66.236 7.43 7.65 85.2 -100002
5/20/2021 7:00:00 AM 18.98 66.164 7.43 7.63 84.9 -100002
5/20/2021 7:15:00 AM 18.95 66.11 7.42 7.62 84.7 -100002
5/20/2021 7:30:00 AM 18.92 66.056 7.4 7.6 84.5 -100002
5/20/2021 7:45:00 AM 18.89 66.002 7.41 7.59 84.3 -100002
5/20/2021 8:00:00 AM 18.88 65.984 7.4 7.59 84.3 -100002
5/20/2021 8:15:00 AM 18.86 65.948 7.4 7.6 84.4 -100002
5/20/2021 8:30:00 AM 18.86 65.948 7.4 7.63 84.7 -100002
5/20/2021 8:45:00 AM 18.86 65.948 7.41 7.65 84.9 -100002
5/20/2021 9:00:00 AM 18.87 65.966 7.4 7.68 85.3 -100002
5/20/2021 9:15:00 AM 18.9 66.02 7.41 7.76 86.2 -100002
5/20/2021 9:30:00 AM 18.95 66.11 7.43 7.88 87.6 -100002
5/20/2021 9:45:00 AM 19 66.2 7.45 7.98 88.9 -100002
5/20/2021 10:00:00 AM 19.09 66.362 7.46 8.11 90.4 -100002
5/20/2021 10:15:00 AM 19.16 66.488 7.48 8.23 92 -100002
5/20/2021 10:30:00 AM 19.23 66.614 7.51 8.37 93.6 -100002
5/20/2021 10:45:00 AM 19.32 66.776 7.54 8.51 95.3 -100002
5/20/2021 11:00:00 AM 19.38 66.884 7.57 8.63 96.7 -100002
5/20/2021 11:15:00 AM 19.48 67.064 7.61 8.79 98.8 -100002
5/20/2021 11:30:00 AM 19.59 67.262 7.64 8.94 100.6 -100002
5/20/2021 11:45:00 AM 19.73 67.514 7.68 9.06 102.3 -100002
5/20/2021 12:00:00 PM 19.95 67.91 7.75 9.28 105.3 -100002
5/20/2021 12:15:00 PM 20.19 68.342 7.82 9.5 108.3 -100002
5/20/2021 12:30:00 PM 20.46 68.828 7.93 9.75 111.7 -100002
5/20/2021 12:45:00 PM 20.73 69.314 7.97 9.87 113.7 -100002
5/20/2021 1:00:00 PM 20.98 69.764 8.06 10.05 116.4 -100002
5/20/2021 1:15:00 PM 21.24 70.232 8.16 10.27 119.5 -100002
5/20/2021 1:30:00 PM 21.48 70.664 8.23 10.4 121.6 -100002
5/20/2021 1:45:00 PM 21.71 71.078 8.29 10.5 123.3 -100002
5/20/2021 2:00:00 PM 21.93 71.474 8.38 10.64 125.5 -100002
5/20/2021 2:15:00 PM 22.15 71.87 8.41 10.67 126.4 -100002
5/20/2021 2:30:00 PM 22.35 72.23 8.46 10.71 127.3 -100002
5/20/2021 2:45:00 PM 22.52 72.536 8.53 10.79 128.7 -100002
5/20/2021 3:00:00 PM 22.67 72.806 8.55 10.8 129.2 -100002
5/20/2021 3:15:00 PM 22.84 73.112 8.58 10.86 130.4 -100002
5/20/2021 3:30:00 PM 23 73.4 8.63 10.93 131.6 -100002
5/20/2021 3:45:00 PM 23.08 73.544 8.67 10.95 132.1 -100002
5/20/2021 4:00:00 PM 23.17 73.706 8.71 11.03 133.3 -100002
5/20/2021 4:15:00 PM 23.24 73.832 8.73 11.08 134 -100002
5/20/2021 4:30:00 PM 23.3 73.94 8.72 11.08 134.1 -100002
5/20/2021 4:45:00 PM 23.33 73.994 8.74 11.06 133.9 -100002
5/20/2021 5:00:00 PM 23.32 73.976 8.77 11.1 134.4 -100002
5/20/2021 5:15:00 PM 23.24 73.832 8.78 11.11 134.3 -100002
5/20/2021 5:30:00 PM 23.21 73.778 8.78 11.12 134.4 -100002
5/20/2021 5:45:00 PM 23.16 73.688 8.75 11.01 133 -100002
5/20/2021 6:00:00 PM 23.05 73.49 8.78 11.04 133 -100002
5/20/2021 6:15:00 PM 22.92 73.256 8.77 10.99 132.1 -100002
5/20/2021 6:30:00 PM 22.8 73.04 8.74 10.93 131.1 -100002
5/20/2021 6:45:00 PM 22.68 72.824 8.73 10.83 129.5 -100002
5/20/2021 7:00:00 PM 22.59 72.662 8.7 10.74 128.3 -100002
5/20/2021 7:15:00 PM 22.49 72.482 8.67 10.58 126.1 -100002
5/20/2021 7:30:00 PM 22.39 72.302 8.64 10.53 125.3 -100002
5/20/2021 7:45:00 PM 22.29 72.122 8.61 10.43 123.9 -100002
5/20/2021 8:00:00 PM 22.19 71.942 8.57 10.34 122.5 -100002
5/20/2021 8:15:00 PM 22.1 71.78 8.54 10.26 121.4 -100002
5/20/2021 8:30:00 PM 22 71.6 8.49 10.12 119.5 -100002
5/20/2021 8:45:00 PM 21.93 71.474 8.43 10 117.9 -100002
5/20/2021 9:00:00 PM 21.84 71.312 8.38 9.86 116.1 -100002
5/20/2021 9:15:00 PM 21.79 71.222 8.33 9.75 114.7 -100002
5/20/2021 9:30:00 PM 21.7 71.06 8.28 9.61 112.9 -100002
5/20/2021 9:45:00 PM 21.62 70.916 8.22 9.54 111.9 -100002
5/20/2021 10:00:00 PM 21.56 70.808 8.17 9.42 110.3 -100002
5/20/2021 10:15:00 PM 21.49 70.682 8.11 9.3 108.8 -100002
5/20/2021 10:30:00 PM 21.41 70.538 8.04 9.18 107.2 -100002
5/20/2021 10:45:00 PM 21.36 70.448 7.99 9.08 106 -100002
5/20/2021 11:00:00 PM 21.3 70.34 7.94 8.97 104.5 -100002
5/20/2021 11:15:00 PM 21.23 70.214 7.88 8.89 103.4 -100002
5/20/2021 11:30:00 PM 21.19 70.142 7.85 8.78 102.1 -100002
5/20/2021 11:45:00 PM 21.11 69.998 7.8 8.68 100.8 -100002
5/21/2021 12:00:00 AM 21.07 69.926 7.76 8.61 99.9 -100002
5/21/2021 12:15:00 AM 21.01 69.818 7.73 8.5 98.4 -100002
5/21/2021 12:30:00 AM 20.98 69.764 7.7 8.46 97.9 -100002
5/21/2021 12:45:00 AM 20.92 69.656 7.67 8.37 96.9 -100002
5/21/2021 1:00:00 AM 20.85 69.53 7.64 8.29 95.7 -100002
5/21/2021 1:15:00 AM 20.84 69.512 7.62 8.27 95.5 -100002
5/21/2021 1:30:00 AM 20.78 69.404 7.61 8.19 94.5 -100002
5/21/2021 1:45:00 AM 20.72 69.296 7.58 8.13 93.6 -100002
5/21/2021 2:00:00 AM 20.66 69.188 7.56 8.05 92.6 -100002
5/21/2021 2:15:00 AM 20.61 69.098 7.54 8.02 92.1 -100002
5/21/2021 2:30:00 AM 20.55 68.99 7.53 7.97 91.5 -100002
5/21/2021 2:45:00 AM 20.49 68.882 7.51 7.92 90.8 -100002
5/21/2021 3:00:00 AM 20.42 68.756 7.49 7.86 90 -100002
5/21/2021 3:15:00 AM 20.34 68.612 7.49 7.82 89.5 -100002
5/21/2021 3:30:00 AM 20.28 68.504 7.48 7.77 88.7 -100002
5/21/2021 3:45:00 AM 20.2 68.36 7.47 7.73 88.1 -100002
5/21/2021 4:00:00 AM 20.14 68.252 7.45 7.66 87.2 -100002
5/21/2021 4:15:00 AM 20.07 68.126 7.44 7.62 86.6 -100002
5/21/2021 4:30:00 AM 19.99 67.982 7.44 7.57 86 -100002
5/21/2021 4:45:00 AM 19.91 67.838 7.43 7.55 85.6 -100002
5/21/2021 5:00:00 AM 19.84 67.712 7.42 7.49 84.8 -100002
5/21/2021 5:15:00 AM 19.75 67.55 7.4 7.45 84.2 -100002
5/21/2021 5:30:00 AM 19.67 67.406 7.39 7.39 83.4 -100002
5/21/2021 5:45:00 AM 19.59 67.262 7.38 7.34 82.7 -100002
5/21/2021 6:00:00 AM 19.53 67.154 7.37 7.32 82.4 -100002
5/21/2021 6:15:00 AM 19.45 67.01 7.37 7.32 82.2 -100002
5/21/2021 6:30:00 AM 19.38 66.884 7.36 7.27 81.6 -100002
5/21/2021 6:45:00 AM 19.3 66.74 7.35 7.25 81.3 -100002
5/21/2021 7:00:00 AM 19.26 66.668 7.34 7.22 80.8 -100002
5/21/2021 7:15:00 AM 19.23 66.614 7.35 7.2 80.5 -100002
5/21/2021 7:30:00 AM 19.17 66.506 7.34 7.2 80.4 -100002
5/21/2021 7:45:00 AM 19.15 66.47 7.33 7.21 80.5 -100002
5/21/2021 8:00:00 AM 19.09 66.362 7.33 7.18 80.1 -100002
5/21/2021 8:15:00 AM 19.05 66.29 7.33 7.21 80.4 -100002
5/21/2021 8:30:00 AM 19.03 66.254 7.34 7.25 80.8 -100002
5/21/2021 8:45:00 AM 19.02 66.236 7.34 7.29 81.1 -100002
5/21/2021 9:00:00 AM 19.01 66.218 7.35 7.32 81.5 -100002
5/21/2021 9:15:00 AM 19.01 66.218 7.36 7.4 82.4 -100002
5/21/2021 9:30:00 AM 19.01 66.218 7.36 7.47 83.2 -100002
5/21/2021 9:45:00 AM 19.04 66.272 7.38 7.59 84.6 -100002
5/21/2021 10:00:00 AM 19.1 66.38 7.4 7.74 86.3 -100002
5/21/2021 10:15:00 AM 19.15 66.47 7.41 7.86 87.7 -100002
5/21/2021 10:30:00 AM 19.24 66.632 7.43 7.97 89.1 -100002
5/21/2021 10:45:00 AM 19.35 66.83 7.46 8.13 91.1 -100002
5/21/2021 11:00:00 AM 19.49 67.082 7.48 8.27 93 -100002
5/21/2021 11:15:00 AM 19.67 67.406 7.54 8.48 95.7 -100002
5/21/2021 11:30:00 AM 19.81 67.658 7.58 8.68 98.2 -100002
5/21/2021 11:45:00 AM 20.04 68.07201 7.62 8.86 100.7 -100002
5/21/2021 12:00:00 PM 20.24 68.432 7.68 9.02 103 -100002
5/21/2021 12:15:00 PM 20.52 68.936 7.74 9.25 106.2 -100002
5/21/2021 12:30:00 PM 20.79 69.422 7.8 9.44 108.9 -100002
5/21/2021 12:45:00 PM 21.07 69.926 7.87 9.59 111.3 -100002
5/21/2021 1:00:00 PM 21.34 70.412 7.93 9.75 113.7 -100002
5/21/2021 1:15:00 PM 21.62 70.916 8.02 9.97 116.9 -100002
5/21/2021 1:30:00 PM 21.84 71.312 8.12 10.18 119.8 -100002
5/21/2021 1:45:00 PM 22.09 71.762 8.19 10.3 121.8 -100002
5/21/2021 2:00:00 PM 22.34 72.212 8.27 10.41 123.7 -100002
5/21/2021 2:15:00 PM 22.57 72.626 8.31 10.49 125.3 -100002
5/21/2021 2:30:00 PM 22.77 72.986 8.39 10.66 127.7 -100002
5/21/2021 2:45:00 PM 23 73.4 8.42 10.67 128.4 -100002
5/21/2021 3:00:00 PM 23.16 73.688 8.5 10.74 129.7 -100002
5/21/2021 3:15:00 PM 23.33 73.994 8.52 10.76 130.3 -100002
5/21/2021 3:30:00 PM 23.49 74.282 8.57 10.83 131.6 -100002
5/21/2021 3:45:00 PM 23.6 74.48 8.6 10.82 131.7 -100002
5/21/2021 4:00:00 PM 23.66 74.588 8.63 10.85 132.3 -100002
5/21/2021 4:15:00 PM 23.77 74.786 8.64 10.85 132.5 -100002
5/21/2021 4:30:00 PM 23.76 74.768 8.68 10.89 133.1 -100002
5/21/2021 4:45:00 PM 23.85 74.93 8.67 10.85 132.7 -100002
5/21/2021 5:00:00 PM 23.84 74.912 8.68 10.85 132.7 -100002
5/21/2021 5:15:00 PM 23.77 74.786 8.7 10.81 132.1 -100002
5/21/2021 5:30:00 PM 23.71 74.67799 8.7 10.84 132.2 -100002
5/21/2021 5:45:00 PM 23.68 74.624 8.71 10.79 131.6 -100002
5/21/2021 6:00:00 PM 23.6 74.48 8.69 10.76 131 -100002
5/21/2021 6:15:00 PM 23.56 74.408 8.68 10.7 130.1 -100002
5/21/2021 6:30:00 PM 23.43 74.174 8.68 10.66 129.4 -100002
5/21/2021 6:45:00 PM 23.3 73.94 8.66 10.57 128 -100002
5/21/2021 7:00:00 PM 23.21 73.778 8.64 10.49 126.8 -100002
5/21/2021 7:15:00 PM 23.09 73.562 8.59 10.32 124.4 -100002
5/21/2021 7:30:00 PM 23 73.4 8.56 10.25 123.4 -100002
5/21/2021 7:45:00 PM 22.89 73.202 8.52 10.15 122 -100002
5/21/2021 8:00:00 PM 22.81 73.058 8.47 9.99 119.8 -100002
5/21/2021 8:15:00 PM 22.71 72.878 8.42 9.9 118.6 -100002
5/21/2021 8:30:00 PM 22.61 72.698 8.36 9.77 116.8 -100002
5/21/2021 8:45:00 PM 22.54 72.57201 8.31 9.66 115.3 -100002
5/21/2021 9:00:00 PM 22.45 72.41 8.24 9.53 113.5 -100002
5/21/2021 9:15:00 PM 22.38 72.284 8.18 9.41 111.9 -100002
5/21/2021 9:30:00 PM 22.32 72.176 8.12 9.31 110.6 -100002
5/21/2021 9:45:00 PM 22.25 72.05 8.05 9.19 109.1 -100002
5/21/2021 10:00:00 PM 22.19 71.942 7.99 9.04 107.2 -100002
5/21/2021 10:15:00 PM 22.11 71.798 7.93 8.95 106 -100002
5/21/2021 10:30:00 PM 22.06 71.708 7.87 8.83 104.4 -100002
5/21/2021 10:45:00 PM 22 71.6 7.81 8.7 102.8 -100002
5/21/2021 11:00:00 PM 21.95 71.51 7.76 8.61 101.6 -100002
5/21/2021 11:15:00 PM 21.89 71.402 7.72 8.49 100 -100002
5/21/2021 11:30:00 PM 21.84 71.312 7.68 8.4 98.9 -100002
5/21/2021 11:45:00 PM 21.8 71.24 7.64 8.29 97.6 -100002
5/22/2021 12:00:00 AM 21.76 71.168 7.61 8.21 96.5 -100002
5/22/2021 12:15:00 AM 21.7 71.06 7.56 8.09 95 -100002
5/22/2021 12:30:00 AM 21.65 70.97 7.53 7.99 93.8 -100002
5/22/2021 12:45:00 AM 21.63 70.934 7.51 7.88 92.5 -100002
5/22/2021 1:00:00 AM 21.59 70.862 7.49 7.86 92.1 -100002
5/22/2021 1:15:00 AM 21.54 70.772 7.47 7.78 91.1 -100002
5/22/2021 1:30:00 AM 21.52 70.736 7.44 7.71 90.3 -100002
5/22/2021 1:45:00 AM 21.45 70.61 7.43 7.64 89.3 -100002
5/22/2021 2:00:00 AM 21.41 70.538 7.4 7.57 88.4 -100002
5/22/2021 2:15:00 AM 21.37 70.466 7.4 7.53 87.9 -100002
5/22/2021 2:30:00 AM 21.32 70.376 7.38 7.49 87.3 -100002
5/22/2021 2:45:00 AM 21.28 70.304 7.37 7.44 86.7 -100002
5/22/2021 3:00:00 AM 21.27 70.286 7.36 7.4 86.2 -100002
5/22/2021 3:15:00 AM 21.2 70.16 7.35 7.31 85 -100002
5/22/2021 3:30:00 AM 21.16 70.088 7.34 7.3 84.8 -100002
5/22/2021 3:45:00 AM 21.12 70.016 7.34 7.24 84 -100002
5/22/2021 4:00:00 AM 21.06 69.908 7.33 7.2 83.5 -100002
5/22/2021 4:15:00 AM 20.99 69.782 7.32 7.14 82.7 -100002
5/22/2021 4:30:00 AM 20.96 69.728 7.31 7.11 82.3 -100002
5/22/2021 4:45:00 AM 20.9 69.62 7.31 7.07 81.8 -100002
5/22/2021 5:00:00 AM 20.85 69.53 7.29 7.03 81.2 -100002
5/22/2021 5:15:00 AM 20.79 69.422 7.29 6.99 80.6 -100002
5/22/2021 5:30:00 AM 20.72 69.296 7.29 6.95 80.1 -100002
5/22/2021 5:45:00 AM 20.67 69.206 7.27 6.88 79.2 -100002
5/22/2021 6:00:00 AM 20.62 69.116 7.27 6.88 79.1 -100002
5/22/2021 6:15:00 AM 20.56 69.008 7.27 6.86 78.7 -100002
5/22/2021 6:30:00 AM 20.5 68.9 7.25 6.8 78 -100002
5/22/2021 6:45:00 AM 20.45 68.81 7.26 6.82 78.2 -100002
5/22/2021 7:00:00 AM 20.41 68.738 7.25 6.8 77.8 -100002
5/22/2021 7:15:00 AM 20.38 68.684 7.24 6.77 77.4 -100002
5/22/2021 7:30:00 AM 20.35 68.63 7.24 6.77 77.5 -100002
5/22/2021 7:45:00 AM 20.37 68.666 7.25 6.81 78 -100002
5/22/2021 8:00:00 AM 20.36 68.648 7.25 6.81 77.9 -100002
5/22/2021 8:15:00 AM 20.37 68.666 7.25 6.85 78.4 -100002
5/22/2021 8:30:00 AM 20.37 68.666 7.25 6.88 78.7 -100002
5/22/2021 8:45:00 AM 20.38 68.684 7.26 6.94 79.4 -100002
5/22/2021 9:00:00 AM 20.42 68.756 7.27 7.03 80.5 -100002
5/22/2021 9:15:00 AM 20.45 68.81 7.28 7.12 81.6 -100002
5/22/2021 9:30:00 AM 20.47 68.846 7.3 7.23 82.8 -100002
5/22/2021 9:45:00 AM 20.52 68.936 7.31 7.34 84.3 -100002
5/22/2021 10:00:00 AM 20.57 69.026 7.34 7.48 85.9 -100002
5/22/2021 10:15:00 AM 20.64 69.152 7.35 7.64 87.8 -100002
5/22/2021 10:30:00 AM 20.74 69.332 7.38 7.82 90.1 -100002
5/22/2021 10:45:00 AM 20.82 69.476 7.42 7.99 92.3 -100002
5/22/2021 11:00:00 AM 20.93 69.674 7.46 8.17 94.5 -100002
5/22/2021 11:15:00 AM 21.06 69.908 7.49 8.4 97.4 -100002
5/22/2021 11:30:00 AM 21.17 70.106 7.54 8.61 100 -100002
5/22/2021 11:45:00 AM 21.3 70.34 7.59 8.78 102.3 -100002
5/22/2021 12:00:00 PM 21.45 70.61 7.65 8.98 104.9 -100002
5/22/2021 12:15:00 PM 21.6 70.88 7.69 9.13 107.1 -100002
5/22/2021 12:30:00 PM 21.84 71.312 7.77 9.36 110.2 -100002
5/22/2021 12:45:00 PM 22.05 71.69 7.88 9.64 114 -100002
5/22/2021 1:00:00 PM 22.13 71.834 7.92 9.68 114.6 -100002
5/22/2021 1:15:00 PM 22.21 71.978 8 9.81 116.3 -100002
5/22/2021 1:30:00 PM 22.33 72.194 8.02 9.89 117.5 -100002
5/22/2021 1:45:00 PM 22.45 72.41 8.12 10.08 120.1 -100002
5/22/2021 2:00:00 PM 22.58 72.644 8.17 10.18 121.6 -100002
5/22/2021 2:15:00 PM 22.76 72.968 8.21 10.21 122.4 -100002
5/22/2021 2:30:00 PM 22.96 73.328 8.27 10.34 124.4 -100002
5/22/2021 2:45:00 PM 23.05 73.49 8.33 10.41 125.4 -100002
5/22/2021 3:00:00 PM 23.09 73.562 8.36 10.43 125.8 -100002
5/22/2021 3:15:00 PM 23.18 73.724 8.39 10.44 126.2 -100002
5/22/2021 3:30:00 PM 23.25 73.85 8.41 10.4 125.9 -100002
5/22/2021 3:45:00 PM 23.25 73.85 8.43 10.43 126.2 -100002
5/22/2021 4:00:00 PM 23.27 73.886 8.46 10.45 126.5 -100002
5/22/2021 4:15:00 PM 23.3 73.94 8.48 10.46 126.6 -100002
5/22/2021 4:30:00 PM 23.29 73.922 8.49 10.42 126.2 -100002
5/22/2021 4:45:00 PM 23.28 73.904 8.52 10.47 126.8 -100002
5/22/2021 5:00:00 PM 23.27 73.886 8.5 10.4 125.8 -100002
5/22/2021 5:15:00 PM 23.26 73.868 8.5 10.33 124.9 -100002
5/22/2021 5:30:00 PM 23.25 73.85 8.5 10.31 124.7 -100002
5/22/2021 5:45:00 PM 23.27 73.886 8.51 10.32 124.9 -100002
5/22/2021 6:00:00 PM 23.26 73.868 8.49 10.27 124.2 -100002
5/22/2021 6:15:00 PM 23.24 73.832 8.48 10.23 123.7 -100002
5/22/2021 6:30:00 PM 23.21 73.778 8.47 10.17 122.9 -100002
5/22/2021 6:45:00 PM 23.18 73.724 8.46 10.11 122.1 -100002
5/22/2021 7:00:00 PM 23.14 73.652 8.43 10 120.7 -100002
5/22/2021 7:15:00 PM 23.11 73.598 8.38 9.86 118.9 -100002
5/22/2021 7:30:00 PM 23.06 73.508 8.36 9.78 117.8 -100002
5/22/2021 7:45:00 PM 23.01 73.418 8.31 9.68 116.6 -100002
5/22/2021 8:00:00 PM 22.95 73.31 8.26 9.57 115.1 -100002
5/22/2021 8:15:00 PM 22.89 73.202 8.22 9.43 113.3 -100002
5/22/2021 8:30:00 PM 22.84 73.112 8.17 9.34 112 -100002
5/22/2021 8:45:00 PM 22.79 73.022 8.09 9.17 110 -100002
5/22/2021 9:00:00 PM 22.73 72.914 8.03 9.07 108.6 -100002
5/22/2021 9:15:00 PM 22.67 72.806 7.96 8.94 107 -100002
5/22/2021 9:30:00 PM 22.61 72.698 7.9 8.8 105.2 -100002
5/22/2021 9:45:00 PM 22.55 72.59 7.83 8.69 103.7 -100002
5/22/2021 10:00:00 PM 22.51 72.518 7.78 8.55 102 -100002
5/22/2021 10:15:00 PM 22.46 72.42799 7.74 8.45 100.7 -100002
5/22/2021 10:30:00 PM 22.41 72.338 7.68 8.31 98.9 -100002
5/22/2021 10:45:00 PM 22.37 72.266 7.63 8.16 97.1 -100002
5/22/2021 11:00:00 PM 22.33 72.194 7.59 8.07 95.9 -100002
5/22/2021 11:15:00 PM 22.29 72.122 7.56 7.95 94.4 -100002
5/22/2021 11:30:00 PM 22.26 72.068 7.52 7.82 92.8 -100002
5/22/2021 11:45:00 PM 22.22 71.996 7.48 7.73 91.7 -100002
5/23/2021 12:00:00 AM 22.18 71.924 7.45 7.61 90.2 -100002
5/23/2021 12:15:00 AM 22.14 71.852 7.43 7.53 89.2 -100002
5/23/2021 12:30:00 AM 22.1 71.78 7.43 7.47 88.4 -100002
5/23/2021 12:45:00 AM 22.05 71.69 7.41 7.38 87.3 -100002
5/23/2021 1:00:00 AM 22.01 71.618 7.38 7.3 86.3 -100002
5/23/2021 1:15:00 AM 21.99 71.582 7.36 7.21 85.1 -100002
5/23/2021 1:30:00 AM 21.96 71.528 7.36 7.18 84.7 -100002
5/23/2021 1:45:00 AM 21.92 71.456 7.35 7.09 83.6 -100002
5/23/2021 2:00:00 AM 21.92 71.456 7.34 7.07 83.4 -100002
5/23/2021 2:15:00 AM 21.89 71.402 7.33 7.01 82.6 -100002
5/23/2021 2:30:00 AM 21.87 71.366 7.31 6.96 82 -100002
5/23/2021 2:45:00 AM 21.85 71.33 7.31 6.92 81.5 -100002
5/23/2021 3:00:00 AM 21.81 71.258 7.3 6.88 81 -100002
5/23/2021 3:15:00 AM 21.79 71.222 7.29 6.81 80.1 -100002
5/23/2021 3:30:00 AM 21.76 71.168 7.28 6.78 79.7 -100002
5/23/2021 3:45:00 AM 21.73 71.114 7.27 6.74 79.1 -100002
5/23/2021 4:00:00 AM 21.69 71.042 7.26 6.7 78.6 -100002
5/23/2021 4:15:00 AM 21.66 70.988 7.26 6.64 77.9 -100002
5/23/2021 4:30:00 AM 21.63 70.934 7.25 6.64 77.8 -100002
5/23/2021 4:45:00 AM 21.6 70.88 7.25 6.57 77 -100002
5/23/2021 5:00:00 AM 21.56 70.808 7.25 6.53 76.5 -100002
5/23/2021 5:15:00 AM 21.53 70.754 7.24 6.49 75.9 -100002
5/23/2021 5:30:00 AM 21.51 70.718 7.24 6.48 75.9 -100002
5/23/2021 5:45:00 AM 21.46 70.628 7.23 6.45 75.3 -100002
5/23/2021 6:00:00 AM 21.42 70.556 7.22 6.37 74.4 -100002
5/23/2021 6:15:00 AM 21.38 70.484 7.22 6.37 74.3 -100002
5/23/2021 6:30:00 AM 21.34 70.412 7.22 6.32 73.7 -100002
5/23/2021 6:45:00 AM 21.31 70.358 7.21 6.29 73.3 -100002
5/23/2021 7:00:00 AM 21.28 70.304 7.21 6.28 73.2 -100002
5/23/2021 7:15:00 AM 21.26 70.268 7.21 6.26 72.9 -100002
5/23/2021 7:30:00 AM 21.25 70.25 7.21 6.25 72.7 -100002
5/23/2021 7:45:00 AM 21.23 70.214 7.21 6.25 72.7 -100002
5/23/2021 8:00:00 AM 21.22 70.196 7.2 6.23 72.5 -100002
5/23/2021 8:15:00 AM 21.21 70.17799 7.2 6.23 72.5 -100002
5/23/2021 8:30:00 AM 21.2 70.16 7.2 6.26 72.8 -100002
5/23/2021 8:45:00 AM 21.2 70.16 7.21 6.26 72.8 -100002
5/23/2021 9:00:00 AM 21.2 70.16 7.21 6.34 73.8 -100002
5/23/2021 9:15:00 AM 21.21 70.17799 7.22 6.36 74 -100002
5/23/2021 9:30:00 AM 21.23 70.214 7.23 6.47 75.3 -100002
5/23/2021 9:45:00 AM 21.29 70.32201 7.24 6.56 76.4 -100002
5/23/2021 10:00:00 AM 21.33 70.394 7.26 6.64 77.4 -100002
5/23/2021 10:15:00 AM 21.41 70.538 7.27 6.76 79 -100002
5/23/2021 10:30:00 AM 21.47 70.646 7.29 6.89 80.5 -100002
5/23/2021 10:45:00 AM 21.6 70.88 7.31 7.04 82.5 -100002
5/23/2021 11:00:00 AM 21.76 71.168 7.35 7.25 85.2 -100002
5/23/2021 11:15:00 AM 21.96 71.528 7.37 7.39 87.3 -100002
5/23/2021 11:30:00 AM 22.14 71.852 7.39 7.53 89.2 -100002
5/23/2021 11:45:00 AM 22.42 72.356 7.44 7.76 92.4 -100002
5/23/2021 12:00:00 PM 22.64 72.752 7.48 7.97 95.3 -100002
5/23/2021 12:15:00 PM 22.84 73.112 7.49 8.03 96.4 -100002
5/23/2021 12:30:00 PM 23.13 73.634 7.54 8.26 99.6 -100002
5/23/2021 12:45:00 PM 23.32 73.976 7.59 8.39 101.6 -100002
5/23/2021 1:00:00 PM 23.52 74.336 7.62 8.51 103.4 -100002
5/23/2021 1:15:00 PM 23.78 74.804 7.65 8.64 105.5 -100002
5/23/2021 1:30:00 PM 23.97 75.146 7.71 8.79 107.9 -100002
5/23/2021 1:45:00 PM 24.06 75.308 7.74 8.84 108.6 -100002
5/23/2021 2:00:00 PM 24.08 75.344 7.76 8.87 109 -100002
5/23/2021 2:15:00 PM 24.14 75.452 7.77 8.93 109.8 -100002
5/23/2021 2:30:00 PM 24.29 75.722 7.84 9.09 112.2 -100002
5/23/2021 2:45:00 PM 24.49 76.082 7.88 9.17 113.5 -100002
5/23/2021 3:00:00 PM 24.56 76.208 7.91 9.15 113.5 -100002
5/23/2021 3:15:00 PM 24.65 76.37 7.94 9.19 114.2 -100002
5/23/2021 3:30:00 PM 24.84 76.712 7.95 9.2 114.6 -100002
5/23/2021 3:45:00 PM 24.97 76.946 8 9.31 116.4 -100002
5/23/2021 4:00:00 PM 24.98 76.964 8.02 9.31 116.3 -100002
5/23/2021 4:15:00 PM 24.95 76.91 8.02 9.26 115.6 -100002
5/23/2021 4:30:00 PM 25.11 77.198 8.07 9.38 117.4 -100002
5/23/2021 4:45:00 PM 25.23 77.414 8.07 9.33 117.1 -100002
5/23/2021 5:00:00 PM 25.24 77.432 8.07 9.3 116.8 -100002
5/23/2021 5:15:00 PM 25.29 77.522 8.07 9.24 116.1 -100002
5/23/2021 5:30:00 PM 25.25 77.45 8.1 9.27 116.4 -100002
5/23/2021 5:45:00 PM 25.17 77.306 8.07 9.15 114.7 -100002
5/23/2021 6:00:00 PM 25.2 77.36 8.05 9.14 114.7 -100002
5/23/2021 6:15:00 PM 25.17 77.306 8.01 9.05 113.5 -100002
5/23/2021 6:30:00 PM 25.12 77.216 8 9.01 112.9 -100002
5/23/2021 6:45:00 PM 25.05 77.09 8 8.98 112.4 -100002
5/23/2021 7:00:00 PM 24.99 76.982 7.95 8.82 110.2 -100002
5/23/2021 7:15:00 PM 24.93 76.874 7.9 8.72 108.9 -100002
5/23/2021 7:30:00 PM 24.87 76.766 7.86 8.6 107.3 -100002
5/23/2021 7:45:00 PM 24.81 76.658 7.82 8.5 105.9 -100002
5/23/2021 8:00:00 PM 24.73 76.514 7.76 8.36 104 -100002
5/23/2021 8:15:00 PM 24.67 76.406 7.71 8.22 102.2 -100002
5/23/2021 8:30:00 PM 24.61 76.298 7.68 8.13 100.9 -100002
5/23/2021 8:45:00 PM 24.55 76.19 7.64 8 99.2 -100002
5/23/2021 9:00:00 PM 24.49 76.082 7.6 7.91 97.9 -100002
5/23/2021 9:15:00 PM 24.44 75.992 7.56 7.77 96.2 -100002
5/23/2021 9:30:00 PM 24.39 75.902 7.54 7.68 94.9 -100002
5/23/2021 9:45:00 PM 24.34 75.812 7.5 7.55 93.2 -100002
5/23/2021 10:00:00 PM 24.29 75.722 7.47 7.42 91.5 -100002
5/23/2021 10:15:00 PM 24.23 75.614 7.43 7.32 90.2 -100002
5/23/2021 10:30:00 PM 24.19 75.542 7.42 7.21 88.8 -100002
5/23/2021 10:45:00 PM 24.15 75.47 7.39 7.12 87.6 -100002
5/23/2021 11:00:00 PM 24.1 75.38 7.37 6.99 85.9 -100002
5/23/2021 11:15:00 PM 24.05 75.29 7.35 6.9 84.7 -100002
5/23/2021 11:30:00 PM 24.01 75.218 7.33 6.77 83.1 -100002
5/23/2021 11:45:00 PM 23.94 75.092 7.31 6.69 82 -100002
5/24/2021 12:00:00 AM 23.88 74.984 7.29 6.59 80.7 -100002
5/24/2021 12:15:00 AM 23.82 74.876 7.27 6.46 79 -100002
5/24/2021 12:30:00 AM 23.77 74.786 7.26 6.41 78.3 -100002
5/24/2021 12:45:00 AM 23.73 74.714 7.25 6.36 77.7 -100002
5/24/2021 1:00:00 AM 23.68 74.624 7.23 6.26 76.4 -100002
5/24/2021 1:15:00 AM 23.63 74.534 7.23 6.24 76.1 -100002
5/24/2021 1:30:00 AM 23.57 74.426 7.19 6.16 74.9 -100002
5/24/2021 1:45:00 AM 23.51 74.318 7.2 6.15 74.7 -100002
5/24/2021 2:00:00 AM 23.45 74.21 7.2 6.11 74.1 -100002
5/24/2021 2:15:00 AM 23.41 74.138 7.19 6.04 73.3 -100002
5/24/2021 2:30:00 AM 23.33 73.994 7.19 6.02 73 -100002
5/24/2021 2:45:00 AM 23.3 73.94 7.18 6.03 73 -100002
5/24/2021 3:00:00 AM 23.23 73.814 7.17 5.91 71.5 -100002
5/24/2021 3:15:00 AM 23.16 73.688 7.18 5.98 72.2 -100002
5/24/2021 3:30:00 AM 23.11 73.598 7.17 5.88 70.9 -100002
5/24/2021 3:45:00 AM 23.05 73.49 7.17 5.89 71 -100002
5/24/2021 4:00:00 AM 22.99 73.382 7.16 5.84 70.4 -100002
5/24/2021 4:15:00 AM 22.92 73.256 7.15 5.8 69.7 -100002
5/24/2021 4:30:00 AM 22.87 73.166 7.15 5.79 69.6 -100002
5/24/2021 4:45:00 AM 22.81 73.058 7.15 5.76 69.1 -100002
5/24/2021 5:00:00 AM 22.75 72.95 7.14 5.75 68.9 -100002
5/24/2021 5:15:00 AM 22.67 72.806 7.14 5.74 68.6 -100002
5/24/2021 5:30:00 AM 22.62 72.716 7.14 5.74 68.6 -100002
5/24/2021 5:45:00 AM 22.55 72.59 7.14 5.71 68.2 -100002
5/24/2021 6:00:00 AM 22.49 72.482 7.13 5.68 67.8 -100002
5/24/2021 6:15:00 AM 22.44 72.392 7.12 5.6 66.7 -100002
5/24/2021 6:30:00 AM 22.38 72.284 7.13 5.64 67 -100002
5/24/2021 6:45:00 AM 22.32 72.176 7.13 5.66 67.3 -100002
5/24/2021 7:00:00 AM 22.26 72.068 7.12 5.63 66.8 -100002
5/24/2021 7:15:00 AM 22.21 71.978 7.13 5.65 67 -100002
5/24/2021 7:30:00 AM 22.14 71.852 7.12 5.62 66.5 -100002
5/24/2021 7:45:00 AM 22.07 71.726 7.13 5.64 66.7 -100002
5/24/2021 8:00:00 AM 22.02 71.636 7.13 5.65 66.8 -100002
5/24/2021 8:15:00 AM 21.96 71.528 7.13 5.66 66.8 -100002
5/24/2021 8:30:00 AM 21.92 71.456 7.13 5.66 66.8 -100002
5/24/2021 8:45:00 AM 21.85 71.33 7.13 5.67 66.7 -100002
5/24/2021 9:00:00 AM 21.81 71.258 7.13 5.72 67.3 -100002
5/24/2021 9:15:00 AM 21.76 71.168 7.13 5.72 67.2 -100002
5/24/2021 9:30:00 AM 21.7 71.06 7.13 5.72 67.2 -100002
5/24/2021 9:45:00 AM 21.65 70.97 7.13 5.75 67.5 -100002
5/24/2021 10:00:00 AM 21.6 70.88 7.14 5.78 67.7 -100002
5/24/2021 10:15:00 AM 21.56 70.808 7.14 5.79 67.8 -100002
5/24/2021 10:30:00 AM 21.51 70.718 7.14 5.78 67.6 -100002
5/24/2021 10:45:00 AM 21.47 70.646 7.14 5.82 68 -100002
5/24/2021 11:00:00 AM 21.43 70.574 7.15 5.86 68.4 -100002
5/24/2021 11:15:00 AM 21.38 70.484 7.15 5.89 68.8 -100002
5/24/2021 11:30:00 AM 21.35 70.43 7.15 5.9 68.8 -100002
5/24/2021 11:45:00 AM 21.3 70.34 7.16 5.95 69.4 -100002
5/24/2021 12:00:00 PM 21.28 70.304 7.16 5.99 69.8 -100002
5/24/2021 12:15:00 PM 21.25 70.25 7.16 5.99 69.8 -100002
5/24/2021 12:30:00 PM 21.23 70.214 7.17 6.08 70.8 -100002
5/24/2021 12:45:00 PM 21.2 70.16 7.17 6.09 70.8 -100002
5/24/2021 1:00:00 PM 21.18 70.124 7.18 6.05 70.4 -100002
5/24/2021 1:15:00 PM 21.13 70.034 7.18 6.13 71.2 -100002
5/24/2021 1:30:00 PM 21.1 69.98 7.16 6.08 70.5 -100002
5/24/2021 1:45:00 PM 21.07 69.926 7.19 6.23 72.2 -100002
5/24/2021 2:00:00 PM 21.03 69.854 7.19 6.28 72.8 -100002
5/24/2021 2:15:00 PM 21 69.8 7.2 6.33 73.3 -100002
5/24/2021 2:30:00 PM 20.94 69.692 7.2 6.33 73.3 -100002
5/24/2021 2:45:00 PM 20.91 69.638 7.21 6.41 74.1 -100002
5/24/2021 3:00:00 PM 20.89 69.602 7.21 6.45 74.5 -100002
5/24/2021 3:15:00 PM 20.84 69.512 7.21 6.46 74.6 -100002
5/24/2021 3:30:00 PM 20.81 69.458 7.22 6.49 74.9 -100002
5/24/2021 3:45:00 PM 20.78 69.404 7.21 6.5 75 -100002
5/24/2021 4:00:00 PM 20.74 69.332 7.22 6.55 75.5 -100002
5/24/2021 4:15:00 PM 20.7 69.26 7.22 6.6 76 -100002
5/24/2021 4:30:00 PM 20.66 69.188 7.23 6.64 76.4 -100002
5/24/2021 4:45:00 PM 20.62 69.116 7.23 6.63 76.2 -100002
5/24/2021 5:00:00 PM 20.58 69.044 7.23 6.68 76.8 -100002
5/24/2021 5:15:00 PM 20.54 68.972 7.24 6.71 77 -100002
5/24/2021 5:30:00 PM 20.51 68.918 7.24 6.69 76.7 -100002
5/24/2021 5:45:00 PM 20.45 68.81 7.25 6.73 77.1 -100002
5/24/2021 6:00:00 PM 20.43 68.774 7.25 6.68 76.5 -100002
5/24/2021 6:15:00 PM 20.38 68.684 7.24 6.73 77 -100002
5/24/2021 6:30:00 PM 20.33 68.594 7.24 6.69 76.5 -100002
5/24/2021 6:45:00 PM 20.29 68.522 7.25 6.74 77 -100002
5/24/2021 7:00:00 PM 20.24 68.432 7.26 6.84 78.1 -100002
5/24/2021 7:15:00 PM 20.19 68.342 7.25 6.79 77.5 -100002
5/24/2021 7:30:00 PM 20.15 68.27 7.24 6.81 77.6 -100002
5/24/2021 7:45:00 PM 20.09 68.162 7.26 6.75 76.8 -100002
5/24/2021 8:00:00 PM 20.05 68.09 7.25 6.8 77.3 -100002
5/24/2021 8:15:00 PM 20 68 7.25 6.79 77.1 -100002
5/24/2021 8:30:00 PM 19.95 67.91 7.25 6.78 76.9 -100002
5/24/2021 8:45:00 PM 19.92 67.856 7.25 6.75 76.5 -100002
5/24/2021 9:00:00 PM 19.86 67.748 7.24 6.74 76.3 -100002
5/24/2021 9:15:00 PM 19.82 67.676 7.24 6.71 75.9 -100002
5/24/2021 9:30:00 PM 19.78 67.604 7.23 6.69 75.7 -100002
5/24/2021 9:45:00 PM 19.74 67.532 7.23 6.67 75.3 -100002
5/24/2021 10:00:00 PM 19.71 67.478 7.23 6.65 75 -100002
5/24/2021 10:15:00 PM 19.67 67.406 7.2 6.63 74.8 -100002
5/24/2021 10:30:00 PM 19.63 67.334 7.22 6.6 74.5 -100002
5/24/2021 10:45:00 PM 19.61 67.298 7.2 6.58 74.2 -100002
5/24/2021 11:00:00 PM 19.56 67.208 7.21 6.57 74 -100002
5/24/2021 11:15:00 PM 19.53 67.154 7.2 6.56 73.8 -100002
5/24/2021 11:30:00 PM 19.49 67.082 7.21 6.55 73.6 -100002
5/24/2021 11:45:00 PM 19.45 67.01 7.21 6.55 73.6 -100002
5/25/2021 12:00:00 AM 19.42 66.956 7.21 6.51 73.1 -100002
5/25/2021 12:15:00 AM 19.38 66.884 7.2 6.53 73.3 -100002
5/25/2021 12:30:00 AM 19.36 66.848 7.2 6.49 72.7 -100002
5/25/2021 12:45:00 AM 19.32 66.776 7.2 6.53 73.2 -100002
5/25/2021 1:00:00 AM 19.27 66.686 7.2 6.53 73.1 -100002
5/25/2021 1:15:00 AM 19.24 66.632 7.19 6.54 73.1 -100002
5/25/2021 1:30:00 AM 19.2 66.56 7.19 6.53 73 -100002
5/25/2021 1:45:00 AM 19.17 66.506 7.2 6.55 73.2 -100002
5/25/2021 2:00:00 AM 19.13 66.434 7.18 6.54 73 -100002
5/25/2021 2:15:00 AM 19.1 66.38 7.16 6.55 73.1 -100002
5/25/2021 2:30:00 AM 19.06 66.308 7.17 6.56 73.1 -100002
5/25/2021 2:45:00 AM 19.02 66.236 7.18 6.59 73.4 -100002
5/25/2021 3:00:00 AM 18.99 66.182 7.19 6.58 73.2 -100002
5/25/2021 3:15:00 AM 18.95 66.11 7.19 6.57 73 -100002
5/25/2021 3:30:00 AM 18.91 66.038 7.17 6.58 73.1 -100002
5/25/2021 3:45:00 AM 18.89 66.002 7.18 6.61 73.4 -100002
5/25/2021 4:00:00 AM 18.85 65.93 7.17 6.6 73.2 -100002
5/25/2021 4:15:00 AM 18.82 65.876 7.19 6.57 72.9 -100002
5/25/2021 4:30:00 AM 18.78 65.804 7.19 6.58 73 -100002
5/25/2021 4:45:00 AM 18.75 65.75 7.17 6.58 72.9 -100002
5/25/2021 5:00:00 AM 18.72 65.696 7.19 6.63 73.4 -100002
5/25/2021 5:15:00 AM 18.67 65.606 7.19 6.65 73.5 -100002
5/25/2021 5:30:00 AM 18.64 65.552 7.19 6.62 73.1 -100002
5/25/2021 5:45:00 AM 18.61 65.498 7.19 6.61 73 -100002
5/25/2021 6:00:00 AM 18.58 65.444 7.19 6.66 73.5 -100002
5/25/2021 6:15:00 AM 18.55 65.39 7.19 6.69 73.8 -100002
5/25/2021 6:30:00 AM 18.52 65.336 7.19 6.69 73.7 -100002
5/25/2021 6:45:00 AM 18.49 65.282 7.19 6.71 73.9 -100002
5/25/2021 7:00:00 AM 18.49 65.282 7.2 6.74 74.2 -100002
5/25/2021 7:15:00 AM 18.46 65.228 7.2 6.75 74.3 -100002
5/25/2021 7:30:00 AM 18.45 65.21 7.19 6.74 74.2 -100002
5/25/2021 7:45:00 AM 18.44 65.192 7.2 6.8 74.8 -100002
5/25/2021 8:00:00 AM 18.43 65.174 7.2 6.81 74.9 -100002
5/25/2021 8:15:00 AM 18.43 65.174 7.21 6.86 75.5 -100002
5/25/2021 8:30:00 AM 18.43 65.174 7.22 6.89 75.8 -100002
5/25/2021 8:45:00 AM 18.42 65.156 7.22 6.93 76.2 -100002
5/25/2021 9:00:00 AM 18.4 65.12 7.22 6.97 76.7 -100002
5/25/2021 9:15:00 AM 18.41 65.138 7.23 7.03 77.3 -100002
5/25/2021 9:30:00 AM 18.42 65.156 7.23 7.09 77.9 -100002
5/25/2021 9:45:00 AM 18.41 65.138 7.23 7.13 78.5 -100002
5/25/2021 10:00:00 AM 18.43 65.174 7.25 7.2 79.3 -100002
5/25/2021 10:15:00 AM 18.43 65.174 7.26 7.28 80.1 -100002
5/25/2021 10:30:00 AM 18.45 65.21 7.26 7.32 80.6 -100002
5/25/2021 10:45:00 AM 18.47 65.246 7.27 7.38 81.2 -100002
5/25/2021 11:00:00 AM 18.5 65.3 7.28 7.47 82.3 -100002
5/25/2021 11:15:00 AM 18.52 65.336 7.28 7.52 82.9 -100002
5/25/2021 11:30:00 AM 18.55 65.39 7.29 7.59 83.8 -100002
5/25/2021 11:45:00 AM 18.6 65.48 7.3 7.67 84.7 -100002
5/25/2021 12:00:00 PM 18.64 65.552 7.31 7.74 85.5 -100002
5/25/2021 12:15:00 PM 18.7 65.66 7.32 7.81 86.4 -100002
5/25/2021 12:30:00 PM 18.77 65.786 7.34 7.89 87.4 -100002
5/25/2021 12:45:00 PM 18.83 65.894 7.35 7.96 88.3 -100002
5/25/2021 1:00:00 PM 18.91 66.038 7.36 8 88.9 -100002
5/25/2021 1:15:00 PM 19 66.2 7.37 8.12 90.4 -100002
5/25/2021 1:30:00 PM 19.1 66.38 7.4 8.2 91.5 -100002
5/25/2021 1:45:00 PM 19.2 66.56 7.41 8.33 93 -100002
5/25/2021 2:00:00 PM 19.31 66.758 7.42 8.38 93.8 -100002
5/25/2021 2:15:00 PM 19.54 67.172 7.44 8.46 95.3 -100002
5/25/2021 2:30:00 PM 19.66 67.388 7.44 8.47 95.5 -100002
5/25/2021 2:45:00 PM 19.78 67.604 7.46 8.56 96.8 -100002
5/25/2021 3:00:00 PM 19.86 67.748 7.47 8.65 98 -100002
5/25/2021 3:15:00 PM 19.96 67.92799 7.47 8.69 98.7 -100002
5/25/2021 3:30:00 PM 20.09 68.162 7.49 8.75 99.5 -100002
5/25/2021 3:45:00 PM 20.18 68.324 7.5 8.78 100.1 -100002
5/25/2021 4:00:00 PM 20.35 68.63 7.51 8.79 100.5 -100002
5/25/2021 4:15:00 PM 20.54 68.972 7.53 8.86 101.7 -100002
5/25/2021 4:30:00 PM 20.66 69.188 7.54 8.88 102.2 -100002
5/25/2021 4:45:00 PM 20.78 69.404 7.55 8.81 101.6 -100002
5/25/2021 5:00:00 PM 20.84 69.512 7.56 8.94 103.2 -100002
5/25/2021 5:15:00 PM 20.89 69.602 7.54 8.9 102.8 -100002
5/25/2021 5:30:00 PM 20.91 69.638 7.57 8.91 103.1 -100002
5/25/2021 5:45:00 PM 20.87 69.566 7.56 8.88 102.6 -100002
5/25/2021 6:00:00 PM 20.89 69.602 7.57 8.9 102.9 -100002
5/25/2021 6:15:00 PM 20.84 69.512 7.56 8.83 101.9 -100002
5/25/2021 6:30:00 PM 20.79 69.422 7.56 8.78 101.3 -100002
5/25/2021 6:45:00 PM 20.72 69.296 7.55 8.74 100.6 -100002
5/25/2021 7:00:00 PM 20.67 69.206 7.53 8.63 99.3 -100002
5/25/2021 7:15:00 PM 20.62 69.116 7.51 8.57 98.5 -100002
5/25/2021 7:30:00 PM 20.56 69.008 7.53 8.55 98.2 -100002
5/25/2021 7:45:00 PM 20.5 68.9 7.5 8.38 96.1 -100002
5/25/2021 8:00:00 PM 20.45 68.81 7.48 8.36 95.8 -100002
5/25/2021 8:15:00 PM 20.41 68.738 7.48 8.29 94.9 -100002
5/25/2021 8:30:00 PM 20.36 68.648 7.47 8.23 94.2 -100002
5/25/2021 8:45:00 PM 20.33 68.594 7.45 8.16 93.3 -100002
5/25/2021 9:00:00 PM 20.28 68.504 7.44 8.09 92.4 -100002
5/25/2021 9:15:00 PM 20.25 68.45 7.43 8.03 91.6 -100002
5/25/2021 9:30:00 PM 20.22 68.396 7.42 7.94 90.5 -100002
5/25/2021 9:45:00 PM 20.18 68.324 7.41 7.89 89.9 -100002
5/25/2021 10:00:00 PM 20.14 68.252 7.4 7.83 89.2 -100002
5/25/2021 10:15:00 PM 20.11 68.198 7.39 7.76 88.4 -100002
5/25/2021 10:30:00 PM 20.07 68.126 7.38 7.69 87.5 -100002
5/25/2021 10:45:00 PM 20.04 68.07201 7.36 7.65 86.9 -100002
5/25/2021 11:00:00 PM 19.99 67.982 7.36 7.58 86.1 -100002
5/25/2021 11:15:00 PM 19.95 67.91 7.34 7.5 85.1 -100002
5/25/2021 11:30:00 PM 19.92 67.856 7.33 7.43 84.3 -100002
5/25/2021 11:45:00 PM 19.88 67.784 7.33 7.43 84.2 -100002
5/26/2021 12:00:00 AM 19.85 67.73 7.33 7.37 83.4 -100002
5/26/2021 12:15:00 AM 19.8 67.64 7.32 7.35 83.1 -100002
5/26/2021 12:30:00 AM 19.78 67.604 7.31 7.3 82.5 -100002
5/26/2021 12:45:00 AM 19.74 67.532 7.31 7.27 82.2 -100002
5/26/2021 1:00:00 AM 19.7 67.46 7.29 7.23 81.6 -100002
5/26/2021 1:15:00 AM 19.67 67.406 7.29 7.19 81.2 -100002
5/26/2021 1:30:00 AM 19.64 67.352 7.29 7.2 81.2 -100002
5/26/2021 1:45:00 AM 19.62 67.316 7.29 7.16 80.7 -100002
5/26/2021 2:00:00 AM 19.57 67.226 7.28 7.13 80.3 -100002
5/26/2021 2:15:00 AM 19.55 67.19 7.27 7.09 79.7 -100002
5/26/2021 2:30:00 AM 19.53 67.154 7.27 7.07 79.6 -100002
5/26/2021 2:45:00 AM 19.5 67.1 7.27 7.04 79.1 -100002
5/26/2021 3:00:00 AM 19.47 67.046 7.27 7.05 79.3 -100002
5/26/2021 3:15:00 AM 19.44 66.992 7.26 7.01 78.8 -100002
5/26/2021 3:30:00 AM 19.39 66.902 7.26 6.99 78.5 -100002
5/26/2021 3:45:00 AM 19.35 66.83 7.26 6.91 77.5 -100002
5/26/2021 4:00:00 AM 19.31 66.758 7.26 6.13 68.6 -100002
5/26/2021 4:15:00 AM 19.3 66.74 7.26 6.98 78.1 -100002
5/26/2021 4:30:00 AM 19.26 66.668 7.26 6.97 78 -100002
5/26/2021 4:45:00 AM 19.24 66.632 7.25 6.95 77.7 -100002
5/26/2021 5:00:00 AM 19.21 66.578 7.26 6.92 77.4 -100002
5/26/2021 5:15:00 AM 19.18 66.524 7.24 6.88 76.9 -100002
5/26/2021 5:30:00 AM 19.15 66.47 7.25 6.87 76.7 -100002
5/26/2021 5:45:00 AM 19.13 66.434 7.24 6.88 76.8 -100002
5/26/2021 6:00:00 AM 19.1 66.38 7.24 6.84 76.2 -100002
5/26/2021 6:15:00 AM 19.09 66.362 7.24 6.82 76.1 -100002
5/26/2021 6:30:00 AM 19.06 66.308 7.24 6.83 76.1 -100002
5/26/2021 6:45:00 AM 19.05 66.29 7.23 6.79 75.7 -100002
5/26/2021 7:00:00 AM 19.03 66.254 7.23 6.8 75.7 -100002
5/26/2021 7:15:00 AM 19.02 66.236 7.23 6.83 76 -100002
5/26/2021 7:30:00 AM 19.02 66.236 7.23 6.8 75.7 -100002
5/26/2021 7:45:00 AM 19.03 66.254 7.23 6.85 76.3 -100002
5/26/2021 8:00:00 AM 19.04 66.272 7.23 6.83 76.1 -100002
5/26/2021 8:15:00 AM 19.06 66.308 7.25 6.89 76.7 -100002
5/26/2021 8:30:00 AM 19.07 66.326 7.24 6.87 76.6 -100002
5/26/2021 8:45:00 AM 19.09 66.362 7.24 6.81 75.9 -100002
5/26/2021 9:00:00 AM 19.13 66.434 7.25 6.85 76.5 -100002
5/26/2021 9:15:00 AM 19.15 66.47 7.24 6.91 77.1 -100002
5/26/2021 9:30:00 AM 19.18 66.524 7.25 7 78.2 -100002
5/26/2021 9:45:00 AM 19.21 66.578 7.26 7 78.2 -100002
5/26/2021 10:00:00 AM 19.26 66.668 7.27 7.1 79.5 -100002
5/26/2021 10:15:00 AM 19.32 66.776 7.27 7.18 80.4 -100002
5/26/2021 10:30:00 AM 19.37 66.866 7.29 7.19 80.7 -100002
5/26/2021 10:45:00 AM 19.45 67.01 7.28 7.26 81.5 -100002
5/26/2021 11:00:00 AM 19.53 67.154 7.3 7.36 82.7 -100002
5/26/2021 11:15:00 AM 19.58 67.244 7.31 7.36 82.8 -100002
5/26/2021 11:30:00 AM 19.71 67.478 7.32 7.43 83.9 -100002
5/26/2021 11:45:00 AM 19.89 67.802 7.33 7.47 84.6 -100002
5/26/2021 12:00:00 PM 20.12 68.216 7.35 7.58 86.3 -100002
5/26/2021 12:15:00 PM 20.33 68.594 7.35 7.63 87.2 -100002
5/26/2021 12:30:00 PM 20.62 69.116 7.37 7.76 89.2 -100002
5/26/2021 12:45:00 PM 20.91 69.638 7.38 7.84 90.7 -100002
5/26/2021 1:00:00 PM 21.24 70.232 7.4 7.97 92.8 -100002
5/26/2021 1:15:00 PM 21.53 70.754 7.41 7.99 93.5 -100002
5/26/2021 1:30:00 PM 21.85 71.33 7.42 8.07 95 -100002
5/26/2021 1:45:00 PM 22.14 71.852 7.43 8.15 96.5 -100002
5/26/2021 2:00:00 PM 22.47 72.446 7.44 8.23 98.1 -100002
5/26/2021 2:15:00 PM 22.69 72.842 7.45 8.21 98.3 -100002
5/26/2021 2:30:00 PM 22.94 73.292 7.47 8.29 99.7 -100002
5/26/2021 2:45:00 PM 23.17 73.706 7.48 8.34 100.8 -100002
5/26/2021 3:00:00 PM 23.37 74.066 7.47 8.31 100.7 -100002
5/26/2021 3:15:00 PM 23.56 74.408 7.49 8.35 101.6 -100002
5/26/2021 3:30:00 PM 23.44 74.192 7.47 8.12 98.6 -100002
5/26/2021 3:45:00 PM 23.2 73.76 7.49 8.14 98.3 -100002
5/26/2021 4:00:00 PM 22.91 73.238 7.37 7.99 96 -100002
5/26/2021 4:15:00 PM 22.92 73.256 7.41 7.9 95 -100002
5/26/2021 4:30:00 PM 22.92 73.256 7.43 7.92 95.2 -100002
5/26/2021 4:45:00 PM 23.08 73.544 7.42 7.98 96.2 -100002
5/26/2021 5:00:00 PM 23.05 73.49 7.43 7.95 95.8 -100002
5/26/2021 5:15:00 PM 23.14 73.652 7.43 7.93 95.7 -100002
5/26/2021 5:30:00 PM 23.14 73.652 7.42 7.88 95.1 -100002
5/26/2021 5:45:00 PM 23.16 73.688 7.42 7.79 94.1 -100002
5/26/2021 6:00:00 PM 23.13 73.634 7.4 7.69 92.8 -100002
5/26/2021 6:15:00 PM 23.02 73.436 7.39 7.56 91 -100002
5/26/2021 6:30:00 PM 22.96 73.328 7.39 7.4 89.1 -100002
5/26/2021 6:45:00 PM 22.9 73.22 7.38 7.35 88.4 -100002
5/26/2021 7:00:00 PM 22.82 73.076 7.36 7.25 87 -100002
5/26/2021 7:15:00 PM 22.77 72.986 7.35 7.16 85.8 -100002
5/26/2021 7:30:00 PM 22.71 72.878 7.35 7.15 85.7 -100002
5/26/2021 7:45:00 PM 22.65 72.77 7.34 7.09 84.8 -100002
5/26/2021 8:00:00 PM 22.57 72.626 7.32 7.01 83.7 -100002
5/26/2021 8:15:00 PM 22.51 72.518 7.32 6.93 82.6 -100002
5/26/2021 8:30:00 PM 22.44 72.392 7.31 6.88 82 -100002
5/26/2021 8:45:00 PM 22.39 72.302 7.26 6.8 81 -100002
5/26/2021 9:00:00 PM 22.36 72.248 7.28 6.77 80.5 -100002
5/26/2021 9:15:00 PM 22.34 72.212 7.28 6.8 80.8 -100002
5/26/2021 9:30:00 PM 22.31 72.158 7.28 6.58 78.2 -100002
5/26/2021 9:45:00 PM 22.28 72.104 7.26 6.64 78.8 -100002
5/26/2021 10:00:00 PM 22.26 72.068 7.26 6.65 78.9 -100002
5/26/2021 10:15:00 PM 22.22 71.996 7.25 6.58 78.1 -100002
5/26/2021 10:30:00 PM 22.18 71.924 7.24 6.54 77.5 -100002
5/26/2021 10:45:00 PM 22.14 71.852 7.22 6.42 76.1 -100002
5/26/2021 11:00:00 PM 22.1 71.78 7.22 6.41 75.8 -100002
5/26/2021 11:15:00 PM 22.07 71.726 7.22 6.39 75.6 -100002
5/26/2021 11:30:00 PM 22.05 71.69 7.22 6.21 73.4 -100002
5/26/2021 11:45:00 PM 22.01 71.618 7.21 6.28 74.2 -100002
5/27/2021 12:00:00 AM 21.99 71.582 7.2 6.26 74 -100002
5/27/2021 12:15:00 AM 21.98 71.564 7.2 6.24 73.7 -100002
5/27/2021 12:30:00 AM 21.95 71.51 7.2 6.2 73.1 -100002
5/27/2021 12:45:00 AM 21.92 71.456 7.2 6.16 72.6 -100002
5/27/2021 1:00:00 AM 21.9 71.42 7.19 6.16 72.7 -100002
5/27/2021 1:15:00 AM 21.89 71.402 7.19 6.14 72.3 -100002
5/27/2021 1:30:00 AM 21.87 71.366 7.19 6.11 71.9 -100002
5/27/2021 1:45:00 AM 21.86 71.348 7.18 6.1 71.9 -100002
5/27/2021 2:00:00 AM 21.84 71.312 7.18 6.08 71.6 -100002
5/27/2021 2:15:00 AM 21.83 71.294 7.19 6.07 71.5 -100002
5/27/2021 2:30:00 AM 21.82 71.276 7.19 6.07 71.5 -100002
5/27/2021 2:45:00 AM 21.77 71.186 7.18 6.01 70.6 -100002
5/27/2021 3:00:00 AM 21.75 71.15 7.18 5.99 70.5 -100002
5/27/2021 3:15:00 AM 21.72 71.096 7.18 5.96 70 -100002
5/27/2021 3:30:00 AM 21.68 71.024 7.17 5.91 69.4 -100002
5/27/2021 3:45:00 AM 21.64 70.952 7.17 5.87 68.9 -100002
5/27/2021 4:00:00 AM 21.6 70.88 7.16 5.87 68.8 -100002
5/27/2021 4:15:00 AM 21.55 70.79 7.17 5.84 68.4 -100002
5/27/2021 4:30:00 AM 21.51 70.718 7.16 5.83 68.2 -100002
5/27/2021 4:45:00 AM 21.46 70.628 7.13 5.79 67.7 -100002
5/27/2021 5:00:00 AM 21.42 70.556 7.15 5.77 67.4 -100002
5/27/2021 5:15:00 AM 21.37 70.466 7.14 5.73 66.8 -100002
5/27/2021 5:30:00 AM 21.32 70.376 7.15 5.74 66.9 -100002
5/27/2021 5:45:00 AM 21.28 70.304 7.15 5.74 66.9 -100002
5/27/2021 6:00:00 AM 21.23 70.214 7.15 5.72 66.6 -100002
5/27/2021 6:15:00 AM 21.18 70.124 7.15 5.72 66.5 -100002
5/27/2021 6:30:00 AM 21.14 70.052 7.14 5.71 66.3 -100002
5/27/2021 6:45:00 AM 21.1 69.98 7.14 5.72 66.4 -100002
5/27/2021 7:00:00 AM 21.06 69.908 7.14 5.71 66.2 -100002
5/27/2021 7:15:00 AM 21.03 69.854 7.14 5.7 66 -100002
5/27/2021 7:30:00 AM 21 69.8 7.14 5.68 65.8 -100002
5/27/2021 7:45:00 AM 20.98 69.764 7.14 5.68 65.8 -100002
5/27/2021 8:00:00 AM 20.97 69.746 7.14 5.7 65.9 -100002
5/27/2021 8:15:00 AM 20.95 69.71 7.14 5.7 66 -100002
5/27/2021 8:30:00 AM 20.94 69.692 7.14 5.72 66.2 -100002
5/27/2021 8:45:00 AM 20.94 69.692 7.14 5.75 66.6 -100002
5/27/2021 9:00:00 AM 20.97 69.746 7.15 5.79 67 -100002
5/27/2021 9:15:00 AM 20.97 69.746 7.15 5.79 67.1 -100002
5/27/2021 9:30:00 AM 20.97 69.746 7.15 5.83 67.5 -100002
5/27/2021 9:45:00 AM 21.02 69.836 7.16 5.9 68.3 -100002
5/27/2021 10:00:00 AM 21.05 69.89 7.16 5.93 68.8 -100002
5/27/2021 10:15:00 AM 21.1 69.98 7.17 5.96 69.2 -100002
5/27/2021 10:30:00 AM 21.22 70.196 7.17 6.04 70.3 -100002
5/27/2021 10:45:00 AM 21.3 70.34 7.18 6.08 70.8 -100002
5/27/2021 11:00:00 AM 21.46 70.628 7.18 6.14 71.7 -100002
5/27/2021 11:15:00 AM 21.6 70.88 7.19 6.2 72.7 -100002
5/27/2021 11:30:00 AM 21.71 71.078 7.19 6.23 73.2 -100002
5/27/2021 11:45:00 AM 21.84 71.312 7.2 6.28 73.9 -100002
5/27/2021 12:00:00 PM 22.02 71.636 7.21 6.35 75 -100002
5/27/2021 12:15:00 PM 22.24 72.032 7.22 6.42 76.1 -100002
5/27/2021 12:30:00 PM 22.46 72.42799 7.23 6.47 77.1 -100002
5/27/2021 12:45:00 PM 22.64 72.752 7.23 6.53 78.1 -100002
5/27/2021 1:00:00 PM 22.9 73.22 7.24 6.64 79.7 -100002
5/27/2021 1:15:00 PM 23.1 73.58 7.25 6.67 80.5 -100002
5/27/2021 1:30:00 PM 23.34 74.012 7.26 6.79 82.3 -100002
5/27/2021 1:45:00 PM 23.55 74.39 7.27 6.86 83.4 -100002
5/27/2021 2:00:00 PM 23.75 74.75 7.27 6.89 84.2 -100002
5/27/2021 2:15:00 PM 23.93 75.074 7.28 6.93 84.9 -100002
5/27/2021 2:30:00 PM 24.1 75.38 7.29 7 86.1 -100002
5/27/2021 2:45:00 PM 24.27 75.686 7.29 7.07 87.2 -100002
5/27/2021 3:00:00 PM 24.39 75.902 7.3 7.14 88.3 -100002
5/27/2021 3:15:00 PM 24.51 76.118 7.31 7.18 88.9 -100002
5/27/2021 3:30:00 PM 24.62 76.316 7.31 7.21 89.5 -100002
5/27/2021 3:45:00 PM 24.65 76.37 7.32 7.28 90.4 -100002
5/27/2021 4:00:00 PM 24.7 76.46 7.32 7.29 90.6 -100002
5/27/2021 4:15:00 PM 24.64 76.352 7.32 7.27 90.3 -100002
5/27/2021 4:30:00 PM 24.59 76.262 7.33 7.29 90.4 -100002
5/27/2021 4:45:00 PM 24.59 76.262 7.33 7.33 90.9 -100002
5/27/2021 5:00:00 PM 24.54 76.172 7.33 7.35 91.1 -100002
5/27/2021 5:15:00 PM 24.49 76.082 7.33 7.31 90.4 -100002
5/27/2021 5:30:00 PM 24.37 75.866 7.34 7.28 90 -100002
5/27/2021 5:45:00 PM 24.26 75.668 7.34 7.31 90.2 -100002
5/27/2021 6:00:00 PM 24.24 75.632 7.32 7.28 89.7 -100002
5/27/2021 6:15:00 PM 24.13 75.434 7.33 7.26 89.3 -100002
5/27/2021 6:30:00 PM 24.02 75.236 7.33 7.23 88.7 -100002
5/27/2021 6:45:00 PM 23.93 75.074 7.32 7.17 87.9 -100002
5/27/2021 7:00:00 PM 23.81 74.858 7.32 7.13 87.2 -100002
5/27/2021 7:15:00 PM 23.71 74.67799 7.32 7.06 86.2 -100002
5/27/2021 7:30:00 PM 23.63 74.534 7.32 7.07 86.1 -100002
5/27/2021 7:45:00 PM 23.55 74.39 7.3 7.02 85.4 -100002
5/27/2021 8:00:00 PM 23.48 74.264 7.3 6.96 84.6 -100002
5/27/2021 8:15:00 PM 23.41 74.138 7.3 6.93 84.1 -100002
5/27/2021 8:30:00 PM 23.36 74.048 7.29 6.89 83.5 -100002
5/27/2021 8:45:00 PM 23.29 73.922 7.29 6.83 82.7 -100002
5/27/2021 9:00:00 PM 23.24 73.832 7.28 6.8 82.2 -100002
5/27/2021 9:15:00 PM 23.19 73.742 7.27 6.72 81.2 -100002
5/27/2021 9:30:00 PM 23.14 73.652 7.27 6.71 81 -100002
5/27/2021 9:45:00 PM 23.08 73.544 7.26 6.66 80.3 -100002
5/27/2021 10:00:00 PM 23.05 73.49 7.26 6.62 79.8 -100002
5/27/2021 10:15:00 PM 23 73.4 7.26 6.58 79.2 -100002
5/27/2021 10:30:00 PM 22.95 73.31 7.25 6.54 78.7 -100002
5/27/2021 10:45:00 PM 22.91 73.238 7.25 6.53 78.5 -100002
5/27/2021 11:00:00 PM 22.85 73.13 7.25 6.49 77.9 -100002
5/27/2021 11:15:00 PM 22.81 73.058 7.25 6.45 77.3 -100002
5/27/2021 11:30:00 PM 22.78 73.004 7.25 6.41 76.9 -100002
5/27/2021 11:45:00 PM 22.72 72.896 7.24 6.38 76.4 -100002
5/28/2021 12:00:00 AM 22.7 72.86 7.25 6.4 76.6 -100002
5/28/2021 12:15:00 AM 22.64 72.752 7.24 6.35 75.9 -100002
5/28/2021 12:30:00 AM 22.58 72.644 7.23 6.3 75.3 -100002
5/28/2021 12:45:00 AM 22.54 72.57201 7.23 6.29 75.1 -100002
5/28/2021 1:00:00 AM 22.48 72.464 7.23 6.26 74.6 -100002
5/28/2021 1:15:00 AM 22.45 72.41 7.22 6.26 74.6 -100002
5/28/2021 1:30:00 AM 22.39 72.302 7.22 6.25 74.4 -100002
5/28/2021 1:45:00 AM 22.33 72.194 7.22 6.2 73.7 -100002
5/28/2021 2:00:00 AM 22.27 72.086 7.22 6.19 73.5 -100002
5/28/2021 2:15:00 AM 22.2 71.96 7.21 6.16 73 -100002
5/28/2021 2:30:00 AM 22.13 71.834 7.21 6.14 72.7 -100002
5/28/2021 2:45:00 AM 22.07 71.726 7.2 6.13 72.5 -100002
5/28/2021 3:00:00 AM 22 71.6 7.2 6.11 72.2 -100002
5/28/2021 3:15:00 AM 21.93 71.474 7.2 6.09 71.9 -100002
5/28/2021 3:30:00 AM 21.86 71.348 7.2 6.09 71.7 -100002
5/28/2021 3:45:00 AM 21.8 71.24 7.19 6.07 71.4 -100002
5/28/2021 4:00:00 AM 21.73